<?xml version="1.0" encoding="UTF-8" standalone="no" ?>
<gpx xmlns="http://www.topografix.com/GPX/1/1" xmlns:xsi="http://www.w3.org/2001/XMLSchema-instance" xsi:schemaLocation="http://www.topografix.com/GPX/1/1 http://www.topografix.com/GPX/1/1/gpx.xsd" version="1.1" creator="VisuGPX - https://www.visugpx.com">
  <metadata>
    <name>La Cadière Port d'Alon La Madrague</name>
    <desc><![CDATA[Petit circuit permettant de rejoindre la calanque de Port d'Alon, puis d' accéder à la plage de la Madrague et son petit port, puis aux plages des Lecques. Retour sur La Cadière par une petite route au milieu des vignes. Réalisé en Vélo électrique
]]></desc>
  </metadata>
  <trk>
    <name><![CDATA[Port déAlon La Madrague E-BIKE]]></name>
    <trkseg>
      <trkpt lat="43.19576" lon="5.7574">
        <ele>135.39999389648</ele>
        <time>2016-04-14T12:23:24.000Z</time>
      </trkpt>
      <trkpt lat="43.19574" lon="5.75748">
        <ele>134.39999389648</ele>
        <time>2016-04-14T12:23:37.000Z</time>
      </trkpt>
      <trkpt lat="43.1957" lon="5.75754">
        <ele>133</ele>
        <time>2016-04-14T12:23:39.000Z</time>
      </trkpt>
      <trkpt lat="43.19555" lon="5.7577">
        <ele>129</ele>
        <time>2016-04-14T12:23:44.000Z</time>
      </trkpt>
      <trkpt lat="43.19544" lon="5.75779">
        <ele>127.80000305176</ele>
        <time>2016-04-14T12:23:47.000Z</time>
      </trkpt>
      <trkpt lat="43.1954" lon="5.75783">
        <ele>127.19999694824</ele>
        <time>2016-04-14T12:23:49.000Z</time>
      </trkpt>
      <trkpt lat="43.19538" lon="5.75785">
        <ele>127</ele>
        <time>2016-04-14T12:23:50.000Z</time>
      </trkpt>
      <trkpt lat="43.19535" lon="5.7579">
        <ele>126.59999847412</ele>
        <time>2016-04-14T12:23:53.000Z</time>
      </trkpt>
      <trkpt lat="43.19534" lon="5.75793">
        <ele>126.59999847412</ele>
        <time>2016-04-14T12:23:54.000Z</time>
      </trkpt>
      <trkpt lat="43.19534" lon="5.75804">
        <ele>126.40000152588</ele>
        <time>2016-04-14T12:23:56.000Z</time>
      </trkpt>
      <trkpt lat="43.19534" lon="5.7581">
        <ele>126.19999694824</ele>
        <time>2016-04-14T12:23:57.000Z</time>
      </trkpt>
      <trkpt lat="43.19535" lon="5.75816">
        <ele>125.80000305176</ele>
        <time>2016-04-14T12:23:58.000Z</time>
      </trkpt>
      <trkpt lat="43.19534" lon="5.75825">
        <ele>125.19999694824</ele>
        <time>2016-04-14T12:24:00.000Z</time>
      </trkpt>
      <trkpt lat="43.19529" lon="5.75834">
        <ele>124</ele>
        <time>2016-04-14T12:24:02.000Z</time>
      </trkpt>
      <trkpt lat="43.19526" lon="5.75839">
        <ele>123.40000152588</ele>
        <time>2016-04-14T12:24:03.000Z</time>
      </trkpt>
      <trkpt lat="43.1951" lon="5.75866">
        <ele>120.19999694824</ele>
        <time>2016-04-14T12:24:07.000Z</time>
      </trkpt>
      <trkpt lat="43.19502" lon="5.7588">
        <ele>118</ele>
        <time>2016-04-14T12:24:09.000Z</time>
      </trkpt>
      <trkpt lat="43.19495" lon="5.75893">
        <ele>116</ele>
        <time>2016-04-14T12:24:11.000Z</time>
      </trkpt>
      <trkpt lat="43.19491" lon="5.75899">
        <ele>115.19999694824</ele>
        <time>2016-04-14T12:24:12.000Z</time>
      </trkpt>
      <trkpt lat="43.19487" lon="5.75903">
        <ele>114.40000152588</ele>
        <time>2016-04-14T12:24:13.000Z</time>
      </trkpt>
      <trkpt lat="43.19483" lon="5.75907">
        <ele>113.59999847412</ele>
        <time>2016-04-14T12:24:14.000Z</time>
      </trkpt>
      <trkpt lat="43.19478" lon="5.75909">
        <ele>112.59999847412</ele>
        <time>2016-04-14T12:24:15.000Z</time>
      </trkpt>
      <trkpt lat="43.19472" lon="5.75908">
        <ele>111.59999847412</ele>
        <time>2016-04-14T12:24:16.000Z</time>
      </trkpt>
      <trkpt lat="43.19467" lon="5.75906">
        <ele>110.59999847412</ele>
        <time>2016-04-14T12:24:17.000Z</time>
      </trkpt>
      <trkpt lat="43.19455" lon="5.759">
        <ele>108.59999847412</ele>
        <time>2016-04-14T12:24:19.000Z</time>
      </trkpt>
      <trkpt lat="43.19449" lon="5.75895">
        <ele>107.59999847412</ele>
        <time>2016-04-14T12:24:20.000Z</time>
      </trkpt>
      <trkpt lat="43.19444" lon="5.75891">
        <ele>106.80000305176</ele>
        <time>2016-04-14T12:24:21.000Z</time>
      </trkpt>
      <trkpt lat="43.19413" lon="5.75787">
        <ele>108.19999694824</ele>
        <time>2016-04-14T12:24:39.000Z</time>
      </trkpt>
      <trkpt lat="43.19426" lon="5.75777">
        <ele>110.80000305176</ele>
        <time>2016-04-14T12:24:41.000Z</time>
      </trkpt>
      <trkpt lat="43.19441" lon="5.7576">
        <ele>113.40000152588</ele>
        <time>2016-04-14T12:24:44.000Z</time>
      </trkpt>
      <trkpt lat="43.19444" lon="5.75754">
        <ele>114.19999694824</ele>
        <time>2016-04-14T12:24:45.000Z</time>
      </trkpt>
      <trkpt lat="43.19448" lon="5.75748">
        <ele>114.80000305176</ele>
        <time>2016-04-14T12:24:46.000Z</time>
      </trkpt>
      <trkpt lat="43.1945" lon="5.75741">
        <ele>115.19999694824</ele>
        <time>2016-04-14T12:24:47.000Z</time>
      </trkpt>
      <trkpt lat="43.19457" lon="5.75715">
        <ele>116.80000305176</ele>
        <time>2016-04-14T12:24:51.000Z</time>
      </trkpt>
      <trkpt lat="43.19458" lon="5.75703">
        <ele>117.40000152588</ele>
        <time>2016-04-14T12:24:53.000Z</time>
      </trkpt>
      <trkpt lat="43.19458" lon="5.7568">
        <ele>118.19999694824</ele>
        <time>2016-04-14T12:24:57.000Z</time>
      </trkpt>
      <trkpt lat="43.19458" lon="5.75674">
        <ele>118.40000152588</ele>
        <time>2016-04-14T12:24:58.000Z</time>
      </trkpt>
      <trkpt lat="43.19458" lon="5.75652">
        <ele>119</ele>
        <time>2016-04-14T12:25:02.000Z</time>
      </trkpt>
      <trkpt lat="43.19459" lon="5.75641">
        <ele>119.40000152588</ele>
        <time>2016-04-14T12:25:04.000Z</time>
      </trkpt>
      <trkpt lat="43.19462" lon="5.7563">
        <ele>120</ele>
        <time>2016-04-14T12:25:06.000Z</time>
      </trkpt>
      <trkpt lat="43.19469" lon="5.75611">
        <ele>121.40000152588</ele>
        <time>2016-04-14T12:25:10.000Z</time>
      </trkpt>
      <trkpt lat="43.19483" lon="5.75586">
        <ele>124.19999694824</ele>
        <time>2016-04-14T12:25:16.000Z</time>
      </trkpt>
      <trkpt lat="43.19485" lon="5.75581">
        <ele>124.59999847412</ele>
        <time>2016-04-14T12:25:17.000Z</time>
      </trkpt>
      <trkpt lat="43.19493" lon="5.75551">
        <ele>126.40000152588</ele>
        <time>2016-04-14T12:25:23.000Z</time>
      </trkpt>
      <trkpt lat="43.19494" lon="5.75546">
        <ele>126.80000305176</ele>
        <time>2016-04-14T12:25:24.000Z</time>
      </trkpt>
      <trkpt lat="43.19497" lon="5.75523">
        <ele>127.59999847412</ele>
        <time>2016-04-14T12:25:28.000Z</time>
      </trkpt>
      <trkpt lat="43.195" lon="5.75506">
        <ele>128.19999694824</ele>
        <time>2016-04-14T12:25:31.000Z</time>
      </trkpt>
      <trkpt lat="43.19503" lon="5.75485">
        <ele>128.80000305176</ele>
        <time>2016-04-14T12:25:34.000Z</time>
      </trkpt>
      <trkpt lat="43.19509" lon="5.75455">
        <ele>130.39999389648</ele>
        <time>2016-04-14T12:25:39.000Z</time>
      </trkpt>
      <trkpt lat="43.19513" lon="5.75438">
        <ele>131.80000305176</ele>
        <time>2016-04-14T12:25:42.000Z</time>
      </trkpt>
      <trkpt lat="43.19514" lon="5.75433">
        <ele>132.39999389648</ele>
        <time>2016-04-14T12:25:43.000Z</time>
      </trkpt>
      <trkpt lat="43.19518" lon="5.75406">
        <ele>134.39999389648</ele>
        <time>2016-04-14T12:25:48.000Z</time>
      </trkpt>
      <trkpt lat="43.19518" lon="5.75401">
        <ele>134.60000610352</ele>
        <time>2016-04-14T12:25:49.000Z</time>
      </trkpt>
      <trkpt lat="43.19521" lon="5.75377">
        <ele>135.60000610352</ele>
        <time>2016-04-14T12:25:54.000Z</time>
      </trkpt>
      <trkpt lat="43.1952" lon="5.75373">
        <ele>135.39999389648</ele>
        <time>2016-04-14T12:25:55.000Z</time>
      </trkpt>
      <trkpt lat="43.19511" lon="5.75371">
        <ele>133.60000610352</ele>
        <time>2016-04-14T12:25:58.000Z</time>
      </trkpt>
      <trkpt lat="43.19506" lon="5.7537">
        <ele>133.19999694824</ele>
        <time>2016-04-14T12:25:59.000Z</time>
      </trkpt>
      <trkpt lat="43.19484" lon="5.75368">
        <ele>130</ele>
        <time>2016-04-14T12:26:03.000Z</time>
      </trkpt>
      <trkpt lat="43.19461" lon="5.75365">
        <ele>126.59999847412</ele>
        <time>2016-04-14T12:26:07.000Z</time>
      </trkpt>
      <trkpt lat="43.19449" lon="5.75361">
        <ele>125</ele>
        <time>2016-04-14T12:26:09.000Z</time>
      </trkpt>
      <trkpt lat="43.19435" lon="5.75342">
        <ele>123</ele>
        <time>2016-04-14T12:26:12.000Z</time>
      </trkpt>
      <trkpt lat="43.19431" lon="5.75334">
        <ele>122.40000152588</ele>
        <time>2016-04-14T12:26:13.000Z</time>
      </trkpt>
      <trkpt lat="43.19422" lon="5.75318">
        <ele>121</ele>
        <time>2016-04-14T12:26:15.000Z</time>
      </trkpt>
      <trkpt lat="43.19408" lon="5.75292">
        <ele>119</ele>
        <time>2016-04-14T12:26:18.000Z</time>
      </trkpt>
      <trkpt lat="43.19403" lon="5.75284">
        <ele>118.40000152588</ele>
        <time>2016-04-14T12:26:19.000Z</time>
      </trkpt>
      <trkpt lat="43.19392" lon="5.75269">
        <ele>116.80000305176</ele>
        <time>2016-04-14T12:26:21.000Z</time>
      </trkpt>
      <trkpt lat="43.19379" lon="5.75253">
        <ele>114.80000305176</ele>
        <time>2016-04-14T12:26:23.000Z</time>
      </trkpt>
      <trkpt lat="43.19372" lon="5.75246">
        <ele>114</ele>
        <time>2016-04-14T12:26:24.000Z</time>
      </trkpt>
      <trkpt lat="43.19359" lon="5.75231">
        <ele>112</ele>
        <time>2016-04-14T12:26:26.000Z</time>
      </trkpt>
      <trkpt lat="43.19345" lon="5.75217">
        <ele>110.40000152588</ele>
        <time>2016-04-14T12:26:28.000Z</time>
      </trkpt>
      <trkpt lat="43.19338" lon="5.75211">
        <ele>110</ele>
        <time>2016-04-14T12:26:29.000Z</time>
      </trkpt>
      <trkpt lat="43.19322" lon="5.75203">
        <ele>109.19999694824</ele>
        <time>2016-04-14T12:26:31.000Z</time>
      </trkpt>
      <trkpt lat="43.19305" lon="5.75196">
        <ele>108.19999694824</ele>
        <time>2016-04-14T12:26:33.000Z</time>
      </trkpt>
      <trkpt lat="43.19289" lon="5.75185">
        <ele>107.40000152588</ele>
        <time>2016-04-14T12:26:35.000Z</time>
      </trkpt>
      <trkpt lat="43.19282" lon="5.75177">
        <ele>107.40000152588</ele>
        <time>2016-04-14T12:26:36.000Z</time>
      </trkpt>
      <trkpt lat="43.1927" lon="5.75158">
        <ele>107.59999847412</ele>
        <time>2016-04-14T12:26:38.000Z</time>
      </trkpt>
      <trkpt lat="43.19259" lon="5.75137">
        <ele>107.80000305176</ele>
        <time>2016-04-14T12:26:40.000Z</time>
      </trkpt>
      <trkpt lat="43.19249" lon="5.75118">
        <ele>107</ele>
        <time>2016-04-14T12:26:42.000Z</time>
      </trkpt>
      <trkpt lat="43.19238" lon="5.75099">
        <ele>106</ele>
        <time>2016-04-14T12:26:44.000Z</time>
      </trkpt>
      <trkpt lat="43.19223" lon="5.75072">
        <ele>105</ele>
        <time>2016-04-14T12:26:47.000Z</time>
      </trkpt>
      <trkpt lat="43.19213" lon="5.75055">
        <ele>104.19999694824</ele>
        <time>2016-04-14T12:26:49.000Z</time>
      </trkpt>
      <trkpt lat="43.19203" lon="5.75039">
        <ele>103.80000305176</ele>
        <time>2016-04-14T12:26:51.000Z</time>
      </trkpt>
      <trkpt lat="43.19191" lon="5.75017">
        <ele>103.40000152588</ele>
        <time>2016-04-14T12:26:54.000Z</time>
      </trkpt>
      <trkpt lat="43.19187" lon="5.7501">
        <ele>103.19999694824</ele>
        <time>2016-04-14T12:26:55.000Z</time>
      </trkpt>
      <trkpt lat="43.19177" lon="5.74985">
        <ele>103.40000152588</ele>
        <time>2016-04-14T12:26:59.000Z</time>
      </trkpt>
      <trkpt lat="43.19173" lon="5.74952">
        <ele>105</ele>
        <time>2016-04-14T12:27:04.000Z</time>
      </trkpt>
      <trkpt lat="43.19164" lon="5.74909">
        <ele>107.19999694824</ele>
        <time>2016-04-14T12:27:11.000Z</time>
      </trkpt>
      <trkpt lat="43.19146" lon="5.74878">
        <ele>108.40000152588</ele>
        <time>2016-04-14T12:27:17.000Z</time>
      </trkpt>
      <trkpt lat="43.19139" lon="5.7487">
        <ele>108.59999847412</ele>
        <time>2016-04-14T12:27:19.000Z</time>
      </trkpt>
      <trkpt lat="43.19135" lon="5.74867">
        <ele>108.80000305176</ele>
        <time>2016-04-14T12:27:20.000Z</time>
      </trkpt>
      <trkpt lat="43.19126" lon="5.74861">
        <ele>109</ele>
        <time>2016-04-14T12:27:22.000Z</time>
      </trkpt>
      <trkpt lat="43.19121" lon="5.7486">
        <ele>109</ele>
        <time>2016-04-14T12:27:23.000Z</time>
      </trkpt>
      <trkpt lat="43.19106" lon="5.74856">
        <ele>109.19999694824</ele>
        <time>2016-04-14T12:27:26.000Z</time>
      </trkpt>
      <trkpt lat="43.19086" lon="5.74851">
        <ele>109.80000305176</ele>
        <time>2016-04-14T12:27:30.000Z</time>
      </trkpt>
      <trkpt lat="43.19057" lon="5.74842">
        <ele>111.40000152588</ele>
        <time>2016-04-14T12:27:36.000Z</time>
      </trkpt>
      <trkpt lat="43.19044" lon="5.74836">
        <ele>112</ele>
        <time>2016-04-14T12:27:39.000Z</time>
      </trkpt>
      <trkpt lat="43.1904" lon="5.74833">
        <ele>112.40000152588</ele>
        <time>2016-04-14T12:27:40.000Z</time>
      </trkpt>
      <trkpt lat="43.19036" lon="5.7483">
        <ele>112.59999847412</ele>
        <time>2016-04-14T12:27:41.000Z</time>
      </trkpt>
      <trkpt lat="43.19026" lon="5.74819">
        <ele>113.19999694824</ele>
        <time>2016-04-14T12:27:44.000Z</time>
      </trkpt>
      <trkpt lat="43.19023" lon="5.74815">
        <ele>113.40000152588</ele>
        <time>2016-04-14T12:27:45.000Z</time>
      </trkpt>
      <trkpt lat="43.19014" lon="5.74803">
        <ele>113.80000305176</ele>
        <time>2016-04-14T12:27:48.000Z</time>
      </trkpt>
      <trkpt lat="43.19005" lon="5.74791">
        <ele>113.80000305176</ele>
        <time>2016-04-14T12:27:51.000Z</time>
      </trkpt>
      <trkpt lat="43.19003" lon="5.74787">
        <ele>113.59999847412</ele>
        <time>2016-04-14T12:27:52.000Z</time>
      </trkpt>
      <trkpt lat="43.19" lon="5.74782">
        <ele>113.59999847412</ele>
        <time>2016-04-14T12:27:53.000Z</time>
      </trkpt>
      <trkpt lat="43.18998" lon="5.74776">
        <ele>113.59999847412</ele>
        <time>2016-04-14T12:27:54.000Z</time>
      </trkpt>
      <trkpt lat="43.18992" lon="5.74758">
        <ele>113.19999694824</ele>
        <time>2016-04-14T12:27:57.000Z</time>
      </trkpt>
      <trkpt lat="43.18986" lon="5.74739">
        <ele>113</ele>
        <time>2016-04-14T12:28:00.000Z</time>
      </trkpt>
      <trkpt lat="43.18979" lon="5.74721">
        <ele>112.80000305176</ele>
        <time>2016-04-14T12:28:03.000Z</time>
      </trkpt>
      <trkpt lat="43.18976" lon="5.74708">
        <ele>113.40000152588</ele>
        <time>2016-04-14T12:28:05.000Z</time>
      </trkpt>
      <trkpt lat="43.18969" lon="5.7469">
        <ele>114.40000152588</ele>
        <time>2016-04-14T12:28:08.000Z</time>
      </trkpt>
      <trkpt lat="43.1896" lon="5.74674">
        <ele>115</ele>
        <time>2016-04-14T12:28:11.000Z</time>
      </trkpt>
      <trkpt lat="43.18957" lon="5.74669">
        <ele>115.19999694824</ele>
        <time>2016-04-14T12:28:12.000Z</time>
      </trkpt>
      <trkpt lat="43.18938" lon="5.74655">
        <ele>115.40000152588</ele>
        <time>2016-04-14T12:28:16.000Z</time>
      </trkpt>
      <trkpt lat="43.18934" lon="5.74652">
        <ele>115.40000152588</ele>
        <time>2016-04-14T12:28:17.000Z</time>
      </trkpt>
      <trkpt lat="43.18926" lon="5.74644">
        <ele>115.59999847412</ele>
        <time>2016-04-14T12:28:19.000Z</time>
      </trkpt>
      <trkpt lat="43.18906" lon="5.74625">
        <ele>116.40000152588</ele>
        <time>2016-04-14T12:28:24.000Z</time>
      </trkpt>
      <trkpt lat="43.18877" lon="5.74605">
        <ele>117.19999694824</ele>
        <time>2016-04-14T12:28:31.000Z</time>
      </trkpt>
      <trkpt lat="43.18865" lon="5.74587">
        <ele>117.80000305176</ele>
        <time>2016-04-14T12:28:35.000Z</time>
      </trkpt>
      <trkpt lat="43.18862" lon="5.74582">
        <ele>118</ele>
        <time>2016-04-14T12:28:36.000Z</time>
      </trkpt>
      <trkpt lat="43.18854" lon="5.74565">
        <ele>118.59999847412</ele>
        <time>2016-04-14T12:28:39.000Z</time>
      </trkpt>
      <trkpt lat="43.18843" lon="5.7454">
        <ele>118.40000152588</ele>
        <time>2016-04-14T12:28:44.000Z</time>
      </trkpt>
      <trkpt lat="43.18841" lon="5.74535">
        <ele>118.19999694824</ele>
        <time>2016-04-14T12:28:45.000Z</time>
      </trkpt>
      <trkpt lat="43.1883" lon="5.74493">
        <ele>116.80000305176</ele>
        <time>2016-04-14T12:28:52.000Z</time>
      </trkpt>
      <trkpt lat="43.18828" lon="5.74487">
        <ele>116.59999847412</ele>
        <time>2016-04-14T12:28:53.000Z</time>
      </trkpt>
      <trkpt lat="43.18814" lon="5.74445">
        <ele>115</ele>
        <time>2016-04-14T12:29:00.000Z</time>
      </trkpt>
      <trkpt lat="43.18811" lon="5.74439">
        <ele>114.80000305176</ele>
        <time>2016-04-14T12:29:01.000Z</time>
      </trkpt>
      <trkpt lat="43.18785" lon="5.744">
        <ele>113.40000152588</ele>
        <time>2016-04-14T12:29:08.000Z</time>
      </trkpt>
      <trkpt lat="43.18767" lon="5.74377">
        <ele>112.40000152588</ele>
        <time>2016-04-14T12:29:12.000Z</time>
      </trkpt>
      <trkpt lat="43.18752" lon="5.74359">
        <ele>111.59999847412</ele>
        <time>2016-04-14T12:29:15.000Z</time>
      </trkpt>
      <trkpt lat="43.18747" lon="5.74352">
        <ele>111.40000152588</ele>
        <time>2016-04-14T12:29:16.000Z</time>
      </trkpt>
      <trkpt lat="43.18742" lon="5.74346">
        <ele>111</ele>
        <time>2016-04-14T12:29:17.000Z</time>
      </trkpt>
      <trkpt lat="43.18731" lon="5.74334">
        <ele>110.40000152588</ele>
        <time>2016-04-14T12:29:19.000Z</time>
      </trkpt>
      <trkpt lat="43.18715" lon="5.74318">
        <ele>109.59999847412</ele>
        <time>2016-04-14T12:29:22.000Z</time>
      </trkpt>
      <trkpt lat="43.18685" lon="5.7429">
        <ele>108.80000305176</ele>
        <time>2016-04-14T12:29:27.000Z</time>
      </trkpt>
      <trkpt lat="43.18674" lon="5.74275">
        <ele>109</ele>
        <time>2016-04-14T12:29:29.000Z</time>
      </trkpt>
      <trkpt lat="43.18665" lon="5.74259">
        <ele>109.40000152588</ele>
        <time>2016-04-14T12:29:31.000Z</time>
      </trkpt>
      <trkpt lat="43.1866" lon="5.74242">
        <ele>109.59999847412</ele>
        <time>2016-04-14T12:29:33.000Z</time>
      </trkpt>
      <trkpt lat="43.18659" lon="5.74234">
        <ele>109.59999847412</ele>
        <time>2016-04-14T12:29:34.000Z</time>
      </trkpt>
      <trkpt lat="43.18658" lon="5.74227">
        <ele>109.59999847412</ele>
        <time>2016-04-14T12:29:35.000Z</time>
      </trkpt>
      <trkpt lat="43.18655" lon="5.74205">
        <ele>108.80000305176</ele>
        <time>2016-04-14T12:29:38.000Z</time>
      </trkpt>
      <trkpt lat="43.18653" lon="5.74191">
        <ele>108.40000152588</ele>
        <time>2016-04-14T12:29:40.000Z</time>
      </trkpt>
      <trkpt lat="43.18645" lon="5.74158">
        <ele>108</ele>
        <time>2016-04-14T12:29:45.000Z</time>
      </trkpt>
      <trkpt lat="43.18621" lon="5.74095">
        <ele>107.19999694824</ele>
        <time>2016-04-14T12:29:55.000Z</time>
      </trkpt>
      <trkpt lat="43.18591" lon="5.7405">
        <ele>107</ele>
        <time>2016-04-14T12:30:04.000Z</time>
      </trkpt>
      <trkpt lat="43.1856" lon="5.74018">
        <ele>107</ele>
        <time>2016-04-14T12:30:12.000Z</time>
      </trkpt>
      <trkpt lat="43.18552" lon="5.7401">
        <ele>107</ele>
        <time>2016-04-14T12:30:14.000Z</time>
      </trkpt>
      <trkpt lat="43.18526" lon="5.73979">
        <ele>107</ele>
        <time>2016-04-14T12:30:21.000Z</time>
      </trkpt>
      <trkpt lat="43.18489" lon="5.73934">
        <ele>107</ele>
        <time>2016-04-14T12:30:31.000Z</time>
      </trkpt>
      <trkpt lat="43.18455" lon="5.73889">
        <ele>107</ele>
        <time>2016-04-14T12:30:41.000Z</time>
      </trkpt>
      <trkpt lat="43.18439" lon="5.73866">
        <ele>107.40000152588</ele>
        <time>2016-04-14T12:30:46.000Z</time>
      </trkpt>
      <trkpt lat="43.18432" lon="5.73856">
        <ele>107.40000152588</ele>
        <time>2016-04-14T12:30:48.000Z</time>
      </trkpt>
      <trkpt lat="43.184" lon="5.73804">
        <ele>107.59999847412</ele>
        <time>2016-04-14T12:30:58.000Z</time>
      </trkpt>
      <trkpt lat="43.18375" lon="5.73755">
        <ele>106.59999847412</ele>
        <time>2016-04-14T12:31:06.000Z</time>
      </trkpt>
      <trkpt lat="43.18365" lon="5.73735">
        <ele>106</ele>
        <time>2016-04-14T12:31:09.000Z</time>
      </trkpt>
      <trkpt lat="43.18342" lon="5.73699">
        <ele>105</ele>
        <time>2016-04-14T12:31:15.000Z</time>
      </trkpt>
      <trkpt lat="43.18338" lon="5.73693">
        <ele>104.80000305176</ele>
        <time>2016-04-14T12:31:16.000Z</time>
      </trkpt>
      <trkpt lat="43.18319" lon="5.7367">
        <ele>103.80000305176</ele>
        <time>2016-04-14T12:31:20.000Z</time>
      </trkpt>
      <trkpt lat="43.1831" lon="5.7366">
        <ele>103.59999847412</ele>
        <time>2016-04-14T12:31:22.000Z</time>
      </trkpt>
      <trkpt lat="43.18299" lon="5.73649">
        <ele>103.19999694824</ele>
        <time>2016-04-14T12:31:24.000Z</time>
      </trkpt>
      <trkpt lat="43.18274" lon="5.73621">
        <ele>102</ele>
        <time>2016-04-14T12:31:29.000Z</time>
      </trkpt>
      <trkpt lat="43.18269" lon="5.73615">
        <ele>101.80000305176</ele>
        <time>2016-04-14T12:31:30.000Z</time>
      </trkpt>
      <trkpt lat="43.18243" lon="5.73574">
        <ele>100.40000152588</ele>
        <time>2016-04-14T12:31:36.000Z</time>
      </trkpt>
      <trkpt lat="43.18217" lon="5.73525">
        <ele>98.599998474121</ele>
        <time>2016-04-14T12:31:43.000Z</time>
      </trkpt>
      <trkpt lat="43.18214" lon="5.73518">
        <ele>98.400001525879</ele>
        <time>2016-04-14T12:31:44.000Z</time>
      </trkpt>
      <trkpt lat="43.18186" lon="5.73473">
        <ele>97</ele>
        <time>2016-04-14T12:31:51.000Z</time>
      </trkpt>
      <trkpt lat="43.18182" lon="5.73466">
        <ele>96.800003051758</ele>
        <time>2016-04-14T12:31:52.000Z</time>
      </trkpt>
      <trkpt lat="43.18166" lon="5.73431">
        <ele>96.599998474121</ele>
        <time>2016-04-14T12:31:57.000Z</time>
      </trkpt>
      <trkpt lat="43.18157" lon="5.73409">
        <ele>96.599998474121</ele>
        <time>2016-04-14T12:32:00.000Z</time>
      </trkpt>
      <trkpt lat="43.18146" lon="5.73386">
        <ele>96.400001525879</ele>
        <time>2016-04-14T12:32:03.000Z</time>
      </trkpt>
      <trkpt lat="43.18126" lon="5.73349">
        <ele>94.800003051758</ele>
        <time>2016-04-14T12:32:08.000Z</time>
      </trkpt>
      <trkpt lat="43.18122" lon="5.73341">
        <ele>94.400001525879</ele>
        <time>2016-04-14T12:32:09.000Z</time>
      </trkpt>
      <trkpt lat="43.18103" lon="5.73316">
        <ele>93.400001525879</ele>
        <time>2016-04-14T12:32:13.000Z</time>
      </trkpt>
      <trkpt lat="43.18093" lon="5.73304">
        <ele>93</ele>
        <time>2016-04-14T12:32:15.000Z</time>
      </trkpt>
      <trkpt lat="43.18089" lon="5.73298">
        <ele>92.800003051758</ele>
        <time>2016-04-14T12:32:16.000Z</time>
      </trkpt>
      <trkpt lat="43.18063" lon="5.73273">
        <ele>91.599998474121</ele>
        <time>2016-04-14T12:32:21.000Z</time>
      </trkpt>
      <trkpt lat="43.18058" lon="5.73268">
        <ele>91.199996948242</ele>
        <time>2016-04-14T12:32:22.000Z</time>
      </trkpt>
      <trkpt lat="43.18047" lon="5.7326">
        <ele>91</ele>
        <time>2016-04-14T12:32:24.000Z</time>
      </trkpt>
      <trkpt lat="43.18025" lon="5.73245">
        <ele>90.199996948242</ele>
        <time>2016-04-14T12:32:28.000Z</time>
      </trkpt>
      <trkpt lat="43.18014" lon="5.73238">
        <ele>90</ele>
        <time>2016-04-14T12:32:30.000Z</time>
      </trkpt>
      <trkpt lat="43.18003" lon="5.73229">
        <ele>89.800003051758</ele>
        <time>2016-04-14T12:32:32.000Z</time>
      </trkpt>
      <trkpt lat="43.17999" lon="5.73224">
        <ele>89.599998474121</ele>
        <time>2016-04-14T12:32:33.000Z</time>
      </trkpt>
      <trkpt lat="43.17991" lon="5.73213">
        <ele>89.199996948242</ele>
        <time>2016-04-14T12:32:35.000Z</time>
      </trkpt>
      <trkpt lat="43.17964" lon="5.73182">
        <ele>88.400001525879</ele>
        <time>2016-04-14T12:32:41.000Z</time>
      </trkpt>
      <trkpt lat="43.17959" lon="5.73177">
        <ele>88.199996948242</ele>
        <time>2016-04-14T12:32:42.000Z</time>
      </trkpt>
      <trkpt lat="43.17941" lon="5.73158">
        <ele>87.800003051758</ele>
        <time>2016-04-14T12:32:46.000Z</time>
      </trkpt>
      <trkpt lat="43.17913" lon="5.73133">
        <ele>87</ele>
        <time>2016-04-14T12:32:52.000Z</time>
      </trkpt>
      <trkpt lat="43.17908" lon="5.73129">
        <ele>87</ele>
        <time>2016-04-14T12:32:53.000Z</time>
      </trkpt>
      <trkpt lat="43.17869" lon="5.73098">
        <ele>86.199996948242</ele>
        <time>2016-04-14T12:33:01.000Z</time>
      </trkpt>
      <trkpt lat="43.17843" lon="5.73068">
        <ele>85.400001525879</ele>
        <time>2016-04-14T12:33:07.000Z</time>
      </trkpt>
      <trkpt lat="43.17839" lon="5.73063">
        <ele>85.199996948242</ele>
        <time>2016-04-14T12:33:08.000Z</time>
      </trkpt>
      <trkpt lat="43.17801" lon="5.73021">
        <ele>83</ele>
        <time>2016-04-14T12:33:17.000Z</time>
      </trkpt>
      <trkpt lat="43.17762" lon="5.72993">
        <ele>81</ele>
        <time>2016-04-14T12:33:24.000Z</time>
      </trkpt>
      <trkpt lat="43.17756" lon="5.7299">
        <ele>80.800003051758</ele>
        <time>2016-04-14T12:33:25.000Z</time>
      </trkpt>
      <trkpt lat="43.17742" lon="5.72986">
        <ele>80.199996948242</ele>
        <time>2016-04-14T12:33:27.000Z</time>
      </trkpt>
      <trkpt lat="43.17719" lon="5.72981">
        <ele>79.400001525879</ele>
        <time>2016-04-14T12:33:30.000Z</time>
      </trkpt>
      <trkpt lat="43.17711" lon="5.72979">
        <ele>79.199996948242</ele>
        <time>2016-04-14T12:33:31.000Z</time>
      </trkpt>
      <trkpt lat="43.17695" lon="5.72975">
        <ele>78.599998474121</ele>
        <time>2016-04-14T12:33:33.000Z</time>
      </trkpt>
      <trkpt lat="43.1767" lon="5.72971">
        <ele>78.599998474121</ele>
        <time>2016-04-14T12:33:36.000Z</time>
      </trkpt>
      <trkpt lat="43.17656" lon="5.72959">
        <ele>78.199996948242</ele>
        <time>2016-04-14T12:33:38.000Z</time>
      </trkpt>
      <trkpt lat="43.17651" lon="5.72951">
        <ele>77.400001525879</ele>
        <time>2016-04-14T12:33:39.000Z</time>
      </trkpt>
      <trkpt lat="43.17647" lon="5.72942">
        <ele>76.400001525879</ele>
        <time>2016-04-14T12:33:40.000Z</time>
      </trkpt>
      <trkpt lat="43.17644" lon="5.72934">
        <ele>75.800003051758</ele>
        <time>2016-04-14T12:33:41.000Z</time>
      </trkpt>
      <trkpt lat="43.17638" lon="5.72917">
        <ele>74.800003051758</ele>
        <time>2016-04-14T12:33:43.000Z</time>
      </trkpt>
      <trkpt lat="43.17631" lon="5.72902">
        <ele>73.800003051758</ele>
        <time>2016-04-14T12:33:45.000Z</time>
      </trkpt>
      <trkpt lat="43.17627" lon="5.72895">
        <ele>73.400001525879</ele>
        <time>2016-04-14T12:33:46.000Z</time>
      </trkpt>
      <trkpt lat="43.17618" lon="5.72883">
        <ele>72.800003051758</ele>
        <time>2016-04-14T12:33:48.000Z</time>
      </trkpt>
      <trkpt lat="43.17601" lon="5.72867">
        <ele>71.800003051758</ele>
        <time>2016-04-14T12:33:51.000Z</time>
      </trkpt>
      <trkpt lat="43.17587" lon="5.72856">
        <ele>71</ele>
        <time>2016-04-14T12:33:53.000Z</time>
      </trkpt>
      <trkpt lat="43.17572" lon="5.72846">
        <ele>70.199996948242</ele>
        <time>2016-04-14T12:33:55.000Z</time>
      </trkpt>
      <trkpt lat="43.17555" lon="5.72836">
        <ele>69.400001525879</ele>
        <time>2016-04-14T12:33:57.000Z</time>
      </trkpt>
      <trkpt lat="43.17546" lon="5.72832">
        <ele>69</ele>
        <time>2016-04-14T12:33:58.000Z</time>
      </trkpt>
      <trkpt lat="43.17537" lon="5.72829">
        <ele>68.800003051758</ele>
        <time>2016-04-14T12:33:59.000Z</time>
      </trkpt>
      <trkpt lat="43.17528" lon="5.72828">
        <ele>68.800003051758</ele>
        <time>2016-04-14T12:34:00.000Z</time>
      </trkpt>
      <trkpt lat="43.17511" lon="5.72828">
        <ele>68.800003051758</ele>
        <time>2016-04-14T12:34:02.000Z</time>
      </trkpt>
      <trkpt lat="43.17503" lon="5.72827">
        <ele>69</ele>
        <time>2016-04-14T12:34:03.000Z</time>
      </trkpt>
      <trkpt lat="43.17489" lon="5.72819">
        <ele>68.800003051758</ele>
        <time>2016-04-14T12:34:05.000Z</time>
      </trkpt>
      <trkpt lat="43.17483" lon="5.72815">
        <ele>68.800003051758</ele>
        <time>2016-04-14T12:34:06.000Z</time>
      </trkpt>
      <trkpt lat="43.17463" lon="5.72802">
        <ele>68.599998474121</ele>
        <time>2016-04-14T12:34:10.000Z</time>
      </trkpt>
      <trkpt lat="43.17434" lon="5.72779">
        <ele>68.599998474121</ele>
        <time>2016-04-14T12:34:17.000Z</time>
      </trkpt>
      <trkpt lat="43.17423" lon="5.72766">
        <ele>68.400001525879</ele>
        <time>2016-04-14T12:34:20.000Z</time>
      </trkpt>
      <trkpt lat="43.17404" lon="5.72745">
        <ele>68.400001525879</ele>
        <time>2016-04-14T12:34:26.000Z</time>
      </trkpt>
      <trkpt lat="43.17383" lon="5.72719">
        <ele>68.199996948242</ele>
        <time>2016-04-14T12:34:31.000Z</time>
      </trkpt>
      <trkpt lat="43.17381" lon="5.72711">
        <ele>68.199996948242</ele>
        <time>2016-04-14T12:34:32.000Z</time>
      </trkpt>
      <trkpt lat="43.1738" lon="5.72702">
        <ele>68.199996948242</ele>
        <time>2016-04-14T12:34:33.000Z</time>
      </trkpt>
      <trkpt lat="43.17383" lon="5.72685">
        <ele>68.199996948242</ele>
        <time>2016-04-14T12:34:35.000Z</time>
      </trkpt>
      <trkpt lat="43.17388" lon="5.72646">
        <ele>67.599998474121</ele>
        <time>2016-04-14T12:34:39.000Z</time>
      </trkpt>
      <trkpt lat="43.1739" lon="5.72609">
        <ele>66.599998474121</ele>
        <time>2016-04-14T12:34:43.000Z</time>
      </trkpt>
      <trkpt lat="43.17391" lon="5.72575">
        <ele>65.199996948242</ele>
        <time>2016-04-14T12:34:47.000Z</time>
      </trkpt>
      <trkpt lat="43.1739" lon="5.7256">
        <ele>64.599998474121</ele>
        <time>2016-04-14T12:34:49.000Z</time>
      </trkpt>
      <trkpt lat="43.17386" lon="5.72546">
        <ele>63.799999237061</ele>
        <time>2016-04-14T12:34:51.000Z</time>
      </trkpt>
      <trkpt lat="43.17382" lon="5.72533">
        <ele>62.799999237061</ele>
        <time>2016-04-14T12:34:53.000Z</time>
      </trkpt>
      <trkpt lat="43.1738" lon="5.72526">
        <ele>62.400001525879</ele>
        <time>2016-04-14T12:34:54.000Z</time>
      </trkpt>
      <trkpt lat="43.17371" lon="5.725">
        <ele>60.599998474121</ele>
        <time>2016-04-14T12:34:58.000Z</time>
      </trkpt>
      <trkpt lat="43.17364" lon="5.7249">
        <ele>60.200000762939</ele>
        <time>2016-04-14T12:35:00.000Z</time>
      </trkpt>
      <trkpt lat="43.17351" lon="5.72477">
        <ele>60</ele>
        <time>2016-04-14T12:35:03.000Z</time>
      </trkpt>
      <trkpt lat="43.17337" lon="5.72464">
        <ele>61.400001525879</ele>
        <time>2016-04-14T12:35:06.000Z</time>
      </trkpt>
      <trkpt lat="43.17304" lon="5.72433">
        <ele>67</ele>
        <time>2016-04-14T12:35:12.000Z</time>
      </trkpt>
      <trkpt lat="43.17294" lon="5.72419">
        <ele>69</ele>
        <time>2016-04-14T12:35:14.000Z</time>
      </trkpt>
      <trkpt lat="43.1729" lon="5.72412">
        <ele>69.599998474121</ele>
        <time>2016-04-14T12:35:15.000Z</time>
      </trkpt>
      <trkpt lat="43.17287" lon="5.72404">
        <ele>69.800003051758</ele>
        <time>2016-04-14T12:35:16.000Z</time>
      </trkpt>
      <trkpt lat="43.17279" lon="5.72377">
        <ele>70</ele>
        <time>2016-04-14T12:35:20.000Z</time>
      </trkpt>
      <trkpt lat="43.17265" lon="5.72334">
        <ele>70.800003051758</ele>
        <time>2016-04-14T12:35:26.000Z</time>
      </trkpt>
      <trkpt lat="43.1726" lon="5.72319">
        <ele>71.199996948242</ele>
        <time>2016-04-14T12:35:28.000Z</time>
      </trkpt>
      <trkpt lat="43.17248" lon="5.72292">
        <ele>71</ele>
        <time>2016-04-14T12:35:32.000Z</time>
      </trkpt>
      <trkpt lat="43.17245" lon="5.72285">
        <ele>71</ele>
        <time>2016-04-14T12:35:33.000Z</time>
      </trkpt>
      <trkpt lat="43.17227" lon="5.72254">
        <ele>70.400001525879</ele>
        <time>2016-04-14T12:35:38.000Z</time>
      </trkpt>
      <trkpt lat="43.17206" lon="5.72216">
        <ele>69.400001525879</ele>
        <time>2016-04-14T12:35:44.000Z</time>
      </trkpt>
      <trkpt lat="43.17179" lon="5.72156">
        <ele>64.199996948242</ele>
        <time>2016-04-14T12:35:53.000Z</time>
      </trkpt>
      <trkpt lat="43.17157" lon="5.7211">
        <ele>61.799999237061</ele>
        <time>2016-04-14T12:36:00.000Z</time>
      </trkpt>
      <trkpt lat="43.17153" lon="5.72104">
        <ele>62</ele>
        <time>2016-04-14T12:36:01.000Z</time>
      </trkpt>
      <trkpt lat="43.17119" lon="5.72053">
        <ele>62.799999237061</ele>
        <time>2016-04-14T12:36:10.000Z</time>
      </trkpt>
      <trkpt lat="43.17116" lon="5.72047">
        <ele>62.799999237061</ele>
        <time>2016-04-14T12:36:11.000Z</time>
      </trkpt>
      <trkpt lat="43.17096" lon="5.72002">
        <ele>62.400001525879</ele>
        <time>2016-04-14T12:36:18.000Z</time>
      </trkpt>
      <trkpt lat="43.17077" lon="5.71968">
        <ele>61.200000762939</ele>
        <time>2016-04-14T12:36:24.000Z</time>
      </trkpt>
      <trkpt lat="43.17068" lon="5.7196">
        <ele>60.799999237061</ele>
        <time>2016-04-14T12:36:26.000Z</time>
      </trkpt>
      <trkpt lat="43.17064" lon="5.71956">
        <ele>60.599998474121</ele>
        <time>2016-04-14T12:36:27.000Z</time>
      </trkpt>
      <trkpt lat="43.17043" lon="5.71948">
        <ele>60.400001525879</ele>
        <time>2016-04-14T12:36:31.000Z</time>
      </trkpt>
      <trkpt lat="43.17032" lon="5.71947">
        <ele>60.599998474121</ele>
        <time>2016-04-14T12:36:33.000Z</time>
      </trkpt>
      <trkpt lat="43.17016" lon="5.71946">
        <ele>60.799999237061</ele>
        <time>2016-04-14T12:36:36.000Z</time>
      </trkpt>
      <trkpt lat="43.17011" lon="5.71945">
        <ele>60.799999237061</ele>
        <time>2016-04-14T12:36:37.000Z</time>
      </trkpt>
      <trkpt lat="43.16986" lon="5.71936">
        <ele>60.799999237061</ele>
        <time>2016-04-14T12:36:43.000Z</time>
      </trkpt>
      <trkpt lat="43.16984" lon="5.71935">
        <ele>60.599998474121</ele>
        <time>2016-04-14T12:36:44.000Z</time>
      </trkpt>
      <trkpt lat="43.16979" lon="5.71931">
        <ele>60.400001525879</ele>
        <time>2016-04-14T12:36:48.000Z</time>
      </trkpt>
      <trkpt lat="43.16976" lon="5.71928">
        <ele>60.400001525879</ele>
        <time>2016-04-14T12:37:32.000Z</time>
      </trkpt>
      <trkpt lat="43.16974" lon="5.71928">
        <ele>60.400001525879</ele>
        <time>2016-04-14T12:37:33.000Z</time>
      </trkpt>
      <trkpt lat="43.1697" lon="5.7193">
        <ele>60.599998474121</ele>
        <time>2016-04-14T12:37:34.000Z</time>
      </trkpt>
      <trkpt lat="43.16951" lon="5.7194">
        <ele>63</ele>
        <time>2016-04-14T12:37:38.000Z</time>
      </trkpt>
      <trkpt lat="43.16945" lon="5.71942">
        <ele>63.599998474121</ele>
        <time>2016-04-14T12:37:39.000Z</time>
      </trkpt>
      <trkpt lat="43.16934" lon="5.71945">
        <ele>64.599998474121</ele>
        <time>2016-04-14T12:37:41.000Z</time>
      </trkpt>
      <trkpt lat="43.16923" lon="5.71947">
        <ele>66.199996948242</ele>
        <time>2016-04-14T12:37:43.000Z</time>
      </trkpt>
      <trkpt lat="43.16917" lon="5.71948">
        <ele>67.599998474121</ele>
        <time>2016-04-14T12:37:44.000Z</time>
      </trkpt>
      <trkpt lat="43.16894" lon="5.71946">
        <ele>71.800003051758</ele>
        <time>2016-04-14T12:37:48.000Z</time>
      </trkpt>
      <trkpt lat="43.16887" lon="5.71945">
        <ele>72.599998474121</ele>
        <time>2016-04-14T12:37:49.000Z</time>
      </trkpt>
      <trkpt lat="43.16882" lon="5.71943">
        <ele>73.400001525879</ele>
        <time>2016-04-14T12:37:50.000Z</time>
      </trkpt>
      <trkpt lat="43.16871" lon="5.71936">
        <ele>74.599998474121</ele>
        <time>2016-04-14T12:37:52.000Z</time>
      </trkpt>
      <trkpt lat="43.16866" lon="5.71932">
        <ele>75</ele>
        <time>2016-04-14T12:37:53.000Z</time>
      </trkpt>
      <trkpt lat="43.16852" lon="5.71917">
        <ele>76.400001525879</ele>
        <time>2016-04-14T12:37:56.000Z</time>
      </trkpt>
      <trkpt lat="43.16844" lon="5.71906">
        <ele>77.199996948242</ele>
        <time>2016-04-14T12:37:58.000Z</time>
      </trkpt>
      <trkpt lat="43.16837" lon="5.71893">
        <ele>79</ele>
        <time>2016-04-14T12:38:00.000Z</time>
      </trkpt>
      <trkpt lat="43.1683" lon="5.71872">
        <ele>79.800003051758</ele>
        <time>2016-04-14T12:38:03.000Z</time>
      </trkpt>
      <trkpt lat="43.16827" lon="5.71849">
        <ele>80</ele>
        <time>2016-04-14T12:38:06.000Z</time>
      </trkpt>
      <trkpt lat="43.16826" lon="5.71834">
        <ele>79.800003051758</ele>
        <time>2016-04-14T12:38:08.000Z</time>
      </trkpt>
      <trkpt lat="43.16825" lon="5.71826">
        <ele>79.800003051758</ele>
        <time>2016-04-14T12:38:09.000Z</time>
      </trkpt>
      <trkpt lat="43.16823" lon="5.71803">
        <ele>79.800003051758</ele>
        <time>2016-04-14T12:38:12.000Z</time>
      </trkpt>
      <trkpt lat="43.1682" lon="5.7178">
        <ele>78.199996948242</ele>
        <time>2016-04-14T12:38:15.000Z</time>
      </trkpt>
      <trkpt lat="43.16819" lon="5.71772">
        <ele>78.199996948242</ele>
        <time>2016-04-14T12:38:16.000Z</time>
      </trkpt>
      <trkpt lat="43.16812" lon="5.71736">
        <ele>79.599998474121</ele>
        <time>2016-04-14T12:38:21.000Z</time>
      </trkpt>
      <trkpt lat="43.16809" lon="5.7173">
        <ele>80.400001525879</ele>
        <time>2016-04-14T12:38:22.000Z</time>
      </trkpt>
      <trkpt lat="43.16801" lon="5.71721">
        <ele>82</ele>
        <time>2016-04-14T12:38:24.000Z</time>
      </trkpt>
      <trkpt lat="43.16791" lon="5.71713">
        <ele>83.599998474121</ele>
        <time>2016-04-14T12:38:26.000Z</time>
      </trkpt>
      <trkpt lat="43.16786" lon="5.7171">
        <ele>84.199996948242</ele>
        <time>2016-04-14T12:38:27.000Z</time>
      </trkpt>
      <trkpt lat="43.16767" lon="5.71694">
        <ele>87.400001525879</ele>
        <time>2016-04-14T12:38:31.000Z</time>
      </trkpt>
      <trkpt lat="43.16753" lon="5.7168">
        <ele>87.599998474121</ele>
        <time>2016-04-14T12:38:34.000Z</time>
      </trkpt>
      <trkpt lat="43.16749" lon="5.71675">
        <ele>87.400001525879</ele>
        <time>2016-04-14T12:38:35.000Z</time>
      </trkpt>
      <trkpt lat="43.16732" lon="5.71655">
        <ele>86.400001525879</ele>
        <time>2016-04-14T12:38:39.000Z</time>
      </trkpt>
      <trkpt lat="43.16709" lon="5.71631">
        <ele>85</ele>
        <time>2016-04-14T12:38:44.000Z</time>
      </trkpt>
      <trkpt lat="43.16674" lon="5.71611">
        <ele>83.199996948242</ele>
        <time>2016-04-14T12:38:50.000Z</time>
      </trkpt>
      <trkpt lat="43.16646" lon="5.716">
        <ele>79.800003051758</ele>
        <time>2016-04-14T12:38:54.000Z</time>
      </trkpt>
      <trkpt lat="43.16618" lon="5.71588">
        <ele>76.800003051758</ele>
        <time>2016-04-14T12:38:58.000Z</time>
      </trkpt>
      <trkpt lat="43.16611" lon="5.71585">
        <ele>76.199996948242</ele>
        <time>2016-04-14T12:38:59.000Z</time>
      </trkpt>
      <trkpt lat="43.16594" lon="5.71576">
        <ele>74.400001525879</ele>
        <time>2016-04-14T12:39:02.000Z</time>
      </trkpt>
      <trkpt lat="43.1659" lon="5.71572">
        <ele>73.400001525879</ele>
        <time>2016-04-14T12:39:03.000Z</time>
      </trkpt>
      <trkpt lat="43.16582" lon="5.71551">
        <ele>69.400001525879</ele>
        <time>2016-04-14T12:39:07.000Z</time>
      </trkpt>
      <trkpt lat="43.1658" lon="5.71544">
        <ele>69.599998474121</ele>
        <time>2016-04-14T12:39:08.000Z</time>
      </trkpt>
      <trkpt lat="43.1658" lon="5.71537">
        <ele>69.800003051758</ele>
        <time>2016-04-14T12:39:09.000Z</time>
      </trkpt>
      <trkpt lat="43.16578" lon="5.71524">
        <ele>70.199996948242</ele>
        <time>2016-04-14T12:39:11.000Z</time>
      </trkpt>
      <trkpt lat="43.16576" lon="5.71519">
        <ele>70.199996948242</ele>
        <time>2016-04-14T12:39:12.000Z</time>
      </trkpt>
      <trkpt lat="43.1657" lon="5.71509">
        <ele>70</ele>
        <time>2016-04-14T12:39:14.000Z</time>
      </trkpt>
      <trkpt lat="43.16561" lon="5.71503">
        <ele>69</ele>
        <time>2016-04-14T12:39:16.000Z</time>
      </trkpt>
      <trkpt lat="43.16543" lon="5.71501">
        <ele>66.599998474121</ele>
        <time>2016-04-14T12:39:19.000Z</time>
      </trkpt>
      <trkpt lat="43.16536" lon="5.71501">
        <ele>65.800003051758</ele>
        <time>2016-04-14T12:39:20.000Z</time>
      </trkpt>
      <trkpt lat="43.16505" lon="5.71501">
        <ele>62.200000762939</ele>
        <time>2016-04-14T12:39:24.000Z</time>
      </trkpt>
      <trkpt lat="43.16497" lon="5.71501">
        <ele>61.599998474121</ele>
        <time>2016-04-14T12:39:25.000Z</time>
      </trkpt>
      <trkpt lat="43.1648" lon="5.71502">
        <ele>60.599998474121</ele>
        <time>2016-04-14T12:39:27.000Z</time>
      </trkpt>
      <trkpt lat="43.16454" lon="5.715">
        <ele>59.200000762939</ele>
        <time>2016-04-14T12:39:30.000Z</time>
      </trkpt>
      <trkpt lat="43.16445" lon="5.715">
        <ele>58.799999237061</ele>
        <time>2016-04-14T12:39:31.000Z</time>
      </trkpt>
      <trkpt lat="43.16428" lon="5.71499">
        <ele>58</ele>
        <time>2016-04-14T12:39:33.000Z</time>
      </trkpt>
      <trkpt lat="43.16383" lon="5.71497">
        <ele>55.400001525879</ele>
        <time>2016-04-14T12:39:38.000Z</time>
      </trkpt>
      <trkpt lat="43.16366" lon="5.71496">
        <ele>54.599998474121</ele>
        <time>2016-04-14T12:39:40.000Z</time>
      </trkpt>
      <trkpt lat="43.16357" lon="5.71496">
        <ele>54.200000762939</ele>
        <time>2016-04-14T12:39:41.000Z</time>
      </trkpt>
      <trkpt lat="43.16339" lon="5.71495">
        <ele>53.799999237061</ele>
        <time>2016-04-14T12:39:43.000Z</time>
      </trkpt>
      <trkpt lat="43.16321" lon="5.71494">
        <ele>53.200000762939</ele>
        <time>2016-04-14T12:39:45.000Z</time>
      </trkpt>
      <trkpt lat="43.16303" lon="5.71493">
        <ele>52.400001525879</ele>
        <time>2016-04-14T12:39:47.000Z</time>
      </trkpt>
      <trkpt lat="43.16285" lon="5.7149">
        <ele>51.799999237061</ele>
        <time>2016-04-14T12:39:49.000Z</time>
      </trkpt>
      <trkpt lat="43.16262" lon="5.71484">
        <ele>51</ele>
        <time>2016-04-14T12:39:52.000Z</time>
      </trkpt>
      <trkpt lat="43.16247" lon="5.7148">
        <ele>50.400001525879</ele>
        <time>2016-04-14T12:39:54.000Z</time>
      </trkpt>
      <trkpt lat="43.1624" lon="5.71479">
        <ele>50.200000762939</ele>
        <time>2016-04-14T12:39:55.000Z</time>
      </trkpt>
      <trkpt lat="43.16226" lon="5.71476">
        <ele>49.799999237061</ele>
        <time>2016-04-14T12:39:57.000Z</time>
      </trkpt>
      <trkpt lat="43.16205" lon="5.71475">
        <ele>49</ele>
        <time>2016-04-14T12:40:00.000Z</time>
      </trkpt>
      <trkpt lat="43.16198" lon="5.71475">
        <ele>48.799999237061</ele>
        <time>2016-04-14T12:40:01.000Z</time>
      </trkpt>
      <trkpt lat="43.16184" lon="5.71475">
        <ele>48.200000762939</ele>
        <time>2016-04-14T12:40:03.000Z</time>
      </trkpt>
      <trkpt lat="43.16164" lon="5.71474">
        <ele>48.200000762939</ele>
        <time>2016-04-14T12:40:06.000Z</time>
      </trkpt>
      <trkpt lat="43.16143" lon="5.71473">
        <ele>48.400001525879</ele>
        <time>2016-04-14T12:40:09.000Z</time>
      </trkpt>
      <trkpt lat="43.16136" lon="5.71473">
        <ele>48.599998474121</ele>
        <time>2016-04-14T12:40:10.000Z</time>
      </trkpt>
      <trkpt lat="43.16108" lon="5.71472">
        <ele>48.799999237061</ele>
        <time>2016-04-14T12:40:14.000Z</time>
      </trkpt>
      <trkpt lat="43.16082" lon="5.71471">
        <ele>49.200000762939</ele>
        <time>2016-04-14T12:40:18.000Z</time>
      </trkpt>
      <trkpt lat="43.16075" lon="5.71471">
        <ele>49.200000762939</ele>
        <time>2016-04-14T12:40:19.000Z</time>
      </trkpt>
      <trkpt lat="43.16038" lon="5.71473">
        <ele>49.799999237061</ele>
        <time>2016-04-14T12:40:25.000Z</time>
      </trkpt>
      <trkpt lat="43.15998" lon="5.7148">
        <ele>50.799999237061</ele>
        <time>2016-04-14T12:40:32.000Z</time>
      </trkpt>
      <trkpt lat="43.15964" lon="5.71484">
        <ele>50.799999237061</ele>
        <time>2016-04-14T12:40:38.000Z</time>
      </trkpt>
      <trkpt lat="43.15959" lon="5.71485">
        <ele>50.799999237061</ele>
        <time>2016-04-14T12:40:39.000Z</time>
      </trkpt>
      <trkpt lat="43.15918" lon="5.71487">
        <ele>50.200000762939</ele>
        <time>2016-04-14T12:40:46.000Z</time>
      </trkpt>
      <trkpt lat="43.15868" lon="5.71489">
        <ele>50.400001525879</ele>
        <time>2016-04-14T12:40:55.000Z</time>
      </trkpt>
      <trkpt lat="43.15827" lon="5.71492">
        <ele>49.799999237061</ele>
        <time>2016-04-14T12:41:02.000Z</time>
      </trkpt>
      <trkpt lat="43.15821" lon="5.71493">
        <ele>49.599998474121</ele>
        <time>2016-04-14T12:41:03.000Z</time>
      </trkpt>
      <trkpt lat="43.15778" lon="5.71496">
        <ele>47.599998474121</ele>
        <time>2016-04-14T12:41:10.000Z</time>
      </trkpt>
      <trkpt lat="43.15764" lon="5.71498">
        <ele>47.200000762939</ele>
        <time>2016-04-14T12:41:12.000Z</time>
      </trkpt>
      <trkpt lat="43.15733" lon="5.71499">
        <ele>45</ele>
        <time>2016-04-14T12:41:16.000Z</time>
      </trkpt>
      <trkpt lat="43.15724" lon="5.71498">
        <ele>44.400001525879</ele>
        <time>2016-04-14T12:41:17.000Z</time>
      </trkpt>
      <trkpt lat="43.15696" lon="5.71491">
        <ele>41.799999237061</ele>
        <time>2016-04-14T12:41:20.000Z</time>
      </trkpt>
      <trkpt lat="43.15686" lon="5.71486">
        <ele>41</ele>
        <time>2016-04-14T12:41:21.000Z</time>
      </trkpt>
      <trkpt lat="43.15677" lon="5.71481">
        <ele>40</ele>
        <time>2016-04-14T12:41:22.000Z</time>
      </trkpt>
      <trkpt lat="43.15657" lon="5.7147">
        <ele>38.799999237061</ele>
        <time>2016-04-14T12:41:24.000Z</time>
      </trkpt>
      <trkpt lat="43.15636" lon="5.71462">
        <ele>38.400001525879</ele>
        <time>2016-04-14T12:41:26.000Z</time>
      </trkpt>
      <trkpt lat="43.15614" lon="5.71458">
        <ele>38</ele>
        <time>2016-04-14T12:41:28.000Z</time>
      </trkpt>
      <trkpt lat="43.15593" lon="5.71455">
        <ele>37.799999237061</ele>
        <time>2016-04-14T12:41:30.000Z</time>
      </trkpt>
      <trkpt lat="43.15573" lon="5.71455">
        <ele>37.400001525879</ele>
        <time>2016-04-14T12:41:32.000Z</time>
      </trkpt>
      <trkpt lat="43.15545" lon="5.71456">
        <ele>37.400001525879</ele>
        <time>2016-04-14T12:41:35.000Z</time>
      </trkpt>
      <trkpt lat="43.15528" lon="5.71455">
        <ele>37.400001525879</ele>
        <time>2016-04-14T12:41:37.000Z</time>
      </trkpt>
      <trkpt lat="43.15512" lon="5.71453">
        <ele>37.400001525879</ele>
        <time>2016-04-14T12:41:39.000Z</time>
      </trkpt>
      <trkpt lat="43.15505" lon="5.71453">
        <ele>37.400001525879</ele>
        <time>2016-04-14T12:41:40.000Z</time>
      </trkpt>
      <trkpt lat="43.15476" lon="5.71453">
        <ele>37.400001525879</ele>
        <time>2016-04-14T12:41:44.000Z</time>
      </trkpt>
      <trkpt lat="43.15457" lon="5.71451">
        <ele>37.599998474121</ele>
        <time>2016-04-14T12:41:47.000Z</time>
      </trkpt>
      <trkpt lat="43.15438" lon="5.71448">
        <ele>37.599998474121</ele>
        <time>2016-04-14T12:41:50.000Z</time>
      </trkpt>
      <trkpt lat="43.15423" lon="5.71442">
        <ele>37</ele>
        <time>2016-04-14T12:41:53.000Z</time>
      </trkpt>
      <trkpt lat="43.15414" lon="5.71437">
        <ele>36.400001525879</ele>
        <time>2016-04-14T12:41:55.000Z</time>
      </trkpt>
      <trkpt lat="43.15398" lon="5.71433">
        <ele>35.400001525879</ele>
        <time>2016-04-14T12:41:58.000Z</time>
      </trkpt>
      <trkpt lat="43.15388" lon="5.71432">
        <ele>34.799999237061</ele>
        <time>2016-04-14T12:42:00.000Z</time>
      </trkpt>
      <trkpt lat="43.15359" lon="5.71428">
        <ele>31.799999237061</ele>
        <time>2016-04-14T12:42:06.000Z</time>
      </trkpt>
      <trkpt lat="43.15328" lon="5.71422">
        <ele>30.200000762939</ele>
        <time>2016-04-14T12:42:13.000Z</time>
      </trkpt>
      <trkpt lat="43.1531" lon="5.71404">
        <ele>29.799999237061</ele>
        <time>2016-04-14T12:42:18.000Z</time>
      </trkpt>
      <trkpt lat="43.15284" lon="5.71382">
        <ele>29.60000038147</ele>
        <time>2016-04-14T12:42:24.000Z</time>
      </trkpt>
      <trkpt lat="43.15257" lon="5.71379">
        <ele>29.39999961853</ele>
        <time>2016-04-14T12:42:29.000Z</time>
      </trkpt>
      <trkpt lat="43.15247" lon="5.71378">
        <ele>29.60000038147</ele>
        <time>2016-04-14T12:42:31.000Z</time>
      </trkpt>
      <trkpt lat="43.15242" lon="5.71376">
        <ele>29.60000038147</ele>
        <time>2016-04-14T12:42:32.000Z</time>
      </trkpt>
      <trkpt lat="43.15234" lon="5.71371">
        <ele>29.799999237061</ele>
        <time>2016-04-14T12:42:34.000Z</time>
      </trkpt>
      <trkpt lat="43.15221" lon="5.71364">
        <ele>30.200000762939</ele>
        <time>2016-04-14T12:42:37.000Z</time>
      </trkpt>
      <trkpt lat="43.15208" lon="5.71355">
        <ele>30.799999237061</ele>
        <time>2016-04-14T12:42:40.000Z</time>
      </trkpt>
      <trkpt lat="43.15204" lon="5.71352">
        <ele>31</ele>
        <time>2016-04-14T12:42:41.000Z</time>
      </trkpt>
      <trkpt lat="43.15196" lon="5.71346">
        <ele>31.39999961853</ele>
        <time>2016-04-14T12:42:43.000Z</time>
      </trkpt>
      <trkpt lat="43.15179" lon="5.71335">
        <ele>32</ele>
        <time>2016-04-14T12:42:47.000Z</time>
      </trkpt>
      <trkpt lat="43.15174" lon="5.71332">
        <ele>32.400001525879</ele>
        <time>2016-04-14T12:42:48.000Z</time>
      </trkpt>
      <trkpt lat="43.15161" lon="5.71326">
        <ele>33</ele>
        <time>2016-04-14T12:42:51.000Z</time>
      </trkpt>
      <trkpt lat="43.15143" lon="5.71321">
        <ele>33.799999237061</ele>
        <time>2016-04-14T12:42:55.000Z</time>
      </trkpt>
      <trkpt lat="43.15135" lon="5.71316">
        <ele>34.200000762939</ele>
        <time>2016-04-14T12:42:57.000Z</time>
      </trkpt>
      <trkpt lat="43.1513" lon="5.71309">
        <ele>35</ele>
        <time>2016-04-14T12:42:59.000Z</time>
      </trkpt>
      <trkpt lat="43.15128" lon="5.71306">
        <ele>35.400001525879</ele>
        <time>2016-04-14T12:43:00.000Z</time>
      </trkpt>
      <trkpt lat="43.15122" lon="5.71298">
        <ele>36.400001525879</ele>
        <time>2016-04-14T12:43:03.000Z</time>
      </trkpt>
      <trkpt lat="43.15119" lon="5.71298">
        <ele>36.400001525879</ele>
        <time>2016-04-14T12:43:04.000Z</time>
      </trkpt>
      <trkpt lat="43.15112" lon="5.71298">
        <ele>36.599998474121</ele>
        <time>2016-04-14T12:43:06.000Z</time>
      </trkpt>
      <trkpt lat="43.15109" lon="5.71297">
        <ele>36.599998474121</ele>
        <time>2016-04-14T12:43:07.000Z</time>
      </trkpt>
      <trkpt lat="43.15093" lon="5.71291">
        <ele>37.599998474121</ele>
        <time>2016-04-14T12:43:11.000Z</time>
      </trkpt>
      <trkpt lat="43.15079" lon="5.71284">
        <ele>38.200000762939</ele>
        <time>2016-04-14T12:43:14.000Z</time>
      </trkpt>
      <trkpt lat="43.15069" lon="5.71281">
        <ele>38.400001525879</ele>
        <time>2016-04-14T12:43:16.000Z</time>
      </trkpt>
      <trkpt lat="43.15064" lon="5.7128">
        <ele>38.799999237061</ele>
        <time>2016-04-14T12:43:17.000Z</time>
      </trkpt>
      <trkpt lat="43.15056" lon="5.71278">
        <ele>39.200000762939</ele>
        <time>2016-04-14T12:43:19.000Z</time>
      </trkpt>
      <trkpt lat="43.15046" lon="5.71274">
        <ele>39.599998474121</ele>
        <time>2016-04-14T12:43:22.000Z</time>
      </trkpt>
      <trkpt lat="43.15042" lon="5.71273">
        <ele>39.799999237061</ele>
        <time>2016-04-14T12:43:24.000Z</time>
      </trkpt>
      <trkpt lat="43.15041" lon="5.71273">
        <ele>39.799999237061</ele>
        <time>2016-04-14T12:43:25.000Z</time>
      </trkpt>
      <trkpt lat="43.1504" lon="5.71274">
        <ele>39.799999237061</ele>
        <time>2016-04-14T12:43:26.000Z</time>
      </trkpt>
      <trkpt lat="43.15039" lon="5.71275">
        <ele>39.799999237061</ele>
        <time>2016-04-14T12:43:27.000Z</time>
      </trkpt>
      <trkpt lat="43.15035" lon="5.71278">
        <ele>39.599998474121</ele>
        <time>2016-04-14T12:43:32.000Z</time>
      </trkpt>
      <trkpt lat="43.15026" lon="5.71284">
        <ele>39.400001525879</ele>
        <time>2016-04-14T12:43:40.000Z</time>
      </trkpt>
      <trkpt lat="43.15015" lon="5.71285">
        <ele>39.400001525879</ele>
        <time>2016-04-14T12:43:45.000Z</time>
      </trkpt>
      <trkpt lat="43.15012" lon="5.71284">
        <ele>39.599998474121</ele>
        <time>2016-04-14T12:43:46.000Z</time>
      </trkpt>
      <trkpt lat="43.14991" lon="5.71273">
        <ele>36.400001525879</ele>
        <time>2016-04-14T12:43:52.000Z</time>
      </trkpt>
      <trkpt lat="43.14984" lon="5.71266">
        <ele>35.400001525879</ele>
        <time>2016-04-14T12:43:54.000Z</time>
      </trkpt>
      <trkpt lat="43.1498" lon="5.7126">
        <ele>35.200000762939</ele>
        <time>2016-04-14T12:43:55.000Z</time>
      </trkpt>
      <trkpt lat="43.14976" lon="5.71253">
        <ele>34.799999237061</ele>
        <time>2016-04-14T12:43:56.000Z</time>
      </trkpt>
      <trkpt lat="43.14967" lon="5.71234">
        <ele>34.200000762939</ele>
        <time>2016-04-14T12:43:59.000Z</time>
      </trkpt>
      <trkpt lat="43.14962" lon="5.7122">
        <ele>34.400001525879</ele>
        <time>2016-04-14T12:44:01.000Z</time>
      </trkpt>
      <trkpt lat="43.14956" lon="5.71204">
        <ele>33.200000762939</ele>
        <time>2016-04-14T12:44:03.000Z</time>
      </trkpt>
      <trkpt lat="43.14951" lon="5.71186">
        <ele>32</ele>
        <time>2016-04-14T12:44:05.000Z</time>
      </trkpt>
      <trkpt lat="43.14948" lon="5.71176">
        <ele>31.39999961853</ele>
        <time>2016-04-14T12:44:06.000Z</time>
      </trkpt>
      <trkpt lat="43.14942" lon="5.71158">
        <ele>30.200000762939</ele>
        <time>2016-04-14T12:44:08.000Z</time>
      </trkpt>
      <trkpt lat="43.14938" lon="5.7114">
        <ele>29.60000038147</ele>
        <time>2016-04-14T12:44:10.000Z</time>
      </trkpt>
      <trkpt lat="43.14936" lon="5.71131">
        <ele>29.39999961853</ele>
        <time>2016-04-14T12:44:11.000Z</time>
      </trkpt>
      <trkpt lat="43.14936" lon="5.71123">
        <ele>29.39999961853</ele>
        <time>2016-04-14T12:44:12.000Z</time>
      </trkpt>
      <trkpt lat="43.14934" lon="5.71105">
        <ele>29.60000038147</ele>
        <time>2016-04-14T12:44:14.000Z</time>
      </trkpt>
      <trkpt lat="43.14935" lon="5.71089">
        <ele>30</ele>
        <time>2016-04-14T12:44:16.000Z</time>
      </trkpt>
      <trkpt lat="43.14935" lon="5.71082">
        <ele>30.200000762939</ele>
        <time>2016-04-14T12:44:17.000Z</time>
      </trkpt>
      <trkpt lat="43.14936" lon="5.71077">
        <ele>30.60000038147</ele>
        <time>2016-04-14T12:44:18.000Z</time>
      </trkpt>
      <trkpt lat="43.14939" lon="5.71066">
        <ele>31.799999237061</ele>
        <time>2016-04-14T12:44:20.000Z</time>
      </trkpt>
      <trkpt lat="43.14943" lon="5.71062">
        <ele>32.599998474121</ele>
        <time>2016-04-14T12:44:21.000Z</time>
      </trkpt>
      <trkpt lat="43.14946" lon="5.71057">
        <ele>33.200000762939</ele>
        <time>2016-04-14T12:44:22.000Z</time>
      </trkpt>
      <trkpt lat="43.14953" lon="5.71048">
        <ele>34.799999237061</ele>
        <time>2016-04-14T12:44:24.000Z</time>
      </trkpt>
      <trkpt lat="43.14958" lon="5.71038">
        <ele>36</ele>
        <time>2016-04-14T12:44:26.000Z</time>
      </trkpt>
      <trkpt lat="43.14959" lon="5.71033">
        <ele>36.200000762939</ele>
        <time>2016-04-14T12:44:27.000Z</time>
      </trkpt>
      <trkpt lat="43.14954" lon="5.71025">
        <ele>35</ele>
        <time>2016-04-14T12:44:30.000Z</time>
      </trkpt>
      <trkpt lat="43.14942" lon="5.71032">
        <ele>32.400001525879</ele>
        <time>2016-04-14T12:44:33.000Z</time>
      </trkpt>
      <trkpt lat="43.14933" lon="5.71043">
        <ele>30.200000762939</ele>
        <time>2016-04-14T12:44:35.000Z</time>
      </trkpt>
      <trkpt lat="43.14924" lon="5.71056">
        <ele>28.799999237061</ele>
        <time>2016-04-14T12:44:37.000Z</time>
      </trkpt>
      <trkpt lat="43.14913" lon="5.71076">
        <ele>27.799999237061</ele>
        <time>2016-04-14T12:44:40.000Z</time>
      </trkpt>
      <trkpt lat="43.14911" lon="5.71082">
        <ele>27.60000038147</ele>
        <time>2016-04-14T12:44:41.000Z</time>
      </trkpt>
      <trkpt lat="43.14909" lon="5.71089">
        <ele>27.200000762939</ele>
        <time>2016-04-14T12:44:42.000Z</time>
      </trkpt>
      <trkpt lat="43.14906" lon="5.71104">
        <ele>26.799999237061</ele>
        <time>2016-04-14T12:44:44.000Z</time>
      </trkpt>
      <trkpt lat="43.14903" lon="5.71118">
        <ele>26.799999237061</ele>
        <time>2016-04-14T12:44:46.000Z</time>
      </trkpt>
      <trkpt lat="43.149" lon="5.7113">
        <ele>27.799999237061</ele>
        <time>2016-04-14T12:44:48.000Z</time>
      </trkpt>
      <trkpt lat="43.14896" lon="5.7114">
        <ele>28.39999961853</ele>
        <time>2016-04-14T12:44:50.000Z</time>
      </trkpt>
      <trkpt lat="43.14895" lon="5.71142">
        <ele>28.60000038147</ele>
        <time>2016-04-14T12:44:51.000Z</time>
      </trkpt>
      <trkpt lat="43.14892" lon="5.71144">
        <ele>28.60000038147</ele>
        <time>2016-04-14T12:44:52.000Z</time>
      </trkpt>
      <trkpt lat="43.14891" lon="5.71144">
        <ele>28.799999237061</ele>
        <time>2016-04-14T12:44:53.000Z</time>
      </trkpt>
      <trkpt lat="43.14888" lon="5.71145">
        <ele>28.799999237061</ele>
        <time>2016-04-14T12:44:55.000Z</time>
      </trkpt>
      <trkpt lat="43.14888" lon="5.71144">
        <ele>29</ele>
        <time>2016-04-14T12:44:56.000Z</time>
      </trkpt>
      <trkpt lat="43.14887" lon="5.71141">
        <ele>29</ele>
        <time>2016-04-14T12:44:58.000Z</time>
      </trkpt>
      <trkpt lat="43.14887" lon="5.71139">
        <ele>29</ele>
        <time>2016-04-14T12:44:59.000Z</time>
      </trkpt>
      <trkpt lat="43.14887" lon="5.71133">
        <ele>28.60000038147</ele>
        <time>2016-04-14T12:45:02.000Z</time>
      </trkpt>
      <trkpt lat="43.14887" lon="5.71131">
        <ele>28.39999961853</ele>
        <time>2016-04-14T12:45:03.000Z</time>
      </trkpt>
      <trkpt lat="43.14884" lon="5.71115">
        <ele>27.60000038147</ele>
        <time>2016-04-14T12:45:10.000Z</time>
      </trkpt>
      <trkpt lat="43.1488" lon="5.71102">
        <ele>26.799999237061</ele>
        <time>2016-04-14T12:45:15.000Z</time>
      </trkpt>
      <trkpt lat="43.14876" lon="5.71091">
        <ele>26.200000762939</ele>
        <time>2016-04-14T12:45:19.000Z</time>
      </trkpt>
      <trkpt lat="43.14872" lon="5.71072">
        <ele>26</ele>
        <time>2016-04-14T12:45:25.000Z</time>
      </trkpt>
      <trkpt lat="43.14865" lon="5.71047">
        <ele>25.799999237061</ele>
        <time>2016-04-14T12:45:33.000Z</time>
      </trkpt>
      <trkpt lat="43.14852" lon="5.71028">
        <ele>24.39999961853</ele>
        <time>2016-04-14T12:45:41.000Z</time>
      </trkpt>
      <trkpt lat="43.14843" lon="5.71024">
        <ele>23.799999237061</ele>
        <time>2016-04-14T12:45:47.000Z</time>
      </trkpt>
      <trkpt lat="43.14832" lon="5.7102">
        <ele>22.39999961853</ele>
        <time>2016-04-14T12:45:54.000Z</time>
      </trkpt>
      <trkpt lat="43.14817" lon="5.71018">
        <ele>20.39999961853</ele>
        <time>2016-04-14T12:46:00.000Z</time>
      </trkpt>
      <trkpt lat="43.14812" lon="5.71018">
        <ele>19.799999237061</ele>
        <time>2016-04-14T12:46:02.000Z</time>
      </trkpt>
      <trkpt lat="43.148" lon="5.71017">
        <ele>19.60000038147</ele>
        <time>2016-04-14T12:46:09.000Z</time>
      </trkpt>
      <trkpt lat="43.1479" lon="5.71016">
        <ele>20</ele>
        <time>2016-04-14T12:46:14.000Z</time>
      </trkpt>
      <trkpt lat="43.14785" lon="5.71011">
        <ele>19.200000762939</ele>
        <time>2016-04-14T12:48:14.000Z</time>
      </trkpt>
      <trkpt lat="43.14787" lon="5.71012">
        <ele>19.39999961853</ele>
        <time>2016-04-14T12:48:16.000Z</time>
      </trkpt>
      <trkpt lat="43.14796" lon="5.71014">
        <ele>19.39999961853</ele>
        <time>2016-04-14T12:48:23.000Z</time>
      </trkpt>
      <trkpt lat="43.14808" lon="5.71019">
        <ele>19.60000038147</ele>
        <time>2016-04-14T12:48:31.000Z</time>
      </trkpt>
      <trkpt lat="43.14819" lon="5.7102">
        <ele>20.799999237061</ele>
        <time>2016-04-14T12:48:39.000Z</time>
      </trkpt>
      <trkpt lat="43.14832" lon="5.71024">
        <ele>22.39999961853</ele>
        <time>2016-04-14T12:48:52.000Z</time>
      </trkpt>
      <trkpt lat="43.14836" lon="5.71026">
        <ele>23</ele>
        <time>2016-04-14T12:48:55.000Z</time>
      </trkpt>
      <trkpt lat="43.14838" lon="5.71027">
        <ele>23.39999961853</ele>
        <time>2016-04-14T12:48:56.000Z</time>
      </trkpt>
      <trkpt lat="43.14851" lon="5.71042">
        <ele>25</ele>
        <time>2016-04-14T12:49:02.000Z</time>
      </trkpt>
      <trkpt lat="43.14862" lon="5.71063">
        <ele>25.60000038147</ele>
        <time>2016-04-14T12:49:09.000Z</time>
      </trkpt>
      <trkpt lat="43.14873" lon="5.71093">
        <ele>26.39999961853</ele>
        <time>2016-04-14T12:49:16.000Z</time>
      </trkpt>
      <trkpt lat="43.14878" lon="5.71112">
        <ele>27.60000038147</ele>
        <time>2016-04-14T12:49:22.000Z</time>
      </trkpt>
      <trkpt lat="43.1488" lon="5.71123">
        <ele>28.200000762939</ele>
        <time>2016-04-14T12:49:26.000Z</time>
      </trkpt>
      <trkpt lat="43.14883" lon="5.71133">
        <ele>28.799999237061</ele>
        <time>2016-04-14T12:49:29.000Z</time>
      </trkpt>
      <trkpt lat="43.14884" lon="5.71153">
        <ele>29</ele>
        <time>2016-04-14T12:49:36.000Z</time>
      </trkpt>
      <trkpt lat="43.14885" lon="5.71176">
        <ele>29</ele>
        <time>2016-04-14T12:49:43.000Z</time>
      </trkpt>
      <trkpt lat="43.14887" lon="5.71185">
        <ele>29</ele>
        <time>2016-04-14T12:49:46.000Z</time>
      </trkpt>
      <trkpt lat="43.14886" lon="5.71198">
        <ele>29</ele>
        <time>2016-04-14T12:49:50.000Z</time>
      </trkpt>
      <trkpt lat="43.14885" lon="5.71216">
        <ele>29</ele>
        <time>2016-04-14T12:49:56.000Z</time>
      </trkpt>
      <trkpt lat="43.14881" lon="5.71243">
        <ele>29.200000762939</ele>
        <time>2016-04-14T12:50:02.000Z</time>
      </trkpt>
      <trkpt lat="43.1488" lon="5.71246">
        <ele>29.200000762939</ele>
        <time>2016-04-14T12:50:03.000Z</time>
      </trkpt>
      <trkpt lat="43.14875" lon="5.71258">
        <ele>29.60000038147</ele>
        <time>2016-04-14T12:50:07.000Z</time>
      </trkpt>
      <trkpt lat="43.14864" lon="5.71277">
        <ele>30.39999961853</ele>
        <time>2016-04-14T12:50:14.000Z</time>
      </trkpt>
      <trkpt lat="43.14862" lon="5.71297">
        <ele>30.799999237061</ele>
        <time>2016-04-14T12:50:20.000Z</time>
      </trkpt>
      <trkpt lat="43.14861" lon="5.71316">
        <ele>30.200000762939</ele>
        <time>2016-04-14T12:50:27.000Z</time>
      </trkpt>
      <trkpt lat="43.14862" lon="5.71324">
        <ele>30</ele>
        <time>2016-04-14T12:50:30.000Z</time>
      </trkpt>
      <trkpt lat="43.14864" lon="5.71331">
        <ele>29.799999237061</ele>
        <time>2016-04-14T12:50:33.000Z</time>
      </trkpt>
      <trkpt lat="43.14866" lon="5.71333">
        <ele>29.60000038147</ele>
        <time>2016-04-14T12:50:34.000Z</time>
      </trkpt>
      <trkpt lat="43.14876" lon="5.71343">
        <ele>28.39999961853</ele>
        <time>2016-04-14T12:50:40.000Z</time>
      </trkpt>
      <trkpt lat="43.14877" lon="5.71344">
        <ele>28.200000762939</ele>
        <time>2016-04-14T12:50:41.000Z</time>
      </trkpt>
      <trkpt lat="43.14886" lon="5.71358">
        <ele>27.200000762939</ele>
        <time>2016-04-14T12:50:48.000Z</time>
      </trkpt>
      <trkpt lat="43.149" lon="5.71378">
        <ele>25.799999237061</ele>
        <time>2016-04-14T12:50:55.000Z</time>
      </trkpt>
      <trkpt lat="43.14908" lon="5.71385">
        <ele>24.799999237061</ele>
        <time>2016-04-14T12:50:58.000Z</time>
      </trkpt>
      <trkpt lat="43.14915" lon="5.71393">
        <ele>24.200000762939</ele>
        <time>2016-04-14T12:51:01.000Z</time>
      </trkpt>
      <trkpt lat="43.14927" lon="5.71414">
        <ele>24.39999961853</ele>
        <time>2016-04-14T12:51:06.000Z</time>
      </trkpt>
      <trkpt lat="43.14942" lon="5.71446">
        <ele>25.799999237061</ele>
        <time>2016-04-14T12:51:13.000Z</time>
      </trkpt>
      <trkpt lat="43.14957" lon="5.71462">
        <ele>25.799999237061</ele>
        <time>2016-04-14T12:51:19.000Z</time>
      </trkpt>
      <trkpt lat="43.14968" lon="5.71467">
        <ele>25.39999961853</ele>
        <time>2016-04-14T12:51:23.000Z</time>
      </trkpt>
      <trkpt lat="43.1497" lon="5.71469">
        <ele>25.200000762939</ele>
        <time>2016-04-14T12:51:24.000Z</time>
      </trkpt>
      <trkpt lat="43.14987" lon="5.71473">
        <ele>24.60000038147</ele>
        <time>2016-04-14T12:51:29.000Z</time>
      </trkpt>
      <trkpt lat="43.15012" lon="5.71471">
        <ele>22.200000762939</ele>
        <time>2016-04-14T12:51:34.000Z</time>
      </trkpt>
      <trkpt lat="43.15018" lon="5.7147">
        <ele>22.39999961853</ele>
        <time>2016-04-14T12:51:35.000Z</time>
      </trkpt>
      <trkpt lat="43.15037" lon="5.71466">
        <ele>23.60000038147</ele>
        <time>2016-04-14T12:51:39.000Z</time>
      </trkpt>
      <trkpt lat="43.15045" lon="5.71465">
        <ele>24.200000762939</ele>
        <time>2016-04-14T12:51:41.000Z</time>
      </trkpt>
      <trkpt lat="43.15062" lon="5.71464">
        <ele>25.200000762939</ele>
        <time>2016-04-14T12:51:45.000Z</time>
      </trkpt>
      <trkpt lat="43.15069" lon="5.71464">
        <ele>25.60000038147</ele>
        <time>2016-04-14T12:51:47.000Z</time>
      </trkpt>
      <trkpt lat="43.15089" lon="5.7147">
        <ele>26.60000038147</ele>
        <time>2016-04-14T12:51:52.000Z</time>
      </trkpt>
      <trkpt lat="43.15111" lon="5.71475">
        <ele>27.39999961853</ele>
        <time>2016-04-14T12:51:58.000Z</time>
      </trkpt>
      <trkpt lat="43.15127" lon="5.71476">
        <ele>26.799999237061</ele>
        <time>2016-04-14T12:52:04.000Z</time>
      </trkpt>
      <trkpt lat="43.15143" lon="5.71482">
        <ele>27.39999961853</ele>
        <time>2016-04-14T12:52:09.000Z</time>
      </trkpt>
      <trkpt lat="43.15166" lon="5.71501">
        <ele>30.39999961853</ele>
        <time>2016-04-14T12:52:16.000Z</time>
      </trkpt>
      <trkpt lat="43.15181" lon="5.71507">
        <ele>30.799999237061</ele>
        <time>2016-04-14T12:52:20.000Z</time>
      </trkpt>
      <trkpt lat="43.15187" lon="5.71507">
        <ele>30.799999237061</ele>
        <time>2016-04-14T12:52:22.000Z</time>
      </trkpt>
      <trkpt lat="43.15212" lon="5.71507">
        <ele>30.200000762939</ele>
        <time>2016-04-14T12:52:28.000Z</time>
      </trkpt>
      <trkpt lat="43.15217" lon="5.71507">
        <ele>30.200000762939</ele>
        <time>2016-04-14T12:52:29.000Z</time>
      </trkpt>
      <trkpt lat="43.15237" lon="5.71502">
        <ele>30</ele>
        <time>2016-04-14T12:52:34.000Z</time>
      </trkpt>
      <trkpt lat="43.15245" lon="5.71501">
        <ele>30</ele>
        <time>2016-04-14T12:52:36.000Z</time>
      </trkpt>
      <trkpt lat="43.15258" lon="5.71501">
        <ele>30.39999961853</ele>
        <time>2016-04-14T12:52:39.000Z</time>
      </trkpt>
      <trkpt lat="43.15265" lon="5.71496">
        <ele>30.200000762939</ele>
        <time>2016-04-14T12:52:41.000Z</time>
      </trkpt>
      <trkpt lat="43.15276" lon="5.71485">
        <ele>29.60000038147</ele>
        <time>2016-04-14T12:52:44.000Z</time>
      </trkpt>
      <trkpt lat="43.15286" lon="5.71473">
        <ele>28</ele>
        <time>2016-04-14T12:52:47.000Z</time>
      </trkpt>
      <trkpt lat="43.15295" lon="5.71461">
        <ele>28.39999961853</ele>
        <time>2016-04-14T12:52:50.000Z</time>
      </trkpt>
      <trkpt lat="43.15307" lon="5.71454">
        <ele>29.39999961853</ele>
        <time>2016-04-14T12:52:53.000Z</time>
      </trkpt>
      <trkpt lat="43.15311" lon="5.71453">
        <ele>29.60000038147</ele>
        <time>2016-04-14T12:52:54.000Z</time>
      </trkpt>
      <trkpt lat="43.15319" lon="5.71452">
        <ele>30.200000762939</ele>
        <time>2016-04-14T12:52:56.000Z</time>
      </trkpt>
      <trkpt lat="43.15328" lon="5.71451">
        <ele>30.60000038147</ele>
        <time>2016-04-14T12:52:58.000Z</time>
      </trkpt>
      <trkpt lat="43.1534" lon="5.71448">
        <ele>30.60000038147</ele>
        <time>2016-04-14T12:53:01.000Z</time>
      </trkpt>
      <trkpt lat="43.15359" lon="5.71444">
        <ele>32.200000762939</ele>
        <time>2016-04-14T12:53:06.000Z</time>
      </trkpt>
      <trkpt lat="43.15392" lon="5.7144">
        <ele>35.200000762939</ele>
        <time>2016-04-14T12:53:14.000Z</time>
      </trkpt>
      <trkpt lat="43.15425" lon="5.71444">
        <ele>37.400001525879</ele>
        <time>2016-04-14T12:53:22.000Z</time>
      </trkpt>
      <trkpt lat="43.15453" lon="5.71451">
        <ele>37.599998474121</ele>
        <time>2016-04-14T12:53:29.000Z</time>
      </trkpt>
      <trkpt lat="43.15469" lon="5.71452">
        <ele>37.400001525879</ele>
        <time>2016-04-14T12:53:32.000Z</time>
      </trkpt>
      <trkpt lat="43.15479" lon="5.71454">
        <ele>37.400001525879</ele>
        <time>2016-04-14T12:53:34.000Z</time>
      </trkpt>
      <trkpt lat="43.15514" lon="5.71459">
        <ele>37.599998474121</ele>
        <time>2016-04-14T12:53:40.000Z</time>
      </trkpt>
      <trkpt lat="43.1556" lon="5.71461">
        <ele>37.599998474121</ele>
        <time>2016-04-14T12:53:48.000Z</time>
      </trkpt>
      <trkpt lat="43.15594" lon="5.71462">
        <ele>37.799999237061</ele>
        <time>2016-04-14T12:53:54.000Z</time>
      </trkpt>
      <trkpt lat="43.15616" lon="5.71465">
        <ele>38.200000762939</ele>
        <time>2016-04-14T12:53:58.000Z</time>
      </trkpt>
      <trkpt lat="43.15647" lon="5.71472">
        <ele>38.799999237061</ele>
        <time>2016-04-14T12:54:04.000Z</time>
      </trkpt>
      <trkpt lat="43.15651" lon="5.71474">
        <ele>39</ele>
        <time>2016-04-14T12:54:05.000Z</time>
      </trkpt>
      <trkpt lat="43.15665" lon="5.71481">
        <ele>39.799999237061</ele>
        <time>2016-04-14T12:54:08.000Z</time>
      </trkpt>
      <trkpt lat="43.1567" lon="5.71483">
        <ele>40</ele>
        <time>2016-04-14T12:54:09.000Z</time>
      </trkpt>
      <trkpt lat="43.15684" lon="5.71489">
        <ele>41</ele>
        <time>2016-04-14T12:54:12.000Z</time>
      </trkpt>
      <trkpt lat="43.15689" lon="5.7149">
        <ele>41.400001525879</ele>
        <time>2016-04-14T12:54:13.000Z</time>
      </trkpt>
      <trkpt lat="43.15698" lon="5.71492">
        <ele>42</ele>
        <time>2016-04-14T12:54:15.000Z</time>
      </trkpt>
      <trkpt lat="43.15711" lon="5.71495">
        <ele>43.200000762939</ele>
        <time>2016-04-14T12:54:18.000Z</time>
      </trkpt>
      <trkpt lat="43.15729" lon="5.71498">
        <ele>44.599998474121</ele>
        <time>2016-04-14T12:54:22.000Z</time>
      </trkpt>
      <trkpt lat="43.15746" lon="5.71499">
        <ele>46</ele>
        <time>2016-04-14T12:54:26.000Z</time>
      </trkpt>
      <trkpt lat="43.15755" lon="5.71499">
        <ele>46.599998474121</ele>
        <time>2016-04-14T12:54:28.000Z</time>
      </trkpt>
      <trkpt lat="43.15764" lon="5.71499">
        <ele>47.200000762939</ele>
        <time>2016-04-14T12:54:30.000Z</time>
      </trkpt>
      <trkpt lat="43.15773" lon="5.71499">
        <ele>47.599998474121</ele>
        <time>2016-04-14T12:54:32.000Z</time>
      </trkpt>
      <trkpt lat="43.15783" lon="5.71499">
        <ele>48</ele>
        <time>2016-04-14T12:54:34.000Z</time>
      </trkpt>
      <trkpt lat="43.15798" lon="5.715">
        <ele>48.799999237061</ele>
        <time>2016-04-14T12:54:37.000Z</time>
      </trkpt>
      <trkpt lat="43.15803" lon="5.71501">
        <ele>49.200000762939</ele>
        <time>2016-04-14T12:54:38.000Z</time>
      </trkpt>
      <trkpt lat="43.15808" lon="5.715">
        <ele>49.400001525879</ele>
        <time>2016-04-14T12:54:39.000Z</time>
      </trkpt>
      <trkpt lat="43.15822" lon="5.71499">
        <ele>50</ele>
        <time>2016-04-14T12:54:42.000Z</time>
      </trkpt>
      <trkpt lat="43.15826" lon="5.71498">
        <ele>50.200000762939</ele>
        <time>2016-04-14T12:54:43.000Z</time>
      </trkpt>
      <trkpt lat="43.15849" lon="5.71495">
        <ele>50.799999237061</ele>
        <time>2016-04-14T12:54:47.000Z</time>
      </trkpt>
      <trkpt lat="43.15876" lon="5.71492">
        <ele>50.599998474121</ele>
        <time>2016-04-14T12:54:52.000Z</time>
      </trkpt>
      <trkpt lat="43.15898" lon="5.71491">
        <ele>50.400001525879</ele>
        <time>2016-04-14T12:54:56.000Z</time>
      </trkpt>
      <trkpt lat="43.1595" lon="5.71486">
        <ele>50.799999237061</ele>
        <time>2016-04-14T12:55:06.000Z</time>
      </trkpt>
      <trkpt lat="43.16003" lon="5.71483">
        <ele>51.200000762939</ele>
        <time>2016-04-14T12:55:16.000Z</time>
      </trkpt>
      <trkpt lat="43.16029" lon="5.71479">
        <ele>50.200000762939</ele>
        <time>2016-04-14T12:55:21.000Z</time>
      </trkpt>
      <trkpt lat="43.16055" lon="5.71475">
        <ele>49.799999237061</ele>
        <time>2016-04-14T12:55:26.000Z</time>
      </trkpt>
      <trkpt lat="43.16098" lon="5.71476">
        <ele>49.200000762939</ele>
        <time>2016-04-14T12:55:34.000Z</time>
      </trkpt>
      <trkpt lat="43.16124" lon="5.71478">
        <ele>48.799999237061</ele>
        <time>2016-04-14T12:55:39.000Z</time>
      </trkpt>
      <trkpt lat="43.16145" lon="5.71478">
        <ele>48.400001525879</ele>
        <time>2016-04-14T12:55:43.000Z</time>
      </trkpt>
      <trkpt lat="43.1617" lon="5.71479">
        <ele>48.200000762939</ele>
        <time>2016-04-14T12:55:48.000Z</time>
      </trkpt>
      <trkpt lat="43.16194" lon="5.7148">
        <ele>48.599998474121</ele>
        <time>2016-04-14T12:55:53.000Z</time>
      </trkpt>
      <trkpt lat="43.16203" lon="5.7148">
        <ele>49</ele>
        <time>2016-04-14T12:55:55.000Z</time>
      </trkpt>
      <trkpt lat="43.16226" lon="5.71482">
        <ele>49.799999237061</ele>
        <time>2016-04-14T12:56:01.000Z</time>
      </trkpt>
      <trkpt lat="43.16229" lon="5.71482">
        <ele>49.799999237061</ele>
        <time>2016-04-14T12:56:02.000Z</time>
      </trkpt>
      <trkpt lat="43.16242" lon="5.71483">
        <ele>50.400001525879</ele>
        <time>2016-04-14T12:56:07.000Z</time>
      </trkpt>
      <trkpt lat="43.16247" lon="5.71478">
        <ele>50.599998474121</ele>
        <time>2016-04-14T12:56:09.000Z</time>
      </trkpt>
      <trkpt lat="43.16248" lon="5.71473">
        <ele>50.599998474121</ele>
        <time>2016-04-14T12:56:10.000Z</time>
      </trkpt>
      <trkpt lat="43.16241" lon="5.71461">
        <ele>50.599998474121</ele>
        <time>2016-04-14T12:56:13.000Z</time>
      </trkpt>
      <trkpt lat="43.16234" lon="5.71454">
        <ele>50.599998474121</ele>
        <time>2016-04-14T12:56:15.000Z</time>
      </trkpt>
      <trkpt lat="43.16231" lon="5.7145">
        <ele>50.599998474121</ele>
        <time>2016-04-14T12:56:16.000Z</time>
      </trkpt>
      <trkpt lat="43.16216" lon="5.71435">
        <ele>50.599998474121</ele>
        <time>2016-04-14T12:56:20.000Z</time>
      </trkpt>
      <trkpt lat="43.16204" lon="5.71421">
        <ele>50.599998474121</ele>
        <time>2016-04-14T12:56:24.000Z</time>
      </trkpt>
      <trkpt lat="43.16198" lon="5.71408">
        <ele>51</ele>
        <time>2016-04-14T12:56:27.000Z</time>
      </trkpt>
      <trkpt lat="43.16196" lon="5.71386">
        <ele>52</ele>
        <time>2016-04-14T12:56:32.000Z</time>
      </trkpt>
      <trkpt lat="43.16198" lon="5.71366">
        <ele>53</ele>
        <time>2016-04-14T12:56:38.000Z</time>
      </trkpt>
      <trkpt lat="43.16199" lon="5.71359">
        <ele>53.400001525879</ele>
        <time>2016-04-14T12:56:40.000Z</time>
      </trkpt>
      <trkpt lat="43.16204" lon="5.71338">
        <ele>54.599998474121</ele>
        <time>2016-04-14T12:56:45.000Z</time>
      </trkpt>
      <trkpt lat="43.16207" lon="5.7133">
        <ele>55.200000762939</ele>
        <time>2016-04-14T12:56:47.000Z</time>
      </trkpt>
      <trkpt lat="43.1621" lon="5.71314">
        <ele>56.799999237061</ele>
        <time>2016-04-14T12:56:51.000Z</time>
      </trkpt>
      <trkpt lat="43.16213" lon="5.71302">
        <ele>58</ele>
        <time>2016-04-14T12:56:54.000Z</time>
      </trkpt>
      <trkpt lat="43.16214" lon="5.71298">
        <ele>58.200000762939</ele>
        <time>2016-04-14T12:56:55.000Z</time>
      </trkpt>
      <trkpt lat="43.16218" lon="5.71276">
        <ele>59.799999237061</ele>
        <time>2016-04-14T12:57:00.000Z</time>
      </trkpt>
      <trkpt lat="43.16218" lon="5.71269">
        <ele>60</ele>
        <time>2016-04-14T12:57:01.000Z</time>
      </trkpt>
      <trkpt lat="43.16218" lon="5.71257">
        <ele>60.799999237061</ele>
        <time>2016-04-14T12:57:03.000Z</time>
      </trkpt>
      <trkpt lat="43.16216" lon="5.71253">
        <ele>61.200000762939</ele>
        <time>2016-04-14T12:57:04.000Z</time>
      </trkpt>
      <trkpt lat="43.16212" lon="5.71247">
        <ele>61.599998474121</ele>
        <time>2016-04-14T12:57:06.000Z</time>
      </trkpt>
      <trkpt lat="43.16211" lon="5.71244">
        <ele>61.599998474121</ele>
        <time>2016-04-14T12:57:07.000Z</time>
      </trkpt>
      <trkpt lat="43.16202" lon="5.7123">
        <ele>62.200000762939</ele>
        <time>2016-04-14T12:57:13.000Z</time>
      </trkpt>
      <trkpt lat="43.16192" lon="5.71215">
        <ele>62.400001525879</ele>
        <time>2016-04-14T12:57:19.000Z</time>
      </trkpt>
      <trkpt lat="43.16189" lon="5.7121">
        <ele>62.200000762939</ele>
        <time>2016-04-14T12:57:21.000Z</time>
      </trkpt>
      <trkpt lat="43.16179" lon="5.71195">
        <ele>62</ele>
        <time>2016-04-14T12:57:27.000Z</time>
      </trkpt>
      <trkpt lat="43.16171" lon="5.71178">
        <ele>63.400001525879</ele>
        <time>2016-04-14T12:57:32.000Z</time>
      </trkpt>
      <trkpt lat="43.1617" lon="5.71175">
        <ele>63.599998474121</ele>
        <time>2016-04-14T12:57:33.000Z</time>
      </trkpt>
      <trkpt lat="43.16157" lon="5.71155">
        <ele>65.400001525879</ele>
        <time>2016-04-14T12:57:40.000Z</time>
      </trkpt>
      <trkpt lat="43.16153" lon="5.71149">
        <ele>65.800003051758</ele>
        <time>2016-04-14T12:57:42.000Z</time>
      </trkpt>
      <trkpt lat="43.16146" lon="5.71135">
        <ele>67</ele>
        <time>2016-04-14T12:57:47.000Z</time>
      </trkpt>
      <trkpt lat="43.16142" lon="5.7113">
        <ele>67</ele>
        <time>2016-04-14T12:57:49.000Z</time>
      </trkpt>
      <trkpt lat="43.16131" lon="5.7111">
        <ele>67.199996948242</ele>
        <time>2016-04-14T12:57:54.000Z</time>
      </trkpt>
      <trkpt lat="43.16128" lon="5.71107">
        <ele>67.400001525879</ele>
        <time>2016-04-14T12:57:55.000Z</time>
      </trkpt>
      <trkpt lat="43.16124" lon="5.71098">
        <ele>67.400001525879</ele>
        <time>2016-04-14T12:57:58.000Z</time>
      </trkpt>
      <trkpt lat="43.16123" lon="5.71096">
        <ele>67.599998474121</ele>
        <time>2016-04-14T12:57:59.000Z</time>
      </trkpt>
      <trkpt lat="43.16117" lon="5.71083">
        <ele>67.800003051758</ele>
        <time>2016-04-14T12:58:03.000Z</time>
      </trkpt>
      <trkpt lat="43.16115" lon="5.71076">
        <ele>68</ele>
        <time>2016-04-14T12:58:05.000Z</time>
      </trkpt>
      <trkpt lat="43.1611" lon="5.7106">
        <ele>69.199996948242</ele>
        <time>2016-04-14T12:58:11.000Z</time>
      </trkpt>
      <trkpt lat="43.16107" lon="5.71041">
        <ele>70.400001525879</ele>
        <time>2016-04-14T12:58:17.000Z</time>
      </trkpt>
      <trkpt lat="43.16104" lon="5.71019">
        <ele>71.199996948242</ele>
        <time>2016-04-14T12:58:22.000Z</time>
      </trkpt>
      <trkpt lat="43.16102" lon="5.71005">
        <ele>71.800003051758</ele>
        <time>2016-04-14T12:58:24.000Z</time>
      </trkpt>
      <trkpt lat="43.16101" lon="5.70985">
        <ele>73</ele>
        <time>2016-04-14T12:58:27.000Z</time>
      </trkpt>
      <trkpt lat="43.16101" lon="5.70979">
        <ele>73.199996948242</ele>
        <time>2016-04-14T12:58:28.000Z</time>
      </trkpt>
      <trkpt lat="43.16101" lon="5.7096">
        <ele>74</ele>
        <time>2016-04-14T12:58:32.000Z</time>
      </trkpt>
      <trkpt lat="43.16101" lon="5.70957">
        <ele>74.199996948242</ele>
        <time>2016-04-14T12:58:33.000Z</time>
      </trkpt>
      <trkpt lat="43.16101" lon="5.7094">
        <ele>74.400001525879</ele>
        <time>2016-04-14T12:58:39.000Z</time>
      </trkpt>
      <trkpt lat="43.16104" lon="5.70914">
        <ele>75.400001525879</ele>
        <time>2016-04-14T12:58:46.000Z</time>
      </trkpt>
      <trkpt lat="43.16104" lon="5.7089">
        <ele>76.400001525879</ele>
        <time>2016-04-14T12:58:52.000Z</time>
      </trkpt>
      <trkpt lat="43.16103" lon="5.70886">
        <ele>76.599998474121</ele>
        <time>2016-04-14T12:58:53.000Z</time>
      </trkpt>
      <trkpt lat="43.16101" lon="5.70846">
        <ele>77</ele>
        <time>2016-04-14T12:59:01.000Z</time>
      </trkpt>
      <trkpt lat="43.16096" lon="5.70804">
        <ele>77.199996948242</ele>
        <time>2016-04-14T12:59:07.000Z</time>
      </trkpt>
      <trkpt lat="43.16095" lon="5.70797">
        <ele>77.199996948242</ele>
        <time>2016-04-14T12:59:08.000Z</time>
      </trkpt>
      <trkpt lat="43.16092" lon="5.70755">
        <ele>77.199996948242</ele>
        <time>2016-04-14T12:59:14.000Z</time>
      </trkpt>
      <trkpt lat="43.16092" lon="5.70749">
        <ele>77.400001525879</ele>
        <time>2016-04-14T12:59:15.000Z</time>
      </trkpt>
      <trkpt lat="43.16101" lon="5.70724">
        <ele>79.400001525879</ele>
        <time>2016-04-14T12:59:20.000Z</time>
      </trkpt>
      <trkpt lat="43.16111" lon="5.70692">
        <ele>82.199996948242</ele>
        <time>2016-04-14T12:59:27.000Z</time>
      </trkpt>
      <trkpt lat="43.16111" lon="5.70672">
        <ele>82.400001525879</ele>
        <time>2016-04-14T12:59:32.000Z</time>
      </trkpt>
      <trkpt lat="43.1611" lon="5.70667">
        <ele>82.199996948242</ele>
        <time>2016-04-14T12:59:33.000Z</time>
      </trkpt>
      <trkpt lat="43.16105" lon="5.70643">
        <ele>81.199996948242</ele>
        <time>2016-04-14T12:59:38.000Z</time>
      </trkpt>
      <trkpt lat="43.16092" lon="5.70592">
        <ele>78.800003051758</ele>
        <time>2016-04-14T12:59:48.000Z</time>
      </trkpt>
      <trkpt lat="43.1608" lon="5.70537">
        <ele>77.400001525879</ele>
        <time>2016-04-14T12:59:57.000Z</time>
      </trkpt>
      <trkpt lat="43.1608" lon="5.70521">
        <ele>77.199996948242</ele>
        <time>2016-04-14T12:59:59.000Z</time>
      </trkpt>
      <trkpt lat="43.16079" lon="5.70495">
        <ele>76.800003051758</ele>
        <time>2016-04-14T13:00:02.000Z</time>
      </trkpt>
      <trkpt lat="43.16074" lon="5.70468">
        <ele>76.199996948242</ele>
        <time>2016-04-14T13:00:05.000Z</time>
      </trkpt>
      <trkpt lat="43.16067" lon="5.70451">
        <ele>76.199996948242</ele>
        <time>2016-04-14T13:00:07.000Z</time>
      </trkpt>
      <trkpt lat="43.16052" lon="5.70425">
        <ele>75.400001525879</ele>
        <time>2016-04-14T13:00:10.000Z</time>
      </trkpt>
      <trkpt lat="43.16045" lon="5.70417">
        <ele>75</ele>
        <time>2016-04-14T13:00:11.000Z</time>
      </trkpt>
      <trkpt lat="43.16037" lon="5.70413">
        <ele>74.599998474121</ele>
        <time>2016-04-14T13:00:12.000Z</time>
      </trkpt>
      <trkpt lat="43.16022" lon="5.70403">
        <ele>73.400001525879</ele>
        <time>2016-04-14T13:00:14.000Z</time>
      </trkpt>
      <trkpt lat="43.16012" lon="5.70399">
        <ele>72.599998474121</ele>
        <time>2016-04-14T13:00:15.000Z</time>
      </trkpt>
      <trkpt lat="43.15996" lon="5.70386">
        <ele>73.400001525879</ele>
        <time>2016-04-14T13:00:17.000Z</time>
      </trkpt>
      <trkpt lat="43.15993" lon="5.70375">
        <ele>74.199996948242</ele>
        <time>2016-04-14T13:00:18.000Z</time>
      </trkpt>
      <trkpt lat="43.15991" lon="5.70365">
        <ele>75</ele>
        <time>2016-04-14T13:00:19.000Z</time>
      </trkpt>
      <trkpt lat="43.15991" lon="5.70346">
        <ele>75.199996948242</ele>
        <time>2016-04-14T13:00:21.000Z</time>
      </trkpt>
      <trkpt lat="43.15991" lon="5.70337">
        <ele>75.199996948242</ele>
        <time>2016-04-14T13:00:22.000Z</time>
      </trkpt>
      <trkpt lat="43.15991" lon="5.70328">
        <ele>75.400001525879</ele>
        <time>2016-04-14T13:00:23.000Z</time>
      </trkpt>
      <trkpt lat="43.15991" lon="5.70286">
        <ele>77</ele>
        <time>2016-04-14T13:00:28.000Z</time>
      </trkpt>
      <trkpt lat="43.15993" lon="5.70235">
        <ele>76.199996948242</ele>
        <time>2016-04-14T13:00:35.000Z</time>
      </trkpt>
      <trkpt lat="43.15998" lon="5.7018">
        <ele>75</ele>
        <time>2016-04-14T13:00:43.000Z</time>
      </trkpt>
      <trkpt lat="43.16" lon="5.70155">
        <ele>74</ele>
        <time>2016-04-14T13:00:47.000Z</time>
      </trkpt>
      <trkpt lat="43.15999" lon="5.70142">
        <ele>74</ele>
        <time>2016-04-14T13:00:49.000Z</time>
      </trkpt>
      <trkpt lat="43.15995" lon="5.7013">
        <ele>75</ele>
        <time>2016-04-14T13:00:51.000Z</time>
      </trkpt>
      <trkpt lat="43.15989" lon="5.70119">
        <ele>76.599998474121</ele>
        <time>2016-04-14T13:00:53.000Z</time>
      </trkpt>
      <trkpt lat="43.15983" lon="5.70102">
        <ele>78.400001525879</ele>
        <time>2016-04-14T13:00:56.000Z</time>
      </trkpt>
      <trkpt lat="43.15982" lon="5.70096">
        <ele>78.400001525879</ele>
        <time>2016-04-14T13:00:57.000Z</time>
      </trkpt>
      <trkpt lat="43.15983" lon="5.70083">
        <ele>78</ele>
        <time>2016-04-14T13:00:59.000Z</time>
      </trkpt>
      <trkpt lat="43.15987" lon="5.70057">
        <ele>76.199996948242</ele>
        <time>2016-04-14T13:01:03.000Z</time>
      </trkpt>
      <trkpt lat="43.15988" lon="5.7005">
        <ele>75.400001525879</ele>
        <time>2016-04-14T13:01:04.000Z</time>
      </trkpt>
      <trkpt lat="43.1599" lon="5.70042">
        <ele>75</ele>
        <time>2016-04-14T13:01:05.000Z</time>
      </trkpt>
      <trkpt lat="43.15993" lon="5.70025">
        <ele>73.599998474121</ele>
        <time>2016-04-14T13:01:07.000Z</time>
      </trkpt>
      <trkpt lat="43.15999" lon="5.69999">
        <ele>70.800003051758</ele>
        <time>2016-04-14T13:01:10.000Z</time>
      </trkpt>
      <trkpt lat="43.16002" lon="5.69979">
        <ele>69</ele>
        <time>2016-04-14T13:01:12.000Z</time>
      </trkpt>
      <trkpt lat="43.16005" lon="5.69958">
        <ele>67.199996948242</ele>
        <time>2016-04-14T13:01:14.000Z</time>
      </trkpt>
      <trkpt lat="43.16008" lon="5.69936">
        <ele>65.400001525879</ele>
        <time>2016-04-14T13:01:16.000Z</time>
      </trkpt>
      <trkpt lat="43.16009" lon="5.69926">
        <ele>64.400001525879</ele>
        <time>2016-04-14T13:01:17.000Z</time>
      </trkpt>
      <trkpt lat="43.16013" lon="5.69904">
        <ele>62.599998474121</ele>
        <time>2016-04-14T13:01:19.000Z</time>
      </trkpt>
      <trkpt lat="43.16017" lon="5.69893">
        <ele>61.599998474121</ele>
        <time>2016-04-14T13:01:20.000Z</time>
      </trkpt>
      <trkpt lat="43.16021" lon="5.69882">
        <ele>61.599998474121</ele>
        <time>2016-04-14T13:01:21.000Z</time>
      </trkpt>
      <trkpt lat="43.16025" lon="5.69872">
        <ele>61.400001525879</ele>
        <time>2016-04-14T13:01:22.000Z</time>
      </trkpt>
      <trkpt lat="43.1603" lon="5.69863">
        <ele>61</ele>
        <time>2016-04-14T13:01:23.000Z</time>
      </trkpt>
      <trkpt lat="43.16036" lon="5.69854">
        <ele>60.799999237061</ele>
        <time>2016-04-14T13:01:24.000Z</time>
      </trkpt>
      <trkpt lat="43.16041" lon="5.69845">
        <ele>60.400001525879</ele>
        <time>2016-04-14T13:01:25.000Z</time>
      </trkpt>
      <trkpt lat="43.16054" lon="5.69829">
        <ele>58.599998474121</ele>
        <time>2016-04-14T13:01:27.000Z</time>
      </trkpt>
      <trkpt lat="43.16062" lon="5.69823">
        <ele>57.200000762939</ele>
        <time>2016-04-14T13:01:28.000Z</time>
      </trkpt>
      <trkpt lat="43.16069" lon="5.69816">
        <ele>55.799999237061</ele>
        <time>2016-04-14T13:01:29.000Z</time>
      </trkpt>
      <trkpt lat="43.16084" lon="5.69806">
        <ele>53.400001525879</ele>
        <time>2016-04-14T13:01:31.000Z</time>
      </trkpt>
      <trkpt lat="43.16092" lon="5.69802">
        <ele>52.400001525879</ele>
        <time>2016-04-14T13:01:32.000Z</time>
      </trkpt>
      <trkpt lat="43.16097" lon="5.69799">
        <ele>52.200000762939</ele>
        <time>2016-04-14T13:01:33.000Z</time>
      </trkpt>
      <trkpt lat="43.16106" lon="5.69793">
        <ele>52.400001525879</ele>
        <time>2016-04-14T13:01:35.000Z</time>
      </trkpt>
      <trkpt lat="43.16113" lon="5.69784">
        <ele>52.799999237061</ele>
        <time>2016-04-14T13:01:37.000Z</time>
      </trkpt>
      <trkpt lat="43.16121" lon="5.69774">
        <ele>53</ele>
        <time>2016-04-14T13:01:39.000Z</time>
      </trkpt>
      <trkpt lat="43.16131" lon="5.69764">
        <ele>53.400001525879</ele>
        <time>2016-04-14T13:01:41.000Z</time>
      </trkpt>
      <trkpt lat="43.16136" lon="5.6976">
        <ele>53.400001525879</ele>
        <time>2016-04-14T13:01:42.000Z</time>
      </trkpt>
      <trkpt lat="43.16142" lon="5.69758">
        <ele>52.400001525879</ele>
        <time>2016-04-14T13:01:43.000Z</time>
      </trkpt>
      <trkpt lat="43.16156" lon="5.69754">
        <ele>50.400001525879</ele>
        <time>2016-04-14T13:01:45.000Z</time>
      </trkpt>
      <trkpt lat="43.16164" lon="5.69753">
        <ele>49.400001525879</ele>
        <time>2016-04-14T13:01:46.000Z</time>
      </trkpt>
      <trkpt lat="43.16181" lon="5.69748">
        <ele>47.799999237061</ele>
        <time>2016-04-14T13:01:48.000Z</time>
      </trkpt>
      <trkpt lat="43.1621" lon="5.69737">
        <ele>47.400001525879</ele>
        <time>2016-04-14T13:01:51.000Z</time>
      </trkpt>
      <trkpt lat="43.16219" lon="5.69732">
        <ele>46.400001525879</ele>
        <time>2016-04-14T13:01:52.000Z</time>
      </trkpt>
      <trkpt lat="43.16239" lon="5.69724">
        <ele>44.400001525879</ele>
        <time>2016-04-14T13:01:54.000Z</time>
      </trkpt>
      <trkpt lat="43.16267" lon="5.69712">
        <ele>43.400001525879</ele>
        <time>2016-04-14T13:01:57.000Z</time>
      </trkpt>
      <trkpt lat="43.16284" lon="5.69705">
        <ele>44.200000762939</ele>
        <time>2016-04-14T13:01:59.000Z</time>
      </trkpt>
      <trkpt lat="43.16292" lon="5.697">
        <ele>44.799999237061</ele>
        <time>2016-04-14T13:02:00.000Z</time>
      </trkpt>
      <trkpt lat="43.16306" lon="5.69687">
        <ele>45.599998474121</ele>
        <time>2016-04-14T13:02:02.000Z</time>
      </trkpt>
      <trkpt lat="43.1632" lon="5.69671">
        <ele>42.799999237061</ele>
        <time>2016-04-14T13:02:04.000Z</time>
      </trkpt>
      <trkpt lat="43.16334" lon="5.69656">
        <ele>39.599998474121</ele>
        <time>2016-04-14T13:02:06.000Z</time>
      </trkpt>
      <trkpt lat="43.16347" lon="5.69641">
        <ele>36.599998474121</ele>
        <time>2016-04-14T13:02:08.000Z</time>
      </trkpt>
      <trkpt lat="43.16354" lon="5.69634">
        <ele>35.599998474121</ele>
        <time>2016-04-14T13:02:09.000Z</time>
      </trkpt>
      <trkpt lat="43.16359" lon="5.69627">
        <ele>36</ele>
        <time>2016-04-14T13:02:10.000Z</time>
      </trkpt>
      <trkpt lat="43.16366" lon="5.6962">
        <ele>36.200000762939</ele>
        <time>2016-04-14T13:02:11.000Z</time>
      </trkpt>
      <trkpt lat="43.16372" lon="5.69615">
        <ele>36.400001525879</ele>
        <time>2016-04-14T13:02:12.000Z</time>
      </trkpt>
      <trkpt lat="43.16386" lon="5.69605">
        <ele>36.599998474121</ele>
        <time>2016-04-14T13:02:14.000Z</time>
      </trkpt>
      <trkpt lat="43.16399" lon="5.69597">
        <ele>34.599998474121</ele>
        <time>2016-04-14T13:02:16.000Z</time>
      </trkpt>
      <trkpt lat="43.16413" lon="5.69589">
        <ele>31</ele>
        <time>2016-04-14T13:02:18.000Z</time>
      </trkpt>
      <trkpt lat="43.16425" lon="5.69582">
        <ele>27.799999237061</ele>
        <time>2016-04-14T13:02:20.000Z</time>
      </trkpt>
      <trkpt lat="43.16431" lon="5.69579">
        <ele>26.799999237061</ele>
        <time>2016-04-14T13:02:21.000Z</time>
      </trkpt>
      <trkpt lat="43.16436" lon="5.69577">
        <ele>26.39999961853</ele>
        <time>2016-04-14T13:02:22.000Z</time>
      </trkpt>
      <trkpt lat="43.1645" lon="5.69571">
        <ele>25.39999961853</ele>
        <time>2016-04-14T13:02:25.000Z</time>
      </trkpt>
      <trkpt lat="43.16453" lon="5.69566">
        <ele>24.799999237061</ele>
        <time>2016-04-14T13:02:26.000Z</time>
      </trkpt>
      <trkpt lat="43.16455" lon="5.69548">
        <ele>23.60000038147</ele>
        <time>2016-04-14T13:02:29.000Z</time>
      </trkpt>
      <trkpt lat="43.16467" lon="5.69524">
        <ele>24.39999961853</ele>
        <time>2016-04-14T13:02:33.000Z</time>
      </trkpt>
      <trkpt lat="43.16476" lon="5.69513">
        <ele>24</ele>
        <time>2016-04-14T13:02:35.000Z</time>
      </trkpt>
      <trkpt lat="43.16495" lon="5.69492">
        <ele>19.799999237061</ele>
        <time>2016-04-14T13:02:39.000Z</time>
      </trkpt>
      <trkpt lat="43.165" lon="5.69488">
        <ele>18.799999237061</ele>
        <time>2016-04-14T13:02:40.000Z</time>
      </trkpt>
      <trkpt lat="43.1652" lon="5.69475">
        <ele>15.800000190735</ele>
        <time>2016-04-14T13:02:44.000Z</time>
      </trkpt>
      <trkpt lat="43.16528" lon="5.6947">
        <ele>14.800000190735</ele>
        <time>2016-04-14T13:02:46.000Z</time>
      </trkpt>
      <trkpt lat="43.16532" lon="5.69468">
        <ele>14.39999961853</ele>
        <time>2016-04-14T13:02:47.000Z</time>
      </trkpt>
      <trkpt lat="43.16543" lon="5.69462">
        <ele>13.39999961853</ele>
        <time>2016-04-14T13:02:50.000Z</time>
      </trkpt>
      <trkpt lat="43.1655" lon="5.69459">
        <ele>12.800000190735</ele>
        <time>2016-04-14T13:02:52.000Z</time>
      </trkpt>
      <trkpt lat="43.16553" lon="5.69457">
        <ele>12.60000038147</ele>
        <time>2016-04-14T13:02:53.000Z</time>
      </trkpt>
      <trkpt lat="43.16571" lon="5.69449">
        <ele>11</ele>
        <time>2016-04-14T13:02:58.000Z</time>
      </trkpt>
      <trkpt lat="43.16575" lon="5.69448">
        <ele>10.60000038147</ele>
        <time>2016-04-14T13:02:59.000Z</time>
      </trkpt>
      <trkpt lat="43.16587" lon="5.69449">
        <ele>9</ele>
        <time>2016-04-14T13:03:02.000Z</time>
      </trkpt>
      <trkpt lat="43.16595" lon="5.6945">
        <ele>8</ele>
        <time>2016-04-14T13:03:04.000Z</time>
      </trkpt>
      <trkpt lat="43.166" lon="5.6945">
        <ele>8.1999998092651</ele>
        <time>2016-04-14T13:03:05.000Z</time>
      </trkpt>
      <trkpt lat="43.16614" lon="5.69452">
        <ele>8.3999996185303</ele>
        <time>2016-04-14T13:03:08.000Z</time>
      </trkpt>
      <trkpt lat="43.16625" lon="5.69454">
        <ele>8.8000001907349</ele>
        <time>2016-04-14T13:03:11.000Z</time>
      </trkpt>
      <trkpt lat="43.16629" lon="5.69455">
        <ele>9</ele>
        <time>2016-04-14T13:03:12.000Z</time>
      </trkpt>
      <trkpt lat="43.16638" lon="5.69458">
        <ele>9.3999996185303</ele>
        <time>2016-04-14T13:03:15.000Z</time>
      </trkpt>
      <trkpt lat="43.16647" lon="5.69464">
        <ele>10</ele>
        <time>2016-04-14T13:03:18.000Z</time>
      </trkpt>
      <trkpt lat="43.16659" lon="5.69485">
        <ele>12</ele>
        <time>2016-04-14T13:03:22.000Z</time>
      </trkpt>
      <trkpt lat="43.16681" lon="5.6952">
        <ele>15.199999809265</ele>
        <time>2016-04-14T13:03:29.000Z</time>
      </trkpt>
      <trkpt lat="43.16685" lon="5.69525">
        <ele>15.60000038147</ele>
        <time>2016-04-14T13:03:30.000Z</time>
      </trkpt>
      <trkpt lat="43.16692" lon="5.69531">
        <ele>16.200000762939</ele>
        <time>2016-04-14T13:03:32.000Z</time>
      </trkpt>
      <trkpt lat="43.16697" lon="5.69532">
        <ele>16.39999961853</ele>
        <time>2016-04-14T13:03:33.000Z</time>
      </trkpt>
      <trkpt lat="43.16707" lon="5.69533">
        <ele>16.60000038147</ele>
        <time>2016-04-14T13:03:35.000Z</time>
      </trkpt>
      <trkpt lat="43.16722" lon="5.69535">
        <ele>17</ele>
        <time>2016-04-14T13:03:38.000Z</time>
      </trkpt>
      <trkpt lat="43.16726" lon="5.69537">
        <ele>17.200000762939</ele>
        <time>2016-04-14T13:03:39.000Z</time>
      </trkpt>
      <trkpt lat="43.16731" lon="5.69541">
        <ele>17.60000038147</ele>
        <time>2016-04-14T13:03:40.000Z</time>
      </trkpt>
      <trkpt lat="43.16734" lon="5.69546">
        <ele>18</ele>
        <time>2016-04-14T13:03:41.000Z</time>
      </trkpt>
      <trkpt lat="43.16741" lon="5.69557">
        <ele>19</ele>
        <time>2016-04-14T13:03:43.000Z</time>
      </trkpt>
      <trkpt lat="43.16749" lon="5.69575">
        <ele>20.39999961853</ele>
        <time>2016-04-14T13:03:46.000Z</time>
      </trkpt>
      <trkpt lat="43.16754" lon="5.69587">
        <ele>21.39999961853</ele>
        <time>2016-04-14T13:03:48.000Z</time>
      </trkpt>
      <trkpt lat="43.16757" lon="5.69592">
        <ele>21.799999237061</ele>
        <time>2016-04-14T13:03:49.000Z</time>
      </trkpt>
      <trkpt lat="43.16763" lon="5.69602">
        <ele>22.60000038147</ele>
        <time>2016-04-14T13:03:51.000Z</time>
      </trkpt>
      <trkpt lat="43.16773" lon="5.69607">
        <ele>23.60000038147</ele>
        <time>2016-04-14T13:03:53.000Z</time>
      </trkpt>
      <trkpt lat="43.16784" lon="5.69609">
        <ele>24.60000038147</ele>
        <time>2016-04-14T13:03:55.000Z</time>
      </trkpt>
      <trkpt lat="43.168" lon="5.69612">
        <ele>26</ele>
        <time>2016-04-14T13:03:58.000Z</time>
      </trkpt>
      <trkpt lat="43.1681" lon="5.69614">
        <ele>26.799999237061</ele>
        <time>2016-04-14T13:04:00.000Z</time>
      </trkpt>
      <trkpt lat="43.1683" lon="5.69618">
        <ele>28</ele>
        <time>2016-04-14T13:04:04.000Z</time>
      </trkpt>
      <trkpt lat="43.16835" lon="5.69618">
        <ele>27.60000038147</ele>
        <time>2016-04-14T13:04:05.000Z</time>
      </trkpt>
      <trkpt lat="43.16839" lon="5.69618">
        <ele>27.200000762939</ele>
        <time>2016-04-14T13:04:06.000Z</time>
      </trkpt>
      <trkpt lat="43.16849" lon="5.69617">
        <ele>27</ele>
        <time>2016-04-14T13:04:08.000Z</time>
      </trkpt>
      <trkpt lat="43.16871" lon="5.69614">
        <ele>28.200000762939</ele>
        <time>2016-04-14T13:04:13.000Z</time>
      </trkpt>
      <trkpt lat="43.16874" lon="5.69611">
        <ele>28</ele>
        <time>2016-04-14T13:04:14.000Z</time>
      </trkpt>
      <trkpt lat="43.16879" lon="5.69601">
        <ele>26.200000762939</ele>
        <time>2016-04-14T13:04:16.000Z</time>
      </trkpt>
      <trkpt lat="43.16882" lon="5.69596">
        <ele>25.200000762939</ele>
        <time>2016-04-14T13:04:17.000Z</time>
      </trkpt>
      <trkpt lat="43.16894" lon="5.69583">
        <ele>22.39999961853</ele>
        <time>2016-04-14T13:04:20.000Z</time>
      </trkpt>
      <trkpt lat="43.16902" lon="5.69576">
        <ele>21.200000762939</ele>
        <time>2016-04-14T13:04:22.000Z</time>
      </trkpt>
      <trkpt lat="43.16917" lon="5.69568">
        <ele>19.60000038147</ele>
        <time>2016-04-14T13:04:25.000Z</time>
      </trkpt>
      <trkpt lat="43.16923" lon="5.69567">
        <ele>19.39999961853</ele>
        <time>2016-04-14T13:04:26.000Z</time>
      </trkpt>
      <trkpt lat="43.16949" lon="5.69573">
        <ele>20.60000038147</ele>
        <time>2016-04-14T13:04:30.000Z</time>
      </trkpt>
      <trkpt lat="43.16975" lon="5.69585">
        <ele>23.200000762939</ele>
        <time>2016-04-14T13:04:34.000Z</time>
      </trkpt>
      <trkpt lat="43.16988" lon="5.69583">
        <ele>22.39999961853</ele>
        <time>2016-04-14T13:04:36.000Z</time>
      </trkpt>
      <trkpt lat="43.17005" lon="5.69572">
        <ele>19.39999961853</ele>
        <time>2016-04-14T13:04:39.000Z</time>
      </trkpt>
      <trkpt lat="43.17012" lon="5.69566">
        <ele>18</ele>
        <time>2016-04-14T13:04:40.000Z</time>
      </trkpt>
      <trkpt lat="43.17033" lon="5.69546">
        <ele>14.199999809265</ele>
        <time>2016-04-14T13:04:43.000Z</time>
      </trkpt>
      <trkpt lat="43.17047" lon="5.69536">
        <ele>12.60000038147</ele>
        <time>2016-04-14T13:04:45.000Z</time>
      </trkpt>
      <trkpt lat="43.17054" lon="5.69533">
        <ele>12.199999809265</ele>
        <time>2016-04-14T13:04:46.000Z</time>
      </trkpt>
      <trkpt lat="43.17071" lon="5.6953">
        <ele>12</ele>
        <time>2016-04-14T13:04:48.000Z</time>
      </trkpt>
      <trkpt lat="43.17078" lon="5.69529">
        <ele>12.60000038147</ele>
        <time>2016-04-14T13:04:49.000Z</time>
      </trkpt>
      <trkpt lat="43.17086" lon="5.69529">
        <ele>13</ele>
        <time>2016-04-14T13:04:50.000Z</time>
      </trkpt>
      <trkpt lat="43.171" lon="5.69529">
        <ele>13.199999809265</ele>
        <time>2016-04-14T13:04:52.000Z</time>
      </trkpt>
      <trkpt lat="43.17114" lon="5.6953">
        <ele>12.39999961853</ele>
        <time>2016-04-14T13:04:54.000Z</time>
      </trkpt>
      <trkpt lat="43.17126" lon="5.69531">
        <ele>11.60000038147</ele>
        <time>2016-04-14T13:04:56.000Z</time>
      </trkpt>
      <trkpt lat="43.17131" lon="5.69531">
        <ele>11.199999809265</ele>
        <time>2016-04-14T13:04:57.000Z</time>
      </trkpt>
      <trkpt lat="43.17155" lon="5.69534">
        <ele>9.8000001907349</ele>
        <time>2016-04-14T13:05:01.000Z</time>
      </trkpt>
      <trkpt lat="43.17173" lon="5.69538">
        <ele>9.1999998092651</ele>
        <time>2016-04-14T13:05:04.000Z</time>
      </trkpt>
      <trkpt lat="43.17185" lon="5.69541">
        <ele>9</ele>
        <time>2016-04-14T13:05:06.000Z</time>
      </trkpt>
      <trkpt lat="43.17215" lon="5.6955">
        <ele>8.8000001907349</ele>
        <time>2016-04-14T13:05:11.000Z</time>
      </trkpt>
      <trkpt lat="43.17234" lon="5.69558">
        <ele>9</ele>
        <time>2016-04-14T13:05:15.000Z</time>
      </trkpt>
      <trkpt lat="43.17245" lon="5.69573">
        <ele>10</ele>
        <time>2016-04-14T13:05:19.000Z</time>
      </trkpt>
      <trkpt lat="43.17252" lon="5.69581">
        <ele>10.60000038147</ele>
        <time>2016-04-14T13:05:21.000Z</time>
      </trkpt>
      <trkpt lat="43.17255" lon="5.69585">
        <ele>10.800000190735</ele>
        <time>2016-04-14T13:05:22.000Z</time>
      </trkpt>
      <trkpt lat="43.17259" lon="5.69596">
        <ele>11.60000038147</ele>
        <time>2016-04-14T13:05:24.000Z</time>
      </trkpt>
      <trkpt lat="43.1726" lon="5.69609">
        <ele>12.60000038147</ele>
        <time>2016-04-14T13:05:26.000Z</time>
      </trkpt>
      <trkpt lat="43.1726" lon="5.69615">
        <ele>13.199999809265</ele>
        <time>2016-04-14T13:05:27.000Z</time>
      </trkpt>
      <trkpt lat="43.1726" lon="5.69634">
        <ele>14.800000190735</ele>
        <time>2016-04-14T13:05:30.000Z</time>
      </trkpt>
      <trkpt lat="43.17265" lon="5.69676">
        <ele>15.60000038147</ele>
        <time>2016-04-14T13:05:37.000Z</time>
      </trkpt>
      <trkpt lat="43.17266" lon="5.69696">
        <ele>16</ele>
        <time>2016-04-14T13:05:40.000Z</time>
      </trkpt>
      <trkpt lat="43.17269" lon="5.69725">
        <ele>16.200000762939</ele>
        <time>2016-04-14T13:05:44.000Z</time>
      </trkpt>
      <trkpt lat="43.17275" lon="5.69775">
        <ele>15.199999809265</ele>
        <time>2016-04-14T13:05:51.000Z</time>
      </trkpt>
      <trkpt lat="43.17277" lon="5.69797">
        <ele>14.800000190735</ele>
        <time>2016-04-14T13:05:54.000Z</time>
      </trkpt>
      <trkpt lat="43.17281" lon="5.69839">
        <ele>14.39999961853</ele>
        <time>2016-04-14T13:06:00.000Z</time>
      </trkpt>
      <trkpt lat="43.17283" lon="5.69853">
        <ele>14.199999809265</ele>
        <time>2016-04-14T13:06:02.000Z</time>
      </trkpt>
      <trkpt lat="43.17286" lon="5.69882">
        <ele>13.60000038147</ele>
        <time>2016-04-14T13:06:06.000Z</time>
      </trkpt>
      <trkpt lat="43.17289" lon="5.6991">
        <ele>15</ele>
        <time>2016-04-14T13:06:10.000Z</time>
      </trkpt>
      <trkpt lat="43.1729" lon="5.69931">
        <ele>16</ele>
        <time>2016-04-14T13:06:13.000Z</time>
      </trkpt>
      <trkpt lat="43.17292" lon="5.69958">
        <ele>17.39999961853</ele>
        <time>2016-04-14T13:06:17.000Z</time>
      </trkpt>
      <trkpt lat="43.17293" lon="5.69965">
        <ele>17.60000038147</ele>
        <time>2016-04-14T13:06:18.000Z</time>
      </trkpt>
      <trkpt lat="43.17294" lon="5.69971">
        <ele>17.799999237061</ele>
        <time>2016-04-14T13:06:19.000Z</time>
      </trkpt>
      <trkpt lat="43.173" lon="5.69996">
        <ele>18</ele>
        <time>2016-04-14T13:06:23.000Z</time>
      </trkpt>
      <trkpt lat="43.17302" lon="5.70002">
        <ele>18</ele>
        <time>2016-04-14T13:06:24.000Z</time>
      </trkpt>
      <trkpt lat="43.17307" lon="5.70012">
        <ele>17.799999237061</ele>
        <time>2016-04-14T13:06:26.000Z</time>
      </trkpt>
      <trkpt lat="43.17316" lon="5.70024">
        <ele>17.60000038147</ele>
        <time>2016-04-14T13:06:29.000Z</time>
      </trkpt>
      <trkpt lat="43.17337" lon="5.7005">
        <ele>17.39999961853</ele>
        <time>2016-04-14T13:06:35.000Z</time>
      </trkpt>
      <trkpt lat="43.17357" lon="5.70088">
        <ele>15.800000190735</ele>
        <time>2016-04-14T13:06:40.000Z</time>
      </trkpt>
      <trkpt lat="43.17367" lon="5.70104">
        <ele>14.800000190735</ele>
        <time>2016-04-14T13:06:42.000Z</time>
      </trkpt>
      <trkpt lat="43.1738" lon="5.70119">
        <ele>13.60000038147</ele>
        <time>2016-04-14T13:06:44.000Z</time>
      </trkpt>
      <trkpt lat="43.17387" lon="5.70124">
        <ele>13</ele>
        <time>2016-04-14T13:06:45.000Z</time>
      </trkpt>
      <trkpt lat="43.17394" lon="5.70129">
        <ele>12.199999809265</ele>
        <time>2016-04-14T13:06:46.000Z</time>
      </trkpt>
      <trkpt lat="43.1741" lon="5.70138">
        <ele>10.800000190735</ele>
        <time>2016-04-14T13:06:48.000Z</time>
      </trkpt>
      <trkpt lat="43.17417" lon="5.70142">
        <ele>10.199999809265</ele>
        <time>2016-04-14T13:06:49.000Z</time>
      </trkpt>
      <trkpt lat="43.1745" lon="5.70163">
        <ele>9.6000003814697</ele>
        <time>2016-04-14T13:06:54.000Z</time>
      </trkpt>
      <trkpt lat="43.17455" lon="5.70167">
        <ele>9.6000003814697</ele>
        <time>2016-04-14T13:06:55.000Z</time>
      </trkpt>
      <trkpt lat="43.17482" lon="5.70193">
        <ele>10.39999961853</ele>
        <time>2016-04-14T13:07:01.000Z</time>
      </trkpt>
      <trkpt lat="43.17503" lon="5.70227">
        <ele>11.199999809265</ele>
        <time>2016-04-14T13:07:08.000Z</time>
      </trkpt>
      <trkpt lat="43.17506" lon="5.7025">
        <ele>12</ele>
        <time>2016-04-14T13:07:12.000Z</time>
      </trkpt>
      <trkpt lat="43.17515" lon="5.70267">
        <ele>12.39999961853</ele>
        <time>2016-04-14T13:07:15.000Z</time>
      </trkpt>
      <trkpt lat="43.17518" lon="5.70274">
        <ele>12.60000038147</ele>
        <time>2016-04-14T13:07:16.000Z</time>
      </trkpt>
      <trkpt lat="43.1752" lon="5.7028">
        <ele>12.60000038147</ele>
        <time>2016-04-14T13:07:17.000Z</time>
      </trkpt>
      <trkpt lat="43.17529" lon="5.70324">
        <ele>13</ele>
        <time>2016-04-14T13:07:23.000Z</time>
      </trkpt>
      <trkpt lat="43.1754" lon="5.7037">
        <ele>12.199999809265</ele>
        <time>2016-04-14T13:07:30.000Z</time>
      </trkpt>
      <trkpt lat="43.17551" lon="5.70424">
        <ele>12.39999961853</ele>
        <time>2016-04-14T13:07:38.000Z</time>
      </trkpt>
      <trkpt lat="43.17566" lon="5.70488">
        <ele>13.60000038147</ele>
        <time>2016-04-14T13:07:48.000Z</time>
      </trkpt>
      <trkpt lat="43.17582" lon="5.70554">
        <ele>15.199999809265</ele>
        <time>2016-04-14T13:07:58.000Z</time>
      </trkpt>
      <trkpt lat="43.17593" lon="5.70595">
        <ele>15.199999809265</ele>
        <time>2016-04-14T13:08:04.000Z</time>
      </trkpt>
      <trkpt lat="43.17601" lon="5.70627">
        <ele>15.60000038147</ele>
        <time>2016-04-14T13:08:09.000Z</time>
      </trkpt>
      <trkpt lat="43.17609" lon="5.70645">
        <ele>15.60000038147</ele>
        <time>2016-04-14T13:08:12.000Z</time>
      </trkpt>
      <trkpt lat="43.17615" lon="5.70656">
        <ele>15.800000190735</ele>
        <time>2016-04-14T13:08:14.000Z</time>
      </trkpt>
      <trkpt lat="43.17636" lon="5.70684">
        <ele>15.60000038147</ele>
        <time>2016-04-14T13:08:20.000Z</time>
      </trkpt>
      <trkpt lat="43.1764" lon="5.70688">
        <ele>15.60000038147</ele>
        <time>2016-04-14T13:08:21.000Z</time>
      </trkpt>
      <trkpt lat="43.17673" lon="5.70727">
        <ele>15.39999961853</ele>
        <time>2016-04-14T13:08:30.000Z</time>
      </trkpt>
      <trkpt lat="43.17703" lon="5.70759">
        <ele>15.60000038147</ele>
        <time>2016-04-14T13:08:38.000Z</time>
      </trkpt>
      <trkpt lat="43.17733" lon="5.70792">
        <ele>15.60000038147</ele>
        <time>2016-04-14T13:08:46.000Z</time>
      </trkpt>
      <trkpt lat="43.17767" lon="5.7083">
        <ele>16.799999237061</ele>
        <time>2016-04-14T13:08:55.000Z</time>
      </trkpt>
      <trkpt lat="43.1777" lon="5.70834">
        <ele>17</ele>
        <time>2016-04-14T13:08:56.000Z</time>
      </trkpt>
      <trkpt lat="43.17794" lon="5.70865">
        <ele>18.200000762939</ele>
        <time>2016-04-14T13:09:03.000Z</time>
      </trkpt>
      <trkpt lat="43.17805" lon="5.70878">
        <ele>18.799999237061</ele>
        <time>2016-04-14T13:09:06.000Z</time>
      </trkpt>
      <trkpt lat="43.1782" lon="5.70896">
        <ele>20.200000762939</ele>
        <time>2016-04-14T13:09:10.000Z</time>
      </trkpt>
      <trkpt lat="43.17846" lon="5.70926">
        <ele>23.60000038147</ele>
        <time>2016-04-14T13:09:17.000Z</time>
      </trkpt>
      <trkpt lat="43.17849" lon="5.70929">
        <ele>24</ele>
        <time>2016-04-14T13:09:18.000Z</time>
      </trkpt>
      <trkpt lat="43.17853" lon="5.70932">
        <ele>24.200000762939</ele>
        <time>2016-04-14T13:09:19.000Z</time>
      </trkpt>
      <trkpt lat="43.17871" lon="5.70938">
        <ele>24.799999237061</ele>
        <time>2016-04-14T13:09:23.000Z</time>
      </trkpt>
      <trkpt lat="43.179" lon="5.70941">
        <ele>24.60000038147</ele>
        <time>2016-04-14T13:09:28.000Z</time>
      </trkpt>
      <trkpt lat="43.17905" lon="5.7094">
        <ele>24.60000038147</ele>
        <time>2016-04-14T13:09:29.000Z</time>
      </trkpt>
      <trkpt lat="43.17954" lon="5.70933">
        <ele>23.200000762939</ele>
        <time>2016-04-14T13:09:38.000Z</time>
      </trkpt>
      <trkpt lat="43.17959" lon="5.70932">
        <ele>22.799999237061</ele>
        <time>2016-04-14T13:09:39.000Z</time>
      </trkpt>
      <trkpt lat="43.17974" lon="5.70929">
        <ele>22</ele>
        <time>2016-04-14T13:09:42.000Z</time>
      </trkpt>
      <trkpt lat="43.17998" lon="5.70924">
        <ele>22.200000762939</ele>
        <time>2016-04-14T13:09:47.000Z</time>
      </trkpt>
      <trkpt lat="43.18008" lon="5.70925">
        <ele>22.39999961853</ele>
        <time>2016-04-14T13:09:49.000Z</time>
      </trkpt>
      <trkpt lat="43.18015" lon="5.70929">
        <ele>22.60000038147</ele>
        <time>2016-04-14T13:09:51.000Z</time>
      </trkpt>
      <trkpt lat="43.18022" lon="5.70948">
        <ele>23.200000762939</ele>
        <time>2016-04-14T13:09:55.000Z</time>
      </trkpt>
      <trkpt lat="43.18028" lon="5.70982">
        <ele>24</ele>
        <time>2016-04-14T13:10:00.000Z</time>
      </trkpt>
      <trkpt lat="43.18028" lon="5.70988">
        <ele>24</ele>
        <time>2016-04-14T13:10:01.000Z</time>
      </trkpt>
      <trkpt lat="43.18036" lon="5.71023">
        <ele>25.39999961853</ele>
        <time>2016-04-14T13:10:07.000Z</time>
      </trkpt>
      <trkpt lat="43.1804" lon="5.71034">
        <ele>25.799999237061</ele>
        <time>2016-04-14T13:10:09.000Z</time>
      </trkpt>
      <trkpt lat="43.1805" lon="5.71058">
        <ele>26.200000762939</ele>
        <time>2016-04-14T13:10:14.000Z</time>
      </trkpt>
      <trkpt lat="43.18053" lon="5.71063">
        <ele>26.39999961853</ele>
        <time>2016-04-14T13:10:15.000Z</time>
      </trkpt>
      <trkpt lat="43.18057" lon="5.71076">
        <ele>26.60000038147</ele>
        <time>2016-04-14T13:10:18.000Z</time>
      </trkpt>
      <trkpt lat="43.18056" lon="5.71081">
        <ele>26.799999237061</ele>
        <time>2016-04-14T13:10:19.000Z</time>
      </trkpt>
      <trkpt lat="43.18055" lon="5.71084">
        <ele>27</ele>
        <time>2016-04-14T13:10:20.000Z</time>
      </trkpt>
      <trkpt lat="43.18053" lon="5.71093">
        <ele>27.39999961853</ele>
        <time>2016-04-14T13:10:32.000Z</time>
      </trkpt>
      <trkpt lat="43.18056" lon="5.71101">
        <ele>27.60000038147</ele>
        <time>2016-04-14T13:10:34.000Z</time>
      </trkpt>
      <trkpt lat="43.18069" lon="5.71128">
        <ele>28.60000038147</ele>
        <time>2016-04-14T13:10:39.000Z</time>
      </trkpt>
      <trkpt lat="43.18067" lon="5.71146">
        <ele>29.39999961853</ele>
        <time>2016-04-14T13:10:42.000Z</time>
      </trkpt>
      <trkpt lat="43.18062" lon="5.71177">
        <ele>29.799999237061</ele>
        <time>2016-04-14T13:10:48.000Z</time>
      </trkpt>
      <trkpt lat="43.1806" lon="5.7118">
        <ele>30</ele>
        <time>2016-04-14T13:10:49.000Z</time>
      </trkpt>
      <trkpt lat="43.18053" lon="5.71184">
        <ele>30.60000038147</ele>
        <time>2016-04-14T13:10:52.000Z</time>
      </trkpt>
      <trkpt lat="43.18048" lon="5.71175">
        <ele>31</ele>
        <time>2016-04-14T13:10:54.000Z</time>
      </trkpt>
      <trkpt lat="43.18045" lon="5.71171">
        <ele>31.200000762939</ele>
        <time>2016-04-14T13:10:55.000Z</time>
      </trkpt>
      <trkpt lat="43.18041" lon="5.71168">
        <ele>31.60000038147</ele>
        <time>2016-04-14T13:10:57.000Z</time>
      </trkpt>
      <trkpt lat="43.18039" lon="5.71171">
        <ele>32</ele>
        <time>2016-04-14T13:10:59.000Z</time>
      </trkpt>
      <trkpt lat="43.18037" lon="5.71181">
        <ele>32.599998474121</ele>
        <time>2016-04-14T13:11:02.000Z</time>
      </trkpt>
      <trkpt lat="43.18035" lon="5.71184">
        <ele>32.799999237061</ele>
        <time>2016-04-14T13:11:03.000Z</time>
      </trkpt>
      <trkpt lat="43.18029" lon="5.71197">
        <ele>34</ele>
        <time>2016-04-14T13:11:08.000Z</time>
      </trkpt>
      <trkpt lat="43.18028" lon="5.712">
        <ele>34.200000762939</ele>
        <time>2016-04-14T13:11:09.000Z</time>
      </trkpt>
      <trkpt lat="43.18027" lon="5.71203">
        <ele>34.400001525879</ele>
        <time>2016-04-14T13:11:10.000Z</time>
      </trkpt>
      <trkpt lat="43.18023" lon="5.71214">
        <ele>35.400001525879</ele>
        <time>2016-04-14T13:11:13.000Z</time>
      </trkpt>
      <trkpt lat="43.18018" lon="5.71226">
        <ele>36.200000762939</ele>
        <time>2016-04-14T13:11:16.000Z</time>
      </trkpt>
      <trkpt lat="43.18016" lon="5.71231">
        <ele>36.799999237061</ele>
        <time>2016-04-14T13:11:17.000Z</time>
      </trkpt>
      <trkpt lat="43.18008" lon="5.71245">
        <ele>38.799999237061</ele>
        <time>2016-04-14T13:11:20.000Z</time>
      </trkpt>
      <trkpt lat="43.18003" lon="5.71254">
        <ele>40.400001525879</ele>
        <time>2016-04-14T13:11:22.000Z</time>
      </trkpt>
      <trkpt lat="43.17998" lon="5.71269">
        <ele>42.200000762939</ele>
        <time>2016-04-14T13:11:25.000Z</time>
      </trkpt>
      <trkpt lat="43.17996" lon="5.7128">
        <ele>43.200000762939</ele>
        <time>2016-04-14T13:11:27.000Z</time>
      </trkpt>
      <trkpt lat="43.17995" lon="5.71285">
        <ele>43.599998474121</ele>
        <time>2016-04-14T13:11:28.000Z</time>
      </trkpt>
      <trkpt lat="43.17994" lon="5.71302">
        <ele>45.200000762939</ele>
        <time>2016-04-14T13:11:31.000Z</time>
      </trkpt>
      <trkpt lat="43.17992" lon="5.71318">
        <ele>45.799999237061</ele>
        <time>2016-04-14T13:11:34.000Z</time>
      </trkpt>
      <trkpt lat="43.17991" lon="5.71323">
        <ele>46</ele>
        <time>2016-04-14T13:11:35.000Z</time>
      </trkpt>
      <trkpt lat="43.1799" lon="5.71339">
        <ele>46.599998474121</ele>
        <time>2016-04-14T13:11:38.000Z</time>
      </trkpt>
      <trkpt lat="43.17989" lon="5.71354">
        <ele>47</ele>
        <time>2016-04-14T13:11:41.000Z</time>
      </trkpt>
      <trkpt lat="43.17988" lon="5.71359">
        <ele>47.200000762939</ele>
        <time>2016-04-14T13:11:42.000Z</time>
      </trkpt>
      <trkpt lat="43.17987" lon="5.71365">
        <ele>47.400001525879</ele>
        <time>2016-04-14T13:11:43.000Z</time>
      </trkpt>
      <trkpt lat="43.17986" lon="5.71375">
        <ele>48.200000762939</ele>
        <time>2016-04-14T13:11:45.000Z</time>
      </trkpt>
      <trkpt lat="43.17984" lon="5.71385">
        <ele>48.799999237061</ele>
        <time>2016-04-14T13:11:47.000Z</time>
      </trkpt>
      <trkpt lat="43.17983" lon="5.71395">
        <ele>49.200000762939</ele>
        <time>2016-04-14T13:11:49.000Z</time>
      </trkpt>
      <trkpt lat="43.17983" lon="5.71411">
        <ele>49.599998474121</ele>
        <time>2016-04-14T13:11:52.000Z</time>
      </trkpt>
      <trkpt lat="43.1798" lon="5.71433">
        <ele>51</ele>
        <time>2016-04-14T13:11:56.000Z</time>
      </trkpt>
      <trkpt lat="43.17973" lon="5.71447">
        <ele>52.799999237061</ele>
        <time>2016-04-14T13:11:59.000Z</time>
      </trkpt>
      <trkpt lat="43.17967" lon="5.71454">
        <ele>54.400001525879</ele>
        <time>2016-04-14T13:12:01.000Z</time>
      </trkpt>
      <trkpt lat="43.1796" lon="5.71461">
        <ele>56.200000762939</ele>
        <time>2016-04-14T13:12:03.000Z</time>
      </trkpt>
      <trkpt lat="43.1795" lon="5.71473">
        <ele>59</ele>
        <time>2016-04-14T13:12:06.000Z</time>
      </trkpt>
      <trkpt lat="43.17948" lon="5.71477">
        <ele>60.599998474121</ele>
        <time>2016-04-14T13:12:07.000Z</time>
      </trkpt>
      <trkpt lat="43.17942" lon="5.71487">
        <ele>63.400001525879</ele>
        <time>2016-04-14T13:12:09.000Z</time>
      </trkpt>
      <trkpt lat="43.1794" lon="5.71492">
        <ele>63.400001525879</ele>
        <time>2016-04-14T13:12:10.000Z</time>
      </trkpt>
      <trkpt lat="43.17933" lon="5.7151">
        <ele>63.799999237061</ele>
        <time>2016-04-14T13:12:13.000Z</time>
      </trkpt>
      <trkpt lat="43.17926" lon="5.71527">
        <ele>64.199996948242</ele>
        <time>2016-04-14T13:12:16.000Z</time>
      </trkpt>
      <trkpt lat="43.17922" lon="5.71539">
        <ele>64.599998474121</ele>
        <time>2016-04-14T13:12:18.000Z</time>
      </trkpt>
      <trkpt lat="43.17919" lon="5.71551">
        <ele>65</ele>
        <time>2016-04-14T13:12:20.000Z</time>
      </trkpt>
      <trkpt lat="43.17917" lon="5.71557">
        <ele>65.599998474121</ele>
        <time>2016-04-14T13:12:21.000Z</time>
      </trkpt>
      <trkpt lat="43.17914" lon="5.71562">
        <ele>66.400001525879</ele>
        <time>2016-04-14T13:12:22.000Z</time>
      </trkpt>
      <trkpt lat="43.17906" lon="5.7157">
        <ele>68.199996948242</ele>
        <time>2016-04-14T13:12:24.000Z</time>
      </trkpt>
      <trkpt lat="43.17898" lon="5.71576">
        <ele>69.800003051758</ele>
        <time>2016-04-14T13:12:26.000Z</time>
      </trkpt>
      <trkpt lat="43.17894" lon="5.71579">
        <ele>70.599998474121</ele>
        <time>2016-04-14T13:12:27.000Z</time>
      </trkpt>
      <trkpt lat="43.17889" lon="5.71582">
        <ele>71.400001525879</ele>
        <time>2016-04-14T13:12:28.000Z</time>
      </trkpt>
      <trkpt lat="43.17881" lon="5.71587">
        <ele>73</ele>
        <time>2016-04-14T13:12:30.000Z</time>
      </trkpt>
      <trkpt lat="43.17877" lon="5.7159">
        <ele>73.400001525879</ele>
        <time>2016-04-14T13:12:31.000Z</time>
      </trkpt>
      <trkpt lat="43.17873" lon="5.71594">
        <ele>73.599998474121</ele>
        <time>2016-04-14T13:12:32.000Z</time>
      </trkpt>
      <trkpt lat="43.17865" lon="5.71601">
        <ele>74.199996948242</ele>
        <time>2016-04-14T13:12:34.000Z</time>
      </trkpt>
      <trkpt lat="43.17858" lon="5.71609">
        <ele>74.599998474121</ele>
        <time>2016-04-14T13:12:36.000Z</time>
      </trkpt>
      <trkpt lat="43.17854" lon="5.71619">
        <ele>75.199996948242</ele>
        <time>2016-04-14T13:12:38.000Z</time>
      </trkpt>
      <trkpt lat="43.17853" lon="5.71632">
        <ele>75.400001525879</ele>
        <time>2016-04-14T13:12:40.000Z</time>
      </trkpt>
      <trkpt lat="43.17857" lon="5.71646">
        <ele>76</ele>
        <time>2016-04-14T13:12:42.000Z</time>
      </trkpt>
      <trkpt lat="43.17861" lon="5.71659">
        <ele>76.199996948242</ele>
        <time>2016-04-14T13:12:44.000Z</time>
      </trkpt>
      <trkpt lat="43.17864" lon="5.71665">
        <ele>76.199996948242</ele>
        <time>2016-04-14T13:12:45.000Z</time>
      </trkpt>
      <trkpt lat="43.17872" lon="5.71684">
        <ele>76.199996948242</ele>
        <time>2016-04-14T13:12:48.000Z</time>
      </trkpt>
      <trkpt lat="43.17874" lon="5.7169">
        <ele>76.199996948242</ele>
        <time>2016-04-14T13:12:49.000Z</time>
      </trkpt>
      <trkpt lat="43.17878" lon="5.71701">
        <ele>76</ele>
        <time>2016-04-14T13:12:51.000Z</time>
      </trkpt>
      <trkpt lat="43.17882" lon="5.71715">
        <ele>76</ele>
        <time>2016-04-14T13:12:54.000Z</time>
      </trkpt>
      <trkpt lat="43.17881" lon="5.71727">
        <ele>76</ele>
        <time>2016-04-14T13:12:58.000Z</time>
      </trkpt>
      <trkpt lat="43.17877" lon="5.71732">
        <ele>76.199996948242</ele>
        <time>2016-04-14T13:13:01.000Z</time>
      </trkpt>
      <trkpt lat="43.17874" lon="5.71736">
        <ele>76.199996948242</ele>
        <time>2016-04-14T13:16:26.000Z</time>
      </trkpt>
      <trkpt lat="43.17869" lon="5.71747">
        <ele>76.199996948242</ele>
        <time>2016-04-14T13:16:29.000Z</time>
      </trkpt>
      <trkpt lat="43.17865" lon="5.71752">
        <ele>75.800003051758</ele>
        <time>2016-04-14T13:16:30.000Z</time>
      </trkpt>
      <trkpt lat="43.17858" lon="5.71763">
        <ele>74.800003051758</ele>
        <time>2016-04-14T13:16:32.000Z</time>
      </trkpt>
      <trkpt lat="43.17849" lon="5.71775">
        <ele>73.800003051758</ele>
        <time>2016-04-14T13:16:34.000Z</time>
      </trkpt>
      <trkpt lat="43.17835" lon="5.71795">
        <ele>72.800003051758</ele>
        <time>2016-04-14T13:16:37.000Z</time>
      </trkpt>
      <trkpt lat="43.1781" lon="5.71829">
        <ele>75</ele>
        <time>2016-04-14T13:16:42.000Z</time>
      </trkpt>
      <trkpt lat="43.17792" lon="5.71863">
        <ele>76.800003051758</ele>
        <time>2016-04-14T13:16:47.000Z</time>
      </trkpt>
      <trkpt lat="43.1777" lon="5.71892">
        <ele>77</ele>
        <time>2016-04-14T13:16:53.000Z</time>
      </trkpt>
      <trkpt lat="43.17765" lon="5.71895">
        <ele>77</ele>
        <time>2016-04-14T13:16:54.000Z</time>
      </trkpt>
      <trkpt lat="43.17741" lon="5.71918">
        <ele>75.800003051758</ele>
        <time>2016-04-14T13:17:00.000Z</time>
      </trkpt>
      <trkpt lat="43.17737" lon="5.71922">
        <ele>75.800003051758</ele>
        <time>2016-04-14T13:17:01.000Z</time>
      </trkpt>
      <trkpt lat="43.17723" lon="5.71945">
        <ele>75.599998474121</ele>
        <time>2016-04-14T13:17:06.000Z</time>
      </trkpt>
      <trkpt lat="43.17721" lon="5.71951">
        <ele>75.400001525879</ele>
        <time>2016-04-14T13:17:07.000Z</time>
      </trkpt>
      <trkpt lat="43.17717" lon="5.71968">
        <ele>75.599998474121</ele>
        <time>2016-04-14T13:17:10.000Z</time>
      </trkpt>
      <trkpt lat="43.17714" lon="5.71987">
        <ele>75.400001525879</ele>
        <time>2016-04-14T13:17:13.000Z</time>
      </trkpt>
      <trkpt lat="43.17712" lon="5.72005">
        <ele>75</ele>
        <time>2016-04-14T13:17:16.000Z</time>
      </trkpt>
      <trkpt lat="43.17712" lon="5.72011">
        <ele>75.199996948242</ele>
        <time>2016-04-14T13:17:17.000Z</time>
      </trkpt>
      <trkpt lat="43.17714" lon="5.72022">
        <ele>75.599998474121</ele>
        <time>2016-04-14T13:17:19.000Z</time>
      </trkpt>
      <trkpt lat="43.17716" lon="5.72028">
        <ele>75.800003051758</ele>
        <time>2016-04-14T13:17:20.000Z</time>
      </trkpt>
      <trkpt lat="43.17717" lon="5.72034">
        <ele>76</ele>
        <time>2016-04-14T13:17:21.000Z</time>
      </trkpt>
      <trkpt lat="43.17724" lon="5.72058">
        <ele>77</ele>
        <time>2016-04-14T13:17:25.000Z</time>
      </trkpt>
      <trkpt lat="43.1773" lon="5.72075">
        <ele>77.599998474121</ele>
        <time>2016-04-14T13:17:28.000Z</time>
      </trkpt>
      <trkpt lat="43.17732" lon="5.72081">
        <ele>77.800003051758</ele>
        <time>2016-04-14T13:17:29.000Z</time>
      </trkpt>
      <trkpt lat="43.17738" lon="5.72098">
        <ele>78.400001525879</ele>
        <time>2016-04-14T13:17:32.000Z</time>
      </trkpt>
      <trkpt lat="43.17748" lon="5.72119">
        <ele>79.599998474121</ele>
        <time>2016-04-14T13:17:36.000Z</time>
      </trkpt>
      <trkpt lat="43.1775" lon="5.72124">
        <ele>79.800003051758</ele>
        <time>2016-04-14T13:17:37.000Z</time>
      </trkpt>
      <trkpt lat="43.17758" lon="5.7214">
        <ele>80.800003051758</ele>
        <time>2016-04-14T13:17:40.000Z</time>
      </trkpt>
      <trkpt lat="43.17772" lon="5.72158">
        <ele>82.599998474121</ele>
        <time>2016-04-14T13:17:44.000Z</time>
      </trkpt>
      <trkpt lat="43.17796" lon="5.72189">
        <ele>85.199996948242</ele>
        <time>2016-04-14T13:17:51.000Z</time>
      </trkpt>
      <trkpt lat="43.17806" lon="5.72204">
        <ele>86.400001525879</ele>
        <time>2016-04-14T13:17:54.000Z</time>
      </trkpt>
      <trkpt lat="43.17816" lon="5.7222">
        <ele>87.599998474121</ele>
        <time>2016-04-14T13:17:57.000Z</time>
      </trkpt>
      <trkpt lat="43.17829" lon="5.72248">
        <ele>88.199996948242</ele>
        <time>2016-04-14T13:18:02.000Z</time>
      </trkpt>
      <trkpt lat="43.17836" lon="5.72265">
        <ele>88.599998474121</ele>
        <time>2016-04-14T13:18:05.000Z</time>
      </trkpt>
      <trkpt lat="43.17841" lon="5.72276">
        <ele>88.800003051758</ele>
        <time>2016-04-14T13:18:07.000Z</time>
      </trkpt>
      <trkpt lat="43.17849" lon="5.72293">
        <ele>89.199996948242</ele>
        <time>2016-04-14T13:18:10.000Z</time>
      </trkpt>
      <trkpt lat="43.17851" lon="5.72298">
        <ele>89.199996948242</ele>
        <time>2016-04-14T13:18:11.000Z</time>
      </trkpt>
      <trkpt lat="43.17853" lon="5.72304">
        <ele>89.400001525879</ele>
        <time>2016-04-14T13:18:12.000Z</time>
      </trkpt>
      <trkpt lat="43.17858" lon="5.72315">
        <ele>88.800003051758</ele>
        <time>2016-04-14T13:18:14.000Z</time>
      </trkpt>
      <trkpt lat="43.17867" lon="5.72342">
        <ele>88</ele>
        <time>2016-04-14T13:18:18.000Z</time>
      </trkpt>
      <trkpt lat="43.17882" lon="5.72388">
        <ele>86.400001525879</ele>
        <time>2016-04-14T13:18:24.000Z</time>
      </trkpt>
      <trkpt lat="43.17896" lon="5.72429">
        <ele>85.599998474121</ele>
        <time>2016-04-14T13:18:30.000Z</time>
      </trkpt>
      <trkpt lat="43.17901" lon="5.72439">
        <ele>85.400001525879</ele>
        <time>2016-04-14T13:18:32.000Z</time>
      </trkpt>
      <trkpt lat="43.17911" lon="5.72453">
        <ele>85.199996948242</ele>
        <time>2016-04-14T13:18:35.000Z</time>
      </trkpt>
      <trkpt lat="43.17923" lon="5.72473">
        <ele>85</ele>
        <time>2016-04-14T13:18:38.000Z</time>
      </trkpt>
      <trkpt lat="43.17927" lon="5.7248">
        <ele>84.599998474121</ele>
        <time>2016-04-14T13:18:39.000Z</time>
      </trkpt>
      <trkpt lat="43.17932" lon="5.72488">
        <ele>84.199996948242</ele>
        <time>2016-04-14T13:18:40.000Z</time>
      </trkpt>
      <trkpt lat="43.17941" lon="5.725">
        <ele>83.800003051758</ele>
        <time>2016-04-14T13:18:42.000Z</time>
      </trkpt>
      <trkpt lat="43.17956" lon="5.72516">
        <ele>83.400001525879</ele>
        <time>2016-04-14T13:18:45.000Z</time>
      </trkpt>
      <trkpt lat="43.17997" lon="5.72551">
        <ele>82.800003051758</ele>
        <time>2016-04-14T13:18:53.000Z</time>
      </trkpt>
      <trkpt lat="43.18023" lon="5.72572">
        <ele>82.800003051758</ele>
        <time>2016-04-14T13:18:59.000Z</time>
      </trkpt>
      <trkpt lat="43.18033" lon="5.72583">
        <ele>82.800003051758</ele>
        <time>2016-04-14T13:19:02.000Z</time>
      </trkpt>
      <trkpt lat="43.1804" lon="5.72596">
        <ele>82.599998474121</ele>
        <time>2016-04-14T13:19:05.000Z</time>
      </trkpt>
      <trkpt lat="43.18043" lon="5.72601">
        <ele>82.599998474121</ele>
        <time>2016-04-14T13:19:06.000Z</time>
      </trkpt>
      <trkpt lat="43.18053" lon="5.72624">
        <ele>82.400001525879</ele>
        <time>2016-04-14T13:19:10.000Z</time>
      </trkpt>
      <trkpt lat="43.1808" lon="5.72673">
        <ele>82.199996948242</ele>
        <time>2016-04-14T13:19:18.000Z</time>
      </trkpt>
      <trkpt lat="43.18107" lon="5.7273">
        <ele>82.199996948242</ele>
        <time>2016-04-14T13:19:27.000Z</time>
      </trkpt>
      <trkpt lat="43.18121" lon="5.72761">
        <ele>82</ele>
        <time>2016-04-14T13:19:33.000Z</time>
      </trkpt>
      <trkpt lat="43.18128" lon="5.7277">
        <ele>82</ele>
        <time>2016-04-14T13:19:37.000Z</time>
      </trkpt>
      <trkpt lat="43.18137" lon="5.72784">
        <ele>82</ele>
        <time>2016-04-14T13:19:41.000Z</time>
      </trkpt>
      <trkpt lat="43.1815" lon="5.72798">
        <ele>82.199996948242</ele>
        <time>2016-04-14T13:19:45.000Z</time>
      </trkpt>
      <trkpt lat="43.18158" lon="5.72803">
        <ele>82.400001525879</ele>
        <time>2016-04-14T13:19:47.000Z</time>
      </trkpt>
      <trkpt lat="43.18189" lon="5.7282">
        <ele>83.199996948242</ele>
        <time>2016-04-14T13:19:55.000Z</time>
      </trkpt>
      <trkpt lat="43.18193" lon="5.72823">
        <ele>83.199996948242</ele>
        <time>2016-04-14T13:19:56.000Z</time>
      </trkpt>
      <trkpt lat="43.18212" lon="5.72839">
        <ele>83.400001525879</ele>
        <time>2016-04-14T13:20:01.000Z</time>
      </trkpt>
      <trkpt lat="43.18224" lon="5.7285">
        <ele>83.599998474121</ele>
        <time>2016-04-14T13:20:04.000Z</time>
      </trkpt>
      <trkpt lat="43.1825" lon="5.72877">
        <ele>83.800003051758</ele>
        <time>2016-04-14T13:20:10.000Z</time>
      </trkpt>
      <trkpt lat="43.18277" lon="5.72909">
        <ele>84.599998474121</ele>
        <time>2016-04-14T13:20:17.000Z</time>
      </trkpt>
      <trkpt lat="43.18305" lon="5.72947">
        <ele>85.599998474121</ele>
        <time>2016-04-14T13:20:25.000Z</time>
      </trkpt>
      <trkpt lat="43.18333" lon="5.72996">
        <ele>86.800003051758</ele>
        <time>2016-04-14T13:20:35.000Z</time>
      </trkpt>
      <trkpt lat="43.18336" lon="5.73">
        <ele>87</ele>
        <time>2016-04-14T13:20:36.000Z</time>
      </trkpt>
      <trkpt lat="43.18358" lon="5.73039">
        <ele>88.400001525879</ele>
        <time>2016-04-14T13:20:45.000Z</time>
      </trkpt>
      <trkpt lat="43.1836" lon="5.73043">
        <ele>88.599998474121</ele>
        <time>2016-04-14T13:20:46.000Z</time>
      </trkpt>
      <trkpt lat="43.18377" lon="5.73081">
        <ele>89.199996948242</ele>
        <time>2016-04-14T13:20:55.000Z</time>
      </trkpt>
      <trkpt lat="43.18381" lon="5.73089">
        <ele>89.400001525879</ele>
        <time>2016-04-14T13:20:57.000Z</time>
      </trkpt>
      <trkpt lat="43.18398" lon="5.73126">
        <ele>90</ele>
        <time>2016-04-14T13:21:06.000Z</time>
      </trkpt>
      <trkpt lat="43.18406" lon="5.73138">
        <ele>90.199996948242</ele>
        <time>2016-04-14T13:21:10.000Z</time>
      </trkpt>
      <trkpt lat="43.18413" lon="5.73146">
        <ele>90.400001525879</ele>
        <time>2016-04-14T13:21:13.000Z</time>
      </trkpt>
      <trkpt lat="43.18431" lon="5.73165">
        <ele>91</ele>
        <time>2016-04-14T13:21:20.000Z</time>
      </trkpt>
      <trkpt lat="43.18438" lon="5.73173">
        <ele>91.400001525879</ele>
        <time>2016-04-14T13:21:23.000Z</time>
      </trkpt>
      <trkpt lat="43.18445" lon="5.73179">
        <ele>91.599998474121</ele>
        <time>2016-04-14T13:22:00.000Z</time>
      </trkpt>
      <trkpt lat="43.18449" lon="5.73185">
        <ele>91.800003051758</ele>
        <time>2016-04-14T13:22:02.000Z</time>
      </trkpt>
      <trkpt lat="43.18455" lon="5.73192">
        <ele>92</ele>
        <time>2016-04-14T13:22:04.000Z</time>
      </trkpt>
      <trkpt lat="43.18469" lon="5.73206">
        <ele>92.400001525879</ele>
        <time>2016-04-14T13:22:08.000Z</time>
      </trkpt>
      <trkpt lat="43.18487" lon="5.73226">
        <ele>93</ele>
        <time>2016-04-14T13:22:13.000Z</time>
      </trkpt>
      <trkpt lat="43.18494" lon="5.73235">
        <ele>93</ele>
        <time>2016-04-14T13:22:15.000Z</time>
      </trkpt>
      <trkpt lat="43.18517" lon="5.73257">
        <ele>93.199996948242</ele>
        <time>2016-04-14T13:22:21.000Z</time>
      </trkpt>
      <trkpt lat="43.18549" lon="5.73284">
        <ele>93.400001525879</ele>
        <time>2016-04-14T13:22:29.000Z</time>
      </trkpt>
      <trkpt lat="43.18553" lon="5.73286">
        <ele>93.400001525879</ele>
        <time>2016-04-14T13:22:30.000Z</time>
      </trkpt>
      <trkpt lat="43.18583" lon="5.73313">
        <ele>93.599998474121</ele>
        <time>2016-04-14T13:22:38.000Z</time>
      </trkpt>
      <trkpt lat="43.18611" lon="5.73345">
        <ele>95</ele>
        <time>2016-04-14T13:22:46.000Z</time>
      </trkpt>
      <trkpt lat="43.1862" lon="5.73357">
        <ele>95.800003051758</ele>
        <time>2016-04-14T13:22:49.000Z</time>
      </trkpt>
      <trkpt lat="43.18623" lon="5.73361">
        <ele>96</ele>
        <time>2016-04-14T13:22:50.000Z</time>
      </trkpt>
      <trkpt lat="43.18632" lon="5.73372">
        <ele>96.800003051758</ele>
        <time>2016-04-14T13:22:53.000Z</time>
      </trkpt>
      <trkpt lat="43.18647" lon="5.734">
        <ele>97.199996948242</ele>
        <time>2016-04-14T13:22:59.000Z</time>
      </trkpt>
      <trkpt lat="43.18659" lon="5.7343">
        <ele>96.199996948242</ele>
        <time>2016-04-14T13:23:05.000Z</time>
      </trkpt>
      <trkpt lat="43.18661" lon="5.73434">
        <ele>96</ele>
        <time>2016-04-14T13:24:59.000Z</time>
      </trkpt>
      <trkpt lat="43.18662" lon="5.73436">
        <ele>96</ele>
        <time>2016-04-14T13:25:00.000Z</time>
      </trkpt>
      <trkpt lat="43.18669" lon="5.73454">
        <ele>95.400001525879</ele>
        <time>2016-04-14T13:25:05.000Z</time>
      </trkpt>
      <trkpt lat="43.18684" lon="5.73487">
        <ele>95.599998474121</ele>
        <time>2016-04-14T13:25:14.000Z</time>
      </trkpt>
      <trkpt lat="43.18691" lon="5.73505">
        <ele>96.400001525879</ele>
        <time>2016-04-14T13:25:21.000Z</time>
      </trkpt>
      <trkpt lat="43.18695" lon="5.73518">
        <ele>96.800003051758</ele>
        <time>2016-04-14T13:25:27.000Z</time>
      </trkpt>
      <trkpt lat="43.18697" lon="5.73521">
        <ele>97</ele>
        <time>2016-04-14T13:25:28.000Z</time>
      </trkpt>
      <trkpt lat="43.18706" lon="5.73543">
        <ele>98</ele>
        <time>2016-04-14T13:25:34.000Z</time>
      </trkpt>
      <trkpt lat="43.18718" lon="5.73569">
        <ele>99</ele>
        <time>2016-04-14T13:25:42.000Z</time>
      </trkpt>
      <trkpt lat="43.18722" lon="5.73572">
        <ele>99.199996948242</ele>
        <time>2016-04-14T13:25:44.000Z</time>
      </trkpt>
      <trkpt lat="43.18726" lon="5.73571">
        <ele>99.800003051758</ele>
        <time>2016-04-14T13:25:46.000Z</time>
      </trkpt>
      <trkpt lat="43.18735" lon="5.73568">
        <ele>100.80000305176</ele>
        <time>2016-04-14T13:25:49.000Z</time>
      </trkpt>
      <trkpt lat="43.18743" lon="5.73564">
        <ele>101.80000305176</ele>
        <time>2016-04-14T13:25:51.000Z</time>
      </trkpt>
      <trkpt lat="43.18747" lon="5.73566">
        <ele>102.19999694824</ele>
        <time>2016-04-14T13:25:52.000Z</time>
      </trkpt>
      <trkpt lat="43.18755" lon="5.73573">
        <ele>102.80000305176</ele>
        <time>2016-04-14T13:25:54.000Z</time>
      </trkpt>
      <trkpt lat="43.18764" lon="5.73588">
        <ele>103.80000305176</ele>
        <time>2016-04-14T13:25:57.000Z</time>
      </trkpt>
      <trkpt lat="43.18767" lon="5.73593">
        <ele>104.40000152588</ele>
        <time>2016-04-14T13:25:58.000Z</time>
      </trkpt>
      <trkpt lat="43.1877" lon="5.73598">
        <ele>105</ele>
        <time>2016-04-14T13:25:59.000Z</time>
      </trkpt>
      <trkpt lat="43.18773" lon="5.73603">
        <ele>105.40000152588</ele>
        <time>2016-04-14T13:26:00.000Z</time>
      </trkpt>
      <trkpt lat="43.18775" lon="5.73607">
        <ele>105.80000305176</ele>
        <time>2016-04-14T13:26:01.000Z</time>
      </trkpt>
      <trkpt lat="43.18779" lon="5.73616">
        <ele>106.40000152588</ele>
        <time>2016-04-14T13:26:03.000Z</time>
      </trkpt>
      <trkpt lat="43.18783" lon="5.73624">
        <ele>107.19999694824</ele>
        <time>2016-04-14T13:26:05.000Z</time>
      </trkpt>
      <trkpt lat="43.1879" lon="5.73636">
        <ele>108.40000152588</ele>
        <time>2016-04-14T13:26:08.000Z</time>
      </trkpt>
      <trkpt lat="43.18792" lon="5.73643">
        <ele>108.59999847412</ele>
        <time>2016-04-14T13:26:10.000Z</time>
      </trkpt>
      <trkpt lat="43.18794" lon="5.73652">
        <ele>108.40000152588</ele>
        <time>2016-04-14T13:26:12.000Z</time>
      </trkpt>
      <trkpt lat="43.188" lon="5.73673">
        <ele>108.19999694824</ele>
        <time>2016-04-14T13:26:16.000Z</time>
      </trkpt>
      <trkpt lat="43.18811" lon="5.73697">
        <ele>109.40000152588</ele>
        <time>2016-04-14T13:26:21.000Z</time>
      </trkpt>
      <trkpt lat="43.18813" lon="5.73701">
        <ele>109.59999847412</ele>
        <time>2016-04-14T13:26:22.000Z</time>
      </trkpt>
      <trkpt lat="43.18816" lon="5.73729">
        <ele>109.40000152588</ele>
        <time>2016-04-14T13:26:28.000Z</time>
      </trkpt>
      <trkpt lat="43.18811" lon="5.73753">
        <ele>107.40000152588</ele>
        <time>2016-04-14T13:26:32.000Z</time>
      </trkpt>
      <trkpt lat="43.18807" lon="5.73761">
        <ele>106.19999694824</ele>
        <time>2016-04-14T13:26:33.000Z</time>
      </trkpt>
      <trkpt lat="43.18804" lon="5.73768">
        <ele>105.59999847412</ele>
        <time>2016-04-14T13:26:34.000Z</time>
      </trkpt>
      <trkpt lat="43.18799" lon="5.73781">
        <ele>104.59999847412</ele>
        <time>2016-04-14T13:26:36.000Z</time>
      </trkpt>
      <trkpt lat="43.18798" lon="5.7379">
        <ele>104.40000152588</ele>
        <time>2016-04-14T13:26:37.000Z</time>
      </trkpt>
      <trkpt lat="43.18799" lon="5.73799">
        <ele>104.59999847412</ele>
        <time>2016-04-14T13:26:38.000Z</time>
      </trkpt>
      <trkpt lat="43.18803" lon="5.7382">
        <ele>104.19999694824</ele>
        <time>2016-04-14T13:26:40.000Z</time>
      </trkpt>
      <trkpt lat="43.18807" lon="5.73838">
        <ele>104</ele>
        <time>2016-04-14T13:26:42.000Z</time>
      </trkpt>
      <trkpt lat="43.1881" lon="5.73846">
        <ele>104</ele>
        <time>2016-04-14T13:26:43.000Z</time>
      </trkpt>
      <trkpt lat="43.18815" lon="5.73859">
        <ele>104.19999694824</ele>
        <time>2016-04-14T13:26:45.000Z</time>
      </trkpt>
      <trkpt lat="43.18823" lon="5.73868">
        <ele>105</ele>
        <time>2016-04-14T13:26:47.000Z</time>
      </trkpt>
      <trkpt lat="43.18843" lon="5.73882">
        <ele>107</ele>
        <time>2016-04-14T13:26:52.000Z</time>
      </trkpt>
      <trkpt lat="43.18852" lon="5.73892">
        <ele>108.19999694824</ele>
        <time>2016-04-14T13:26:55.000Z</time>
      </trkpt>
      <trkpt lat="43.18854" lon="5.73896">
        <ele>108.59999847412</ele>
        <time>2016-04-14T13:26:56.000Z</time>
      </trkpt>
      <trkpt lat="43.18857" lon="5.739">
        <ele>109</ele>
        <time>2016-04-14T13:26:57.000Z</time>
      </trkpt>
      <trkpt lat="43.1886" lon="5.73905">
        <ele>109.40000152588</ele>
        <time>2016-04-14T13:26:58.000Z</time>
      </trkpt>
      <trkpt lat="43.18867" lon="5.73919">
        <ele>110.59999847412</ele>
        <time>2016-04-14T13:27:01.000Z</time>
      </trkpt>
      <trkpt lat="43.18874" lon="5.73933">
        <ele>111.59999847412</ele>
        <time>2016-04-14T13:27:04.000Z</time>
      </trkpt>
      <trkpt lat="43.18888" lon="5.73951">
        <ele>114</ele>
        <time>2016-04-14T13:27:09.000Z</time>
      </trkpt>
      <trkpt lat="43.18891" lon="5.73954">
        <ele>114.40000152588</ele>
        <time>2016-04-14T13:27:10.000Z</time>
      </trkpt>
      <trkpt lat="43.18901" lon="5.73965">
        <ele>116.19999694824</ele>
        <time>2016-04-14T13:27:13.000Z</time>
      </trkpt>
      <trkpt lat="43.18905" lon="5.7397">
        <ele>116.80000305176</ele>
        <time>2016-04-14T13:27:14.000Z</time>
      </trkpt>
      <trkpt lat="43.18908" lon="5.73975">
        <ele>117</ele>
        <time>2016-04-14T13:27:15.000Z</time>
      </trkpt>
      <trkpt lat="43.18911" lon="5.73979">
        <ele>117.40000152588</ele>
        <time>2016-04-14T13:27:16.000Z</time>
      </trkpt>
      <trkpt lat="43.18915" lon="5.73983">
        <ele>117.59999847412</ele>
        <time>2016-04-14T13:27:17.000Z</time>
      </trkpt>
      <trkpt lat="43.18921" lon="5.73991">
        <ele>118.19999694824</ele>
        <time>2016-04-14T13:27:19.000Z</time>
      </trkpt>
      <trkpt lat="43.18924" lon="5.73994">
        <ele>118.40000152588</ele>
        <time>2016-04-14T13:27:20.000Z</time>
      </trkpt>
      <trkpt lat="43.18928" lon="5.74002">
        <ele>118.80000305176</ele>
        <time>2016-04-14T13:27:22.000Z</time>
      </trkpt>
      <trkpt lat="43.18933" lon="5.74014">
        <ele>119</ele>
        <time>2016-04-14T13:27:25.000Z</time>
      </trkpt>
      <trkpt lat="43.18935" lon="5.74017">
        <ele>119</ele>
        <time>2016-04-14T13:27:26.000Z</time>
      </trkpt>
      <trkpt lat="43.18943" lon="5.74038">
        <ele>119</ele>
        <time>2016-04-14T13:27:32.000Z</time>
      </trkpt>
      <trkpt lat="43.18948" lon="5.74064">
        <ele>118.40000152588</ele>
        <time>2016-04-14T13:27:39.000Z</time>
      </trkpt>
      <trkpt lat="43.18951" lon="5.74081">
        <ele>118.19999694824</ele>
        <time>2016-04-14T13:27:45.000Z</time>
      </trkpt>
      <trkpt lat="43.18959" lon="5.74111">
        <ele>118.80000305176</ele>
        <time>2016-04-14T13:27:51.000Z</time>
      </trkpt>
      <trkpt lat="43.18963" lon="5.74144">
        <ele>118.80000305176</ele>
        <time>2016-04-14T13:27:57.000Z</time>
      </trkpt>
      <trkpt lat="43.18974" lon="5.7417">
        <ele>119.80000305176</ele>
        <time>2016-04-14T13:28:01.000Z</time>
      </trkpt>
      <trkpt lat="43.18977" lon="5.74176">
        <ele>120.19999694824</ele>
        <time>2016-04-14T13:28:02.000Z</time>
      </trkpt>
      <trkpt lat="43.1898" lon="5.74181">
        <ele>120.59999847412</ele>
        <time>2016-04-14T13:28:03.000Z</time>
      </trkpt>
      <trkpt lat="43.18989" lon="5.74196">
        <ele>121.80000305176</ele>
        <time>2016-04-14T13:28:06.000Z</time>
      </trkpt>
      <trkpt lat="43.18995" lon="5.74204">
        <ele>122.59999847412</ele>
        <time>2016-04-14T13:28:08.000Z</time>
      </trkpt>
      <trkpt lat="43.19" lon="5.74213">
        <ele>123.40000152588</ele>
        <time>2016-04-14T13:28:10.000Z</time>
      </trkpt>
      <trkpt lat="43.19008" lon="5.74227">
        <ele>124.19999694824</ele>
        <time>2016-04-14T13:28:13.000Z</time>
      </trkpt>
      <trkpt lat="43.19011" lon="5.74238">
        <ele>124.40000152588</ele>
        <time>2016-04-14T13:28:15.000Z</time>
      </trkpt>
      <trkpt lat="43.19026" lon="5.74264">
        <ele>125.19999694824</ele>
        <time>2016-04-14T13:28:21.000Z</time>
      </trkpt>
      <trkpt lat="43.19031" lon="5.74277">
        <ele>125.59999847412</ele>
        <time>2016-04-14T13:28:26.000Z</time>
      </trkpt>
      <trkpt lat="43.1903" lon="5.74297">
        <ele>124.59999847412</ele>
        <time>2016-04-14T13:28:31.000Z</time>
      </trkpt>
      <trkpt lat="43.19025" lon="5.74331">
        <ele>123.40000152588</ele>
        <time>2016-04-14T13:28:37.000Z</time>
      </trkpt>
      <trkpt lat="43.19017" lon="5.74362">
        <ele>122</ele>
        <time>2016-04-14T13:28:42.000Z</time>
      </trkpt>
      <trkpt lat="43.19012" lon="5.74377">
        <ele>121.19999694824</ele>
        <time>2016-04-14T13:28:44.000Z</time>
      </trkpt>
      <trkpt lat="43.19009" lon="5.74394">
        <ele>120.40000152588</ele>
        <time>2016-04-14T13:28:46.000Z</time>
      </trkpt>
      <trkpt lat="43.19008" lon="5.74422">
        <ele>119.40000152588</ele>
        <time>2016-04-14T13:28:49.000Z</time>
      </trkpt>
      <trkpt lat="43.19007" lon="5.74433">
        <ele>119</ele>
        <time>2016-04-14T13:28:50.000Z</time>
      </trkpt>
      <trkpt lat="43.19008" lon="5.74443">
        <ele>118.59999847412</ele>
        <time>2016-04-14T13:28:51.000Z</time>
      </trkpt>
      <trkpt lat="43.1901" lon="5.74464">
        <ele>118</ele>
        <time>2016-04-14T13:28:53.000Z</time>
      </trkpt>
      <trkpt lat="43.19012" lon="5.74483">
        <ele>118.19999694824</ele>
        <time>2016-04-14T13:28:55.000Z</time>
      </trkpt>
      <trkpt lat="43.19013" lon="5.74493">
        <ele>118.19999694824</ele>
        <time>2016-04-14T13:28:56.000Z</time>
      </trkpt>
      <trkpt lat="43.19014" lon="5.74519">
        <ele>118.59999847412</ele>
        <time>2016-04-14T13:28:59.000Z</time>
      </trkpt>
      <trkpt lat="43.19012" lon="5.74526">
        <ele>118.59999847412</ele>
        <time>2016-04-14T13:29:00.000Z</time>
      </trkpt>
      <trkpt lat="43.19004" lon="5.74536">
        <ele>118.40000152588</ele>
        <time>2016-04-14T13:29:02.000Z</time>
      </trkpt>
      <trkpt lat="43.19" lon="5.7454">
        <ele>118.19999694824</ele>
        <time>2016-04-14T13:29:03.000Z</time>
      </trkpt>
      <trkpt lat="43.18995" lon="5.74544">
        <ele>118.19999694824</ele>
        <time>2016-04-14T13:29:04.000Z</time>
      </trkpt>
      <trkpt lat="43.18987" lon="5.74553">
        <ele>118.40000152588</ele>
        <time>2016-04-14T13:29:06.000Z</time>
      </trkpt>
      <trkpt lat="43.18981" lon="5.74565">
        <ele>118</ele>
        <time>2016-04-14T13:29:08.000Z</time>
      </trkpt>
      <trkpt lat="43.18981" lon="5.74588">
        <ele>117.40000152588</ele>
        <time>2016-04-14T13:29:11.000Z</time>
      </trkpt>
      <trkpt lat="43.18981" lon="5.74596">
        <ele>117.19999694824</ele>
        <time>2016-04-14T13:29:12.000Z</time>
      </trkpt>
      <trkpt lat="43.18986" lon="5.74637">
        <ele>116.80000305176</ele>
        <time>2016-04-14T13:29:18.000Z</time>
      </trkpt>
      <trkpt lat="43.18986" lon="5.74643">
        <ele>116.40000152588</ele>
        <time>2016-04-14T13:29:19.000Z</time>
      </trkpt>
      <trkpt lat="43.18981" lon="5.74668">
        <ele>115.59999847412</ele>
        <time>2016-04-14T13:29:23.000Z</time>
      </trkpt>
      <trkpt lat="43.18975" lon="5.74689">
        <ele>114.59999847412</ele>
        <time>2016-04-14T13:29:28.000Z</time>
      </trkpt>
      <trkpt lat="43.18973" lon="5.74695">
        <ele>114.19999694824</ele>
        <time>2016-04-14T13:29:35.000Z</time>
      </trkpt>
      <trkpt lat="43.18973" lon="5.74698">
        <ele>114</ele>
        <time>2016-04-14T13:29:36.000Z</time>
      </trkpt>
      <trkpt lat="43.18975" lon="5.74712">
        <ele>113.19999694824</ele>
        <time>2016-04-14T13:29:39.000Z</time>
      </trkpt>
      <trkpt lat="43.18987" lon="5.74749">
        <ele>113.19999694824</ele>
        <time>2016-04-14T13:29:46.000Z</time>
      </trkpt>
      <trkpt lat="43.18993" lon="5.74768">
        <ele>113.40000152588</ele>
        <time>2016-04-14T13:29:49.000Z</time>
      </trkpt>
      <trkpt lat="43.18998" lon="5.74781">
        <ele>113.59999847412</ele>
        <time>2016-04-14T13:29:51.000Z</time>
      </trkpt>
      <trkpt lat="43.19005" lon="5.74796">
        <ele>113.80000305176</ele>
        <time>2016-04-14T13:29:53.000Z</time>
      </trkpt>
      <trkpt lat="43.1902" lon="5.7482">
        <ele>113.40000152588</ele>
        <time>2016-04-14T13:29:56.000Z</time>
      </trkpt>
      <trkpt lat="43.19027" lon="5.74828">
        <ele>113</ele>
        <time>2016-04-14T13:29:57.000Z</time>
      </trkpt>
      <trkpt lat="43.19056" lon="5.74855">
        <ele>111.40000152588</ele>
        <time>2016-04-14T13:30:01.000Z</time>
      </trkpt>
      <trkpt lat="43.19084" lon="5.74864">
        <ele>109.80000305176</ele>
        <time>2016-04-14T13:30:04.000Z</time>
      </trkpt>
      <trkpt lat="43.19095" lon="5.74866">
        <ele>109.19999694824</ele>
        <time>2016-04-14T13:30:05.000Z</time>
      </trkpt>
      <trkpt lat="43.19105" lon="5.74867">
        <ele>109.19999694824</ele>
        <time>2016-04-14T13:30:06.000Z</time>
      </trkpt>
      <trkpt lat="43.19125" lon="5.74874">
        <ele>108.80000305176</ele>
        <time>2016-04-14T13:30:08.000Z</time>
      </trkpt>
      <trkpt lat="43.19133" lon="5.74879">
        <ele>108.59999847412</ele>
        <time>2016-04-14T13:30:09.000Z</time>
      </trkpt>
      <trkpt lat="43.19155" lon="5.74902">
        <ele>107.59999847412</ele>
        <time>2016-04-14T13:30:12.000Z</time>
      </trkpt>
      <trkpt lat="43.19169" lon="5.74935">
        <ele>105.80000305176</ele>
        <time>2016-04-14T13:30:15.000Z</time>
      </trkpt>
      <trkpt lat="43.19177" lon="5.74986">
        <ele>103.40000152588</ele>
        <time>2016-04-14T13:30:19.000Z</time>
      </trkpt>
      <trkpt lat="43.1918" lon="5.74999">
        <ele>102.80000305176</ele>
        <time>2016-04-14T13:30:20.000Z</time>
      </trkpt>
      <trkpt lat="43.19185" lon="5.7501">
        <ele>103</ele>
        <time>2016-04-14T13:30:21.000Z</time>
      </trkpt>
      <trkpt lat="43.1919" lon="5.75021">
        <ele>103</ele>
        <time>2016-04-14T13:30:22.000Z</time>
      </trkpt>
      <trkpt lat="43.19196" lon="5.75031">
        <ele>103.19999694824</ele>
        <time>2016-04-14T13:30:23.000Z</time>
      </trkpt>
      <trkpt lat="43.19202" lon="5.7504">
        <ele>103.59999847412</ele>
        <time>2016-04-14T13:30:24.000Z</time>
      </trkpt>
      <trkpt lat="43.19219" lon="5.75067">
        <ele>104.59999847412</ele>
        <time>2016-04-14T13:30:27.000Z</time>
      </trkpt>
      <trkpt lat="43.19236" lon="5.75096">
        <ele>106</ele>
        <time>2016-04-14T13:30:31.000Z</time>
      </trkpt>
      <trkpt lat="43.19256" lon="5.75129">
        <ele>107.59999847412</ele>
        <time>2016-04-14T13:30:37.000Z</time>
      </trkpt>
      <trkpt lat="43.1926" lon="5.75135">
        <ele>107.80000305176</ele>
        <time>2016-04-14T13:30:38.000Z</time>
      </trkpt>
      <trkpt lat="43.19278" lon="5.75169">
        <ele>107.59999847412</ele>
        <time>2016-04-14T13:30:44.000Z</time>
      </trkpt>
      <trkpt lat="43.19285" lon="5.7518">
        <ele>107.40000152588</ele>
        <time>2016-04-14T13:30:46.000Z</time>
      </trkpt>
      <trkpt lat="43.19288" lon="5.75185">
        <ele>107.40000152588</ele>
        <time>2016-04-14T13:30:47.000Z</time>
      </trkpt>
      <trkpt lat="43.19298" lon="5.752">
        <ele>107.40000152588</ele>
        <time>2016-04-14T13:30:50.000Z</time>
      </trkpt>
      <trkpt lat="43.19302" lon="5.75204">
        <ele>107.40000152588</ele>
        <time>2016-04-14T13:30:51.000Z</time>
      </trkpt>
      <trkpt lat="43.19307" lon="5.75207">
        <ele>107.59999847412</ele>
        <time>2016-04-14T13:30:52.000Z</time>
      </trkpt>
      <trkpt lat="43.19315" lon="5.75212">
        <ele>108</ele>
        <time>2016-04-14T13:30:54.000Z</time>
      </trkpt>
      <trkpt lat="43.19324" lon="5.75216">
        <ele>108.59999847412</ele>
        <time>2016-04-14T13:30:56.000Z</time>
      </trkpt>
      <trkpt lat="43.19334" lon="5.75219">
        <ele>109.19999694824</ele>
        <time>2016-04-14T13:30:58.000Z</time>
      </trkpt>
      <trkpt lat="43.19339" lon="5.75221">
        <ele>109.59999847412</ele>
        <time>2016-04-14T13:30:59.000Z</time>
      </trkpt>
      <trkpt lat="43.19354" lon="5.75231">
        <ele>111.19999694824</ele>
        <time>2016-04-14T13:31:02.000Z</time>
      </trkpt>
      <trkpt lat="43.19358" lon="5.75235">
        <ele>112</ele>
        <time>2016-04-14T13:31:03.000Z</time>
      </trkpt>
      <trkpt lat="43.19366" lon="5.75243">
        <ele>113</ele>
        <time>2016-04-14T13:31:05.000Z</time>
      </trkpt>
      <trkpt lat="43.19379" lon="5.75256">
        <ele>114.80000305176</ele>
        <time>2016-04-14T13:31:08.000Z</time>
      </trkpt>
      <trkpt lat="43.1939" lon="5.75268">
        <ele>116.59999847412</ele>
        <time>2016-04-14T13:31:11.000Z</time>
      </trkpt>
      <trkpt lat="43.19401" lon="5.75282">
        <ele>118</ele>
        <time>2016-04-14T13:31:14.000Z</time>
      </trkpt>
      <trkpt lat="43.19411" lon="5.75296">
        <ele>119.40000152588</ele>
        <time>2016-04-14T13:31:17.000Z</time>
      </trkpt>
      <trkpt lat="43.19417" lon="5.75307">
        <ele>120.40000152588</ele>
        <time>2016-04-14T13:31:19.000Z</time>
      </trkpt>
      <trkpt lat="43.1942" lon="5.75313">
        <ele>120.80000305176</ele>
        <time>2016-04-14T13:31:20.000Z</time>
      </trkpt>
      <trkpt lat="43.1943" lon="5.75328">
        <ele>122.19999694824</ele>
        <time>2016-04-14T13:31:23.000Z</time>
      </trkpt>
      <trkpt lat="43.19438" lon="5.75342">
        <ele>123.40000152588</ele>
        <time>2016-04-14T13:31:26.000Z</time>
      </trkpt>
      <trkpt lat="43.19441" lon="5.75347">
        <ele>123.80000305176</ele>
        <time>2016-04-14T13:31:27.000Z</time>
      </trkpt>
      <trkpt lat="43.19446" lon="5.75357">
        <ele>124.59999847412</ele>
        <time>2016-04-14T13:31:29.000Z</time>
      </trkpt>
      <trkpt lat="43.19451" lon="5.75365">
        <ele>125.19999694824</ele>
        <time>2016-04-14T13:31:31.000Z</time>
      </trkpt>
      <trkpt lat="43.19455" lon="5.75368">
        <ele>125.80000305176</ele>
        <time>2016-04-14T13:31:32.000Z</time>
      </trkpt>
      <trkpt lat="43.19462" lon="5.75369">
        <ele>127</ele>
        <time>2016-04-14T13:31:34.000Z</time>
      </trkpt>
      <trkpt lat="43.19467" lon="5.75369">
        <ele>127.59999847412</ele>
        <time>2016-04-14T13:31:35.000Z</time>
      </trkpt>
      <trkpt lat="43.19471" lon="5.7537">
        <ele>128.19999694824</ele>
        <time>2016-04-14T13:31:36.000Z</time>
      </trkpt>
      <trkpt lat="43.19475" lon="5.75371">
        <ele>128.80000305176</ele>
        <time>2016-04-14T13:31:37.000Z</time>
      </trkpt>
      <trkpt lat="43.19484" lon="5.75371">
        <ele>130</ele>
        <time>2016-04-14T13:31:39.000Z</time>
      </trkpt>
      <trkpt lat="43.19492" lon="5.75371">
        <ele>131.19999694824</ele>
        <time>2016-04-14T13:31:41.000Z</time>
      </trkpt>
      <trkpt lat="43.195" lon="5.75371">
        <ele>132.39999389648</ele>
        <time>2016-04-14T13:31:43.000Z</time>
      </trkpt>
      <trkpt lat="43.19504" lon="5.7537">
        <ele>132.80000305176</ele>
        <time>2016-04-14T13:31:44.000Z</time>
      </trkpt>
      <trkpt lat="43.19514" lon="5.7537">
        <ele>134.39999389648</ele>
        <time>2016-04-14T13:31:47.000Z</time>
      </trkpt>
      <trkpt lat="43.19519" lon="5.75371">
        <ele>135.19999694824</ele>
        <time>2016-04-14T13:31:49.000Z</time>
      </trkpt>
      <trkpt lat="43.19521" lon="5.75371">
        <ele>135.60000610352</ele>
        <time>2016-04-14T13:31:50.000Z</time>
      </trkpt>
      <trkpt lat="43.19527" lon="5.7537">
        <ele>136.80000305176</ele>
        <time>2016-04-14T13:32:14.000Z</time>
      </trkpt>
      <trkpt lat="43.19527" lon="5.75359">
        <ele>136.60000610352</ele>
        <time>2016-04-14T13:32:17.000Z</time>
      </trkpt>
      <trkpt lat="43.1953" lon="5.7533">
        <ele>136.80000305176</ele>
        <time>2016-04-14T13:32:23.000Z</time>
      </trkpt>
      <trkpt lat="43.1953" lon="5.75325">
        <ele>136.80000305176</ele>
        <time>2016-04-14T13:32:24.000Z</time>
      </trkpt>
      <trkpt lat="43.19533" lon="5.75299">
        <ele>137.60000610352</ele>
        <time>2016-04-14T13:32:29.000Z</time>
      </trkpt>
      <trkpt lat="43.19536" lon="5.75272">
        <ele>137.80000305176</ele>
        <time>2016-04-14T13:32:34.000Z</time>
      </trkpt>
      <trkpt lat="43.1954" lon="5.7525">
        <ele>138.19999694824</ele>
        <time>2016-04-14T13:32:38.000Z</time>
      </trkpt>
      <trkpt lat="43.19541" lon="5.75245">
        <ele>138.60000610352</ele>
        <time>2016-04-14T13:32:39.000Z</time>
      </trkpt>
      <trkpt lat="43.19547" lon="5.75213">
        <ele>140.39999389648</ele>
        <time>2016-04-14T13:32:45.000Z</time>
      </trkpt>
      <trkpt lat="43.19553" lon="5.75194">
        <ele>142.39999389648</ele>
        <time>2016-04-14T13:32:49.000Z</time>
      </trkpt>
      <trkpt lat="43.19557" lon="5.75193">
        <ele>143.19999694824</ele>
        <time>2016-04-14T13:32:50.000Z</time>
      </trkpt>
      <trkpt lat="43.19561" lon="5.75194">
        <ele>144.19999694824</ele>
        <time>2016-04-14T13:32:51.000Z</time>
      </trkpt>
      <trkpt lat="43.19567" lon="5.75203">
        <ele>145.80000305176</ele>
        <time>2016-04-14T13:32:53.000Z</time>
      </trkpt>
      <trkpt lat="43.1957" lon="5.75215">
        <ele>146.39999389648</ele>
        <time>2016-04-14T13:32:55.000Z</time>
      </trkpt>
      <trkpt lat="43.19572" lon="5.75227">
        <ele>146.80000305176</ele>
        <time>2016-04-14T13:32:57.000Z</time>
      </trkpt>
      <trkpt lat="43.19572" lon="5.75233">
        <ele>146.80000305176</ele>
        <time>2016-04-14T13:32:58.000Z</time>
      </trkpt>
      <trkpt lat="43.19573" lon="5.75251">
        <ele>147</ele>
        <time>2016-04-14T13:33:01.000Z</time>
      </trkpt>
      <trkpt lat="43.19574" lon="5.75267">
        <ele>147</ele>
        <time>2016-04-14T13:33:04.000Z</time>
      </trkpt>
      <trkpt lat="43.19574" lon="5.75272">
        <ele>146.80000305176</ele>
        <time>2016-04-14T13:33:05.000Z</time>
      </trkpt>
      <trkpt lat="43.19575" lon="5.75289">
        <ele>147</ele>
        <time>2016-04-14T13:33:09.000Z</time>
      </trkpt>
      <trkpt lat="43.19575" lon="5.75299">
        <ele>147.39999389648</ele>
        <time>2016-04-14T13:33:11.000Z</time>
      </trkpt>
      <trkpt lat="43.19576" lon="5.75324">
        <ele>147.19999694824</ele>
        <time>2016-04-14T13:33:16.000Z</time>
      </trkpt>
      <trkpt lat="43.19578" lon="5.75342">
        <ele>147.39999389648</ele>
        <time>2016-04-14T13:33:20.000Z</time>
      </trkpt>
      <trkpt lat="43.1958" lon="5.75347">
        <ele>147.60000610352</ele>
        <time>2016-04-14T13:33:21.000Z</time>
      </trkpt>
      <trkpt lat="43.19588" lon="5.75361">
        <ele>149</ele>
        <time>2016-04-14T13:33:25.000Z</time>
      </trkpt>
      <trkpt lat="43.19594" lon="5.75371">
        <ele>150.19999694824</ele>
        <time>2016-04-14T13:33:28.000Z</time>
      </trkpt>
      <trkpt lat="43.19598" lon="5.75377">
        <ele>150.80000305176</ele>
        <time>2016-04-14T13:33:30.000Z</time>
      </trkpt>
      <trkpt lat="43.19607" lon="5.75392">
        <ele>152.60000610352</ele>
        <time>2016-04-14T13:33:34.000Z</time>
      </trkpt>
      <trkpt lat="43.19616" lon="5.75408">
        <ele>154.80000305176</ele>
        <time>2016-04-14T13:33:38.000Z</time>
      </trkpt>
      <trkpt lat="43.19622" lon="5.75425">
        <ele>155.80000305176</ele>
        <time>2016-04-14T13:33:42.000Z</time>
      </trkpt>
      <trkpt lat="43.19624" lon="5.75429">
        <ele>156</ele>
        <time>2016-04-14T13:33:43.000Z</time>
      </trkpt>
      <trkpt lat="43.19625" lon="5.75445">
        <ele>155.39999389648</ele>
        <time>2016-04-14T13:33:47.000Z</time>
      </trkpt>
      <trkpt lat="43.19624" lon="5.75449">
        <ele>155.19999694824</ele>
        <time>2016-04-14T13:33:48.000Z</time>
      </trkpt>
      <trkpt lat="43.19625" lon="5.7548">
        <ele>154</ele>
        <time>2016-04-14T13:33:53.000Z</time>
      </trkpt>
      <trkpt lat="43.19619" lon="5.75539">
        <ele>152.19999694824</ele>
        <time>2016-04-14T13:34:00.000Z</time>
      </trkpt>
      <trkpt lat="43.19618" lon="5.75591">
        <ele>150.19999694824</ele>
        <time>2016-04-14T13:34:06.000Z</time>
      </trkpt>
      <trkpt lat="43.19622" lon="5.75622">
        <ele>150.39999389648</ele>
        <time>2016-04-14T13:34:11.000Z</time>
      </trkpt>
      <trkpt lat="43.19628" lon="5.75633">
        <ele>151.19999694824</ele>
        <time>2016-04-14T13:34:13.000Z</time>
      </trkpt>
      <trkpt lat="43.19637" lon="5.75649">
        <ele>151.39999389648</ele>
        <time>2016-04-14T13:34:16.000Z</time>
      </trkpt>
      <trkpt lat="43.19653" lon="5.7569">
        <ele>149.39999389648</ele>
        <time>2016-04-14T13:34:24.000Z</time>
      </trkpt>
      <trkpt lat="43.19663" lon="5.75717">
        <ele>148.60000610352</ele>
        <time>2016-04-14T13:34:31.000Z</time>
      </trkpt>
      <trkpt lat="43.19671" lon="5.75731">
        <ele>147.60000610352</ele>
        <time>2016-04-14T13:34:38.000Z</time>
      </trkpt>
      <trkpt lat="43.19684" lon="5.75733">
        <ele>146.80000305176</ele>
        <time>2016-04-14T13:34:42.000Z</time>
      </trkpt>
      <trkpt lat="43.19688" lon="5.75738">
        <ele>145.19999694824</ele>
        <time>2016-04-14T13:34:44.000Z</time>
      </trkpt>
      <trkpt lat="43.19689" lon="5.75746">
        <ele>143.60000610352</ele>
        <time>2016-04-14T13:34:46.000Z</time>
      </trkpt>
      <trkpt lat="43.19688" lon="5.75752">
        <ele>143</ele>
        <time>2016-04-14T13:34:47.000Z</time>
      </trkpt>
      <trkpt lat="43.19682" lon="5.7576">
        <ele>143.19999694824</ele>
        <time>2016-04-14T13:34:49.000Z</time>
      </trkpt>
      <trkpt lat="43.19678" lon="5.75764">
        <ele>143.19999694824</ele>
        <time>2016-04-14T13:34:50.000Z</time>
      </trkpt>
      <trkpt lat="43.19674" lon="5.7577">
        <ele>142</ele>
        <time>2016-04-14T13:34:51.000Z</time>
      </trkpt>
      <trkpt lat="43.19671" lon="5.75775">
        <ele>140.80000305176</ele>
        <time>2016-04-14T13:34:52.000Z</time>
      </trkpt>
      <trkpt lat="43.19664" lon="5.75787">
        <ele>138.19999694824</ele>
        <time>2016-04-14T13:34:54.000Z</time>
      </trkpt>
      <trkpt lat="43.19662" lon="5.75792">
        <ele>137.39999389648</ele>
        <time>2016-04-14T13:34:55.000Z</time>
      </trkpt>
      <trkpt lat="43.1966" lon="5.75797">
        <ele>136.80000305176</ele>
        <time>2016-04-14T13:34:56.000Z</time>
      </trkpt>
      <trkpt lat="43.19657" lon="5.75805">
        <ele>136</ele>
        <time>2016-04-14T13:34:58.000Z</time>
      </trkpt>
      <trkpt lat="43.19655" lon="5.75807">
        <ele>135.80000305176</ele>
        <time>2016-04-14T13:34:59.000Z</time>
      </trkpt>
      <trkpt lat="43.19653" lon="5.75806">
        <ele>135.60000610352</ele>
        <time>2016-04-14T13:35:00.000Z</time>
      </trkpt>
      <trkpt lat="43.1965" lon="5.75801">
        <ele>136</ele>
        <time>2016-04-14T13:35:02.000Z</time>
      </trkpt>
      <trkpt lat="43.19648" lon="5.75797">
        <ele>136.19999694824</ele>
        <time>2016-04-14T13:35:03.000Z</time>
      </trkpt>
      <trkpt lat="43.19643" lon="5.75791">
        <ele>136.60000610352</ele>
        <time>2016-04-14T13:35:05.000Z</time>
      </trkpt>
      <trkpt lat="43.19634" lon="5.75775">
        <ele>137.80000305176</ele>
        <time>2016-04-14T13:35:09.000Z</time>
      </trkpt>
      <trkpt lat="43.19624" lon="5.7574">
        <ele>141.19999694824</ele>
        <time>2016-04-14T13:35:16.000Z</time>
      </trkpt>
      <trkpt lat="43.19621" lon="5.75718">
        <ele>144</ele>
        <time>2016-04-14T13:35:22.000Z</time>
      </trkpt>
      <trkpt lat="43.19609" lon="5.75723">
        <ele>142.19999694824</ele>
        <time>2016-04-14T13:35:29.000Z</time>
      </trkpt>
      <trkpt lat="43.19597" lon="5.75731">
        <ele>140.19999694824</ele>
        <time>2016-04-14T13:35:31.000Z</time>
      </trkpt>
      <trkpt lat="43.19592" lon="5.75735">
        <ele>139.19999694824</ele>
        <time>2016-04-14T13:35:33.000Z</time>
      </trkpt>
    </trkseg>
  </trk>
</gpx>